Darstellungsparameter: Aktuell verwendete Einstellungen:
Skalierung der Graphiken ... ?
xyx+y,   Skalierungsfaktor:      Skalierung: Modus: x, Faktor: 1
Darstellungszeitraum ... ?
Vom - - bis: - -   Zeitraum: 29.08.2004 - 28.09.2004
Min/Max/Avg-Anzeige ... ?
Zeige MMA aktuell
Zeige MMA Monat
Zeige MMA alles
Zeige --A aktuell
Zeige --A Monat
Zeige --A alles
Keine MMA-Anzeige
MMA:
Average (ber die Originaldaten)
MMA-Basis: 29.08.2004 - 28.09.2004
Quicknavigation für Darstellung... ?
Tage:      1T, 2T, 3T, 5T -1T -2T -3T -5T +1T +2T +3T +5T
Wochen: 1W, 2W, 3W -1W -2W -3W +1W +2W +3W
Monate: 1M, 3M, 6M -1M -3M -6M +1M +3M +6M
Jahre:    1J, 3J, 5J, 10J -1J -3J -5J -10J +1J +3J +5J +10J
Nutze für die Darstellung ... ?
Originaldaten oder Mittelwerte auf ...
Stundenbasis Tagesbasis Wochenbasis
Monatsbasis Jahresbasis      Datenbasis: Original-Daten
Darstellen als:
Statistik (Auto) Statistik J:M      Darstellung:
Zur Graphik,    zurück zur Übersicht aller Sensoren.
 
Tabellarische Datenbersicht: ?
 
Sensor: Nr:Datum:Temp:Abs-Feuchte:Windchill:Wind:
Aussen-T/F 1 29-08-2004 00:01:01 16.5 C 12.92 g/m*3 16.5 C 0 km/h
2 29-08-2004 00:13:01 16.4 C 12.84 g/m*3 16.4 C 0 km/h
3 29-08-2004 00:25:01 16.4 C 12.7 g/m*3 16.4 C 0 km/h
4 29-08-2004 00:37:01 16.4 C 12.7 g/m*3 16.4 C 0 km/h
5 29-08-2004 00:49:01 16.5 C 12.64 g/m*3 16.5 C 0 km/h
6 29-08-2004 01:01:01 16.6 C 12.71 g/m*3 16.6 C 0 km/h
7 29-08-2004 01:13:01 16.6 C 12.57 g/m*3 16.6 C 0 km/h
8 29-08-2004 01:25:01 16.3 C 12.49 g/m*3 16.3 C 0 km/h
9 29-08-2004 01:37:00 16.1 C 12.34 g/m*3 16.1 C 0 km/h
10 29-08-2004 01:49:01 15.8 C 12.25 g/m*3 15.8 C 0 km/h
11 29-08-2004 02:01:01 15.8 C 12.25 g/m*3 15.8 C 0 km/h
12 29-08-2004 02:13:01 15.7 C 12.18 g/m*3 15.7 C 0 km/h
13 29-08-2004 02:25:00 15.7 C 12.18 g/m*3 15.7 C 0 km/h
14 29-08-2004 02:37:00 15.7 C 12.18 g/m*3 15.7 C 0 km/h
15 29-08-2004 02:50:03 15.6 C 12.1 g/m*3 15.6 C 0 km/h
16 29-08-2004 03:02:03 15.6 C 12.1 g/m*3 15.6 C 0 km/h
17 29-08-2004 03:14:03 15.4 C 11.96 g/m*3 15.4 C 0 km/h
18 29-08-2004 03:26:03 15.4 C 12.09 g/m*3 15.4 C 0 km/h
19 29-08-2004 03:38:01 15.4 C 12.09 g/m*3 15.4 C 0 km/h
20 29-08-2004 03:50:01 15.4 C 11.96 g/m*3 15.4 C 0 km/h
21 29-08-2004 04:02:02 15.4 C 11.96 g/m*3 15.4 C 0 km/h
22 29-08-2004 04:14:02 15.5 C 11.9 g/m*3 15.5 C 0 km/h
23 29-08-2004 04:26:01 15.7 C 11.91 g/m*3 15.7 C 0 km/h
24 29-08-2004 04:38:01 15.8 C 11.85 g/m*3 15.8 C 0 km/h
25 29-08-2004 04:50:01 15.7 C 11.77 g/m*3 15.7 C 0 km/h
Sensor: Nr:Datum:Temp:Abs-Feuchte:Windchill:Wind:
Aussen-T/F 26 29-08-2004 05:02:01 15.7 C 11.91 g/m*3 15.7 C 0 km/h
27 29-08-2004 05:14:01 15.8 C 11.98 g/m*3 15.8 C 0 km/h
28 29-08-2004 05:26:00 15.9 C 12.05 g/m*3 15.9 C 0 km/h
29 29-08-2004 05:38:00 15.9 C 11.92 g/m*3 15.9 C 0 km/h
30 29-08-2004 05:50:01 15.6 C 11.7 g/m*3 15.6 C 0 km/h
31 29-08-2004 06:02:01 15.9 C 11.92 g/m*3 15.9 C 0 km/h
32 29-08-2004 06:14:01 15.8 C 11.85 g/m*3 15.8 C 0 km/h
33 29-08-2004 06:26:00 15.6 C 11.84 g/m*3 15.6 C 0 km/h
34 29-08-2004 06:38:00 15.1 C 11.48 g/m*3 15.1 C 0 km/h
35 29-08-2004 06:50:02 14.9 C 11.6 g/m*3 14.9 C 0 km/h
36 29-08-2004 07:02:02 14.8 C 11.53 g/m*3 14.8 C 0 km/h
37 29-08-2004 07:14:02 14.8 C 11.53 g/m*3 14.8 C 0 km/h
38 29-08-2004 07:26:01 14.9 C 11.73 g/m*3 14.9 C 0 km/h
39 29-08-2004 07:38:01 15 C 11.67 g/m*3 15 C 0 km/h
40 29-08-2004 07:50:01 15.3 C 12.01 g/m*3 15.3 C 0 km/h
41 29-08-2004 08:02:01 15.7 C 12.31 g/m*3 15.7 C 0 km/h
42 29-08-2004 08:14:01 16 C 12.4 g/m*3 16 C 0 km/h
43 29-08-2004 08:26:00 15.9 C 12.46 g/m*3 15.9 C 0 km/h
44 29-08-2004 08:38:00 16.2 C 12.41 g/m*3 16.2 C 0 km/h
45 29-08-2004 08:50:01 16.5 C 12.5 g/m*3 16.5 C 0 km/h
46 29-08-2004 09:02:02 16.8 C 12.58 g/m*3 16.8 C 0 km/h
47 29-08-2004 09:14:02 17 C 12.3 g/m*3 17 C 0 km/h
48 29-08-2004 09:26:01 17.5 C 12.37 g/m*3 17.5 C 0 km/h
49 29-08-2004 09:38:01 18.1 C 12.52 g/m*3 18.1 C 0 km/h
50 29-08-2004 09:50:01 18.3 C 12.51 g/m*3 18.3 C 0 km/h
Sensor: Nr:Datum:Temp:Abs-Feuchte:Windchill:Wind:
Aussen-T/F 51 29-08-2004 10:02:01 18.5 C 12.5 g/m*3 18.5 C 0 km/h
52 29-08-2004 10:14:01 18.7 C 12.17 g/m*3 18.7 C 0 km/h
53 29-08-2004 10:26:00 18.9 C 12.15 g/m*3 18.9 C 0 km/h
54 29-08-2004 10:38:00 19.2 C 12.04 g/m*3 19.2 C 0 km/h
55 29-08-2004 10:50:01 19.2 C 11.71 g/m*3 19.2 C 0 km/h
56 29-08-2004 11:02:01 19.2 C 11.87 g/m*3 19.2 C 0 km/h
57 29-08-2004 11:14:01 19.4 C 11.68 g/m*3 19.4 C 0 km/h
58 29-08-2004 11:26:00 20 C 11.92 g/m*3 20 C 0 km/h
59 29-08-2004 11:38:00 20 C 11.41 g/m*3 20 C 0 km/h
60 29-08-2004 11:50:02 20 C 11.23 g/m*3 20 C 0 km/h
61 29-08-2004 12:02:02 20.8 C 11.59 g/m*3 20.8 C 0 km/h
62 29-08-2004 12:14:02 20.8 C 11.23 g/m*3 20.8 C 0 km/h
63 29-08-2004 12:26:01 20.9 C 11.47 g/m*3 20.9 C 0 km/h
64 29-08-2004 12:38:01 21.5 C 10.75 g/m*3 21.5 C 0 km/h
65 29-08-2004 12:50:01 21.8 C 9.98 g/m*3 21.8 C 0 km/h
66 29-08-2004 13:02:01 22.2 C 9.82 g/m*3 22.2 C 0 km/h
67 29-08-2004 13:14:01 22.5 C 9.79 g/m*3 22.5 C 0 km/h
68 29-08-2004 13:26:00 22.5 C 9.39 g/m*3 22.5 C 0 km/h
69 29-08-2004 13:38:00 22.6 C 9.24 g/m*3 22.6 C 0 km/h
70 29-08-2004 13:50:02 22.9 C 9.61 g/m*3 22.9 C 0 km/h
71 29-08-2004 14:02:02 22.9 C 9.81 g/m*3 22.9 C 0 km/h
72 29-08-2004 14:14:02 23.8 C 9.9 g/m*3 23.8 C 0 km/h
73 29-08-2004 14:26:02 23.3 C 9.62 g/m*3 23.3 C 0 km/h
74 29-08-2004 14:38:01 22.9 C 9.81 g/m*3 22.9 C 0 km/h
75 29-08-2004 14:50:01 22.9 C 9.2 g/m*3 22.9 C 0 km/h
Sensor: Nr:Datum:Temp:Abs-Feuchte:Windchill:Wind:
Aussen-T/F 76 29-08-2004 15:02:01 23.1 C 8.89 g/m*3 23.1 C 0 km/h
77 29-08-2004 15:14:01 23.4 C 9.46 g/m*3 23.4 C 0 km/h
78 29-08-2004 15:26:00 23.3 C 8.99 g/m*3 23.3 C 0 km/h
79 29-08-2004 15:38:00 23.1 C 9.72 g/m*3 23.1 C 0 km/h
80 29-08-2004 15:50:01 22.9 C 9.61 g/m*3 22.9 C 0 km/h
81 29-08-2004 16:02:01 23.3 C 9.2 g/m*3 23.3 C 0 km/h
82 29-08-2004 16:14:01 23.1 C 9.51 g/m*3 23.1 C 0 km/h
83 29-08-2004 16:26:00 24.3 C 9.52 g/m*3 24.3 C 0 km/h
84 29-08-2004 16:38:01 23.7 C 9.41 g/m*3 23.7 C 0 km/h
85 29-08-2004 16:50:01 23.8 C 9.68 g/m*3 23.8 C 0 km/h
86 29-08-2004 17:02:01 23.1 C 9.51 g/m*3 23.1 C 0 km/h
87 29-08-2004 17:14:01 23.4 C 9.88 g/m*3 23.4 C 0 km/h
88 29-08-2004 17:26:01 23.4 C 9.88 g/m*3 23.4 C 0 km/h
89 29-08-2004 17:38:01 23.3 C 10.04 g/m*3 23.3 C 0 km/h
90 29-08-2004 17:50:01 22.9 C 10.01 g/m*3 22.9 C 0 km/h
91 29-08-2004 18:02:02 22.4 C 9.93 g/m*3 22.4 C 0 km/h
92 29-08-2004 18:14:02 23.5 C 10.15 g/m*3 23.5 C 0 km/h
93 29-08-2004 18:26:01 23.3 C 10.04 g/m*3 23.3 C 0 km/h
94 29-08-2004 18:38:00 22.9 C 10.01 g/m*3 22.9 C 0 km/h
95 29-08-2004 18:50:02 23.1 C 9.92 g/m*3 23.1 C 0 km/h
96 29-08-2004 19:02:02 22.1 C 9.76 g/m*3 22.1 C 0 km/h
97 29-08-2004 19:14:02 21.6 C 10.62 g/m*3 21.6 C 0 km/h
98 29-08-2004 19:26:02 21.1 C 10.5 g/m*3 21.1 C 0 km/h
99 29-08-2004 19:38:01 20.6 C 10.92 g/m*3 20.6 C 0 km/h
100 29-08-2004 19:50:01 20 C 10.71 g/m*3 20 C 0 km/h
Sensor: Nr:Datum:Temp:Abs-Feuchte:Windchill:Wind:
Aussen-T/F 101 29-08-2004 20:02:01 19.6 C 10.8 g/m*3 19.6 C 0 km/h
102 29-08-2004 20:14:01 19.2 C 10.55 g/m*3 19.2 C 0 km/h
103 29-08-2004 20:26:01 18.7 C 10.73 g/m*3 18.7 C 0 km/h
104 29-08-2004 20:38:00 18.7 C 10.89 g/m*3 18.7 C 0 km/h
105 29-08-2004 20:50:01 18.8 C 11.27 g/m*3 18.8 C 0 km/h
106 29-08-2004 21:02:02 18.7 C 11.37 g/m*3 18.7 C 0 km/h
107 29-08-2004 21:14:02 18.8 C 11.43 g/m*3 18.8 C 0 km/h
108 29-08-2004 21:26:01 18.7 C 11.37 g/m*3 18.7 C 0 km/h
109 29-08-2004 21:38:01 18.5 C 11.39 g/m*3 18.5 C 0 km/h
110 29-08-2004 21:50:01 18.3 C 11.26 g/m*3 18.3 C 0 km/h
111 29-08-2004 22:02:01 18.2 C 11.35 g/m*3 18.2 C 0 km/h
112 29-08-2004 22:14:01 18.2 C 11.5 g/m*3 18.2 C 0 km/h
113 29-08-2004 22:26:00 17.9 C 11.45 g/m*3 17.9 C 0 km/h
114 29-08-2004 22:38:00 17.9 C 11.6 g/m*3 17.9 C 0 km/h
115 29-08-2004 22:50:01 18 C 11.21 g/m*3 18 C 0 km/h
116 29-08-2004 23:02:01 18 C 11.37 g/m*3 18 C 0 km/h
117 29-08-2004 23:14:01 18 C 11.37 g/m*3 18 C 0 km/h
118 29-08-2004 23:26:00 17.8 C 11.23 g/m*3 17.8 C 0 km/h
119 29-08-2004 23:38:01 17.7 C 11.32 g/m*3 17.7 C 0 km/h
120 29-08-2004 23:50:02 17.7 C 11.47 g/m*3 17.7 C 0 km/h
121 30-08-2004 00:02:02 17.8 C 11.54 g/m*3 17.8 C 0 km/h
122 30-08-2004 00:14:02 17.9 C 11.45 g/m*3 17.9 C 0 km/h
123 30-08-2004 00:26:02 17.9 C 11.6 g/m*3 17.9 C 0 km/h
124 30-08-2004 00:38:01 17.9 C 11.6 g/m*3 17.9 C 0 km/h
125 30-08-2004 00:50:01 17.8 C 11.38 g/m*3 17.8 C 0 km/h
Sensor: Nr:Datum:Temp:Abs-Feuchte:Windchill:Wind:
Aussen-T/F 126 30-08-2004 01:02:01 17.9 C 11.6 g/m*3 17.9 C 0 km/h
127 30-08-2004 01:14:01 18 C 11.21 g/m*3 18 C 0 km/h
128 30-08-2004 01:26:02 18 C 11.21 g/m*3 18 C 0 km/h
129 30-08-2004 01:38:02 17.8 C 11.23 g/m*3 17.8 C 0 km/h
130 30-08-2004 01:50:02 17.7 C 11.32 g/m*3 17.7 C 0 km/h
131 30-08-2004 02:02:02 17.7 C 11.16 g/m*3 17.7 C 0 km/h
132 30-08-2004 02:14:02 17.7 C 11.16 g/m*3 17.7 C 0 km/h
133 30-08-2004 02:26:02 17.6 C 11.1 g/m*3 17.6 C 0 km/h
134 30-08-2004 02:38:01 17.6 C 11.25 g/m*3 17.6 C 0 km/h
135 30-08-2004 02:51:03 17.6 C 10.95 g/m*3 17.6 C 0 km/h
136 30-08-2004 03:03:03 17 C 11.29 g/m*3 17 C 0 km/h
137 30-08-2004 03:15:03 16.3 C 11.52 g/m*3 16.3 C 0 km/h
138 30-08-2004 03:27:03 16.1 C 11.65 g/m*3 16.1 C 0 km/h
139 30-08-2004 03:39:01 15.9 C 11.78 g/m*3 15.9 C 0 km/h
140 30-08-2004 03:51:01 15.8 C 11.85 g/m*3 15.8 C 0 km/h
141 30-08-2004 04:03:01 15.8 C 11.85 g/m*3 15.8 C 0 km/h
142 30-08-2004 04:15:01 16.1 C 11.93 g/m*3 16.1 C 0 km/h
143 30-08-2004 04:27:01 15.1 C 11.09 g/m*3 15.1 C 0 km/h
144 30-08-2004 04:39:00 14.7 C 11.08 g/m*3 14.7 C 0 km/h
145 30-08-2004 04:51:01 14.5 C 11.07 g/m*3 14.5 C 0 km/h
146 30-08-2004 05:03:02 14.2 C 10.75 g/m*3 14.2 C 0 km/h
147 30-08-2004 05:15:01 13.9 C 10.55 g/m*3 13.9 C 0 km/h
148 30-08-2004 05:27:01 13.9 C 10.67 g/m*3 13.9 C 0 km/h
149 30-08-2004 05:39:01 13.8 C 10.6 g/m*3 13.8 C 0 km/h
150 30-08-2004 05:51:01 13.6 C 10.47 g/m*3 13.6 C 0 km/h
Sensor: Nr:Datum:Temp:Abs-Feuchte:Windchill:Wind:
Aussen-T/F 151 30-08-2004 06:03:01 13.6 C 10.47 g/m*3 13.6 C 0 km/h
152 30-08-2004 06:15:01 13.7 C 10.42 g/m*3 13.7 C 0 km/h
153 30-08-2004 06:27:01 13.6 C 10.24 g/m*3 13.6 C 0 km/h
154 30-08-2004 06:39:01 13.6 C 10.36 g/m*3 13.6 C 0 km/h
155 30-08-2004 06:51:01 13.7 C 10.3 g/m*3 13.7 C 0 km/h
156 30-08-2004 07:03:01 13.7 C 10.18 g/m*3 13.7 C 0 km/h
157 30-08-2004 07:15:01 13.7 C 10.18 g/m*3 13.7 C 0 km/h
158 30-08-2004 07:27:01 13.7 C 10.3 g/m*3 13.7 C 0 km/h
159 30-08-2004 07:39:01 13.8 C 10.37 g/m*3 13.8 C 0 km/h
160 30-08-2004 07:51:02 13.8 C 10.37 g/m*3 13.8 C 0 km/h
161 30-08-2004 08:03:02 14 C 10.25 g/m*3 14 C 0 km/h
162 30-08-2004 08:15:01 14.2 C 10.26 g/m*3 14.2 C 0 km/h
163 30-08-2004 08:27:01 14.4 C 10.14 g/m*3 14.4 C 0 km/h
164 30-08-2004 08:39:01 14.4 C 10.14 g/m*3 14.4 C 0 km/h
165 30-08-2004 08:51:01 14.6 C 10.01 g/m*3 14.6 C 0 km/h
166 30-08-2004 09:03:01 14.8 C 10.01 g/m*3 14.8 C 0 km/h
167 30-08-2004 09:15:01 14.9 C 10.07 g/m*3 14.9 C 0 km/h
168 30-08-2004 09:27:01 15 C 10 g/m*3 15 C 0 km/h
169 30-08-2004 09:39:00 15.2 C 9.86 g/m*3 15.2 C 0 km/h
170 30-08-2004 09:51:02 15.3 C 9.92 g/m*3 15.3 C 0 km/h
171 30-08-2004 10:03:02 15.6 C 10.11 g/m*3 15.6 C 0 km/h
172 30-08-2004 10:15:02 15.9 C 10.16 g/m*3 15.9 C 0 km/h
173 30-08-2004 10:27:02 16 C 9.81 g/m*3 16 C 0 km/h
174 30-08-2004 10:39:01 16 C 9.81 g/m*3 16 C 0 km/h
175 30-08-2004 10:51:02 16.1 C 10.01 g/m*3 16.1 C 0 km/h
Sensor: Nr:Datum:Temp:Abs-Feuchte:Windchill:Wind:
Aussen-T/F 176 30-08-2004 11:03:01 16.8 C 10.29 g/m*3 16.8 C 0 km/h
177 30-08-2004 11:15:00 16.5 C 9.97 g/m*3 16.5 C 0 km/h
178 30-08-2004 11:27:00 16.2 C 9.93 g/m*3 16.2 C 0 km/h
179 30-08-2004 11:39:00 14.7 C 10.2 g/m*3 14.7 C 0 km/h
180 30-08-2004 11:51:01 14.1 C 9.95 g/m*3 14.1 C 0 km/h
181 30-08-2004 12:03:01 14.4 C 10.26 g/m*3 14.4 C 0 km/h
182 30-08-2004 12:15:02 15 C 10.64 g/m*3 15 C 0 km/h
183 30-08-2004 12:27:02 16.1 C 11.51 g/m*3 16.1 C 0 km/h
184 30-08-2004 12:39:01 16.8 C 11.15 g/m*3 16.8 C 0 km/h
185 30-08-2004 12:51:01 17.8 C 10.62 g/m*3 17.8 C 0 km/h
186 30-08-2004 13:03:01 18.3 C 10.16 g/m*3 18.3 C 0 km/h
187 30-08-2004 13:15:00 18.5 C 9.97 g/m*3 18.5 C 0 km/h
188 30-08-2004 13:27:00 17.6 C 9.45 g/m*3 17.6 C 0 km/h
189 30-08-2004 13:39:00 18.7 C 9.77 g/m*3 18.7 C 0 km/h
190 30-08-2004 13:51:01 18.5 C 9.49 g/m*3 18.5 C 0 km/h
191 30-08-2004 14:03:01 17.1 C 9.75 g/m*3 17.1 C 0 km/h
192 30-08-2004 14:15:00 15.7 C 10.44 g/m*3 15.7 C 0 km/h
193 30-08-2004 14:27:00 16.2 C 10.76 g/m*3 16.2 C 0 km/h
194 30-08-2004 14:39:01 17.6 C 10.8 g/m*3 17.6 C 0 km/h
195 30-08-2004 14:51:02 18.6 C 10.5 g/m*3 18.6 C 0 km/h
196 30-08-2004 15:03:02 19.3 C 9.95 g/m*3 19.3 C 0 km/h
197 30-08-2004 15:15:01 18.4 C 9.44 g/m*3 18.4 C 0 km/h
198 30-08-2004 15:27:01 15.7 C 10.17 g/m*3 15.7 C 0 km/h
199 30-08-2004 15:39:01 14.7 C 10.2 g/m*3 14.7 C 0 km/h
200 30-08-2004 15:51:01 14 C 10.13 g/m*3 14 C 0 km/h
Sensor: Nr:Datum:Temp:Abs-Feuchte:Windchill:Wind:
Aussen-T/F 201 30-08-2004 16:03:01 13.9 C 10.55 g/m*3 13.9 C 0 km/h
202 30-08-2004 16:15:00 15.5 C 11.37 g/m*3 15.5 C 0 km/h
203 30-08-2004 16:27:00 17.2 C 11.57 g/m*3 17.2 C 0 km/h
204 30-08-2004 16:39:00 18.4 C 11.48 g/m*3 18.4 C 0 km/h
205 30-08-2004 16:51:01 19.5 C 11.92 g/m*3 19.5 C 0 km/h
206 30-08-2004 17:03:02 19.1 C 9.67 g/m*3 19.1 C 0 km/h
207 30-08-2004 17:15:02 18.8 C 10.15 g/m*3 18.8 C 0 km/h
208 30-08-2004 17:27:02 17.6 C 9.6 g/m*3 17.6 C 0 km/h
209 30-08-2004 17:39:01 17.6 C 9.9 g/m*3 17.6 C 0 km/h
210 30-08-2004 17:51:01 17.4 C 9.78 g/m*3 17.4 C 0 km/h
211 30-08-2004 18:03:01 15.7 C 10.03 g/m*3 15.7 C 0 km/h
212 30-08-2004 18:15:01 15.5 C 10.31 g/m*3 15.5 C 0 km/h
213 30-08-2004 18:27:01 15.9 C 10.02 g/m*3 15.9 C 0 km/h
214 30-08-2004 18:39:01 16.2 C 9.79 g/m*3 16.2 C 0 km/h
215 30-08-2004 18:51:01 16 C 9.67 g/m*3 16 C 0 km/h
216 30-08-2004 19:03:01 16.3 C 10.13 g/m*3 16.3 C 0 km/h
217 30-08-2004 19:15:01 16.4 C 10.05 g/m*3 16.4 C 0 km/h
218 30-08-2004 19:27:01 17.2 C 10.1 g/m*3 17.2 C 0 km/h
219 30-08-2004 19:39:01 17 C 9.26 g/m*3 17 C 0 km/h
220 30-08-2004 19:51:02 16.4 C 9.21 g/m*3 16.4 C 0 km/h
221 30-08-2004 20:03:02 15.7 C 9.23 g/m*3 15.7 C 0 km/h
222 30-08-2004 20:15:01 15.3 C 9.27 g/m*3 15.3 C 0 km/h
223 30-08-2004 20:27:01 15 C 9.36 g/m*3 15 C 0 km/h
224 30-08-2004 20:39:01 14.9 C 9.43 g/m*3 14.9 C 0 km/h
225 30-08-2004 20:51:01 14.8 C 9.37 g/m*3 14.8 C 0 km/h
Sensor: Nr:Datum:Temp:Abs-Feuchte:Windchill:Wind:
Aussen-T/F 226 30-08-2004 21:03:02 14.7 C 9.57 g/m*3 14.7 C 0 km/h
227 30-08-2004 21:15:00 14.4 C 9.64 g/m*3 14.4 C 0 km/h
228 30-08-2004 21:27:00 14.3 C 9.71 g/m*3 14.3 C 0 km/h
229 30-08-2004 21:39:00 14.4 C 9.77 g/m*3 14.4 C 0 km/h
230 30-08-2004 21:51:02 14.4 C 9.77 g/m*3 14.4 C 0 km/h
231 30-08-2004 22:03:02 14.5 C 9.83 g/m*3 14.5 C 0 km/h
232 30-08-2004 22:15:02 14.4 C 9.89 g/m*3 14.4 C 0 km/h
233 30-08-2004 22:27:02 14.3 C 9.83 g/m*3 14.3 C 0 km/h
234 30-08-2004 22:39:01 14.4 C 9.77 g/m*3 14.4 C 0 km/h
235 30-08-2004 22:51:01 14.2 C 10.01 g/m*3 14.2 C 0 km/h
236 30-08-2004 23:03:01 14.1 C 10.07 g/m*3 14.1 C 0 km/h
237 30-08-2004 23:15:01 13.5 C 10.18 g/m*3 13.5 C 0 km/h
238 30-08-2004 23:27:01 12.8 C 9.86 g/m*3 12.8 C 0 km/h
239 30-08-2004 23:39:00 12.8 C 10.08 g/m*3 12.8 C 0 km/h
240 30-08-2004 23:51:01 12.9 C 10.26 g/m*3 12.9 C 0 km/h
241 31-08-2004 00:03:01 13 C 10.32 g/m*3 13 C 0 km/h
242 31-08-2004 00:15:02 12.8 C 10.3 g/m*3 12.8 C 0 km/h
243 31-08-2004 00:27:03 12.6 C 9.96 g/m*3 12.6 C 0 km/h
244 31-08-2004 00:39:01 12.4 C 9.72 g/m*3 12.4 C 0 km/h
245 31-08-2004 00:51:02 12.2 C 9.5 g/m*3 12.2 C 0 km/h
246 31-08-2004 01:03:01 11.9 C 9.43 g/m*3 11.9 C 0 km/h
247 31-08-2004 01:15:02 11.7 C 9.31 g/m*3 11.7 C 0 km/h
248 31-08-2004 01:27:02 11.7 C 9.31 g/m*3 11.7 C 0 km/h
249 31-08-2004 01:39:02 11.6 C 9.25 g/m*3 11.6 C 0 km/h
250 31-08-2004 01:51:01 11.5 C 9.19 g/m*3 11.5 C 0 km/h
Sensor: Nr:Datum:Temp:Abs-Feuchte:Windchill:Wind:
Aussen-T/F 251 31-08-2004 02:03:01 11.5 C 9.09 g/m*3 11.5 C 0 km/h
252 31-08-2004 02:15:01 11.5 C 9.09 g/m*3 11.5 C 0 km/h
253 31-08-2004 02:27:01 11.4 C 8.93 g/m*3 11.4 C 0 km/h
254 31-08-2004 02:39:00 11.4 C 8.93 g/m*3 11.4 C 0 km/h
255 31-08-2004 02:52:03 11.3 C 8.87 g/m*3 11.3 C 0 km/h
256 31-08-2004 03:04:03 11.4 C 8.83 g/m*3 11.4 C 0 km/h
257 31-08-2004 03:16:03 11.3 C 8.87 g/m*3 11.3 C 0 km/h
258 31-08-2004 03:28:03 11.1 C 8.86 g/m*3 11.1 C 0 km/h
259 31-08-2004 03:40:01 11.3 C 8.98 g/m*3 11.3 C 0 km/h
260 31-08-2004 03:52:01 11.6 C 9.04 g/m*3 11.6 C 0 km/h
261 31-08-2004 04:04:01 11.9 C 8.9 g/m*3 11.9 C 0 km/h
262 31-08-2004 04:16:01 12.2 C 8.85 g/m*3 12.2 C 0 km/h
263 31-08-2004 04:28:01 12 C 8.74 g/m*3 12 C 0 km/h
264 31-08-2004 04:40:00 11.6 C 8.83 g/m*3 11.6 C 0 km/h
265 31-08-2004 04:52:02 11.4 C 8.83 g/m*3 11.4 C 0 km/h
266 31-08-2004 05:04:02 11.2 C 8.82 g/m*3 11.2 C 0 km/h
267 31-08-2004 05:16:01 11.3 C 8.87 g/m*3 11.3 C 0 km/h
268 31-08-2004 05:28:01 11.2 C 8.82 g/m*3 11.2 C 0 km/h
269 31-08-2004 05:40:01 11.4 C 8.93 g/m*3 11.4 C 0 km/h
270 31-08-2004 05:52:01 11.4 C 8.83 g/m*3 11.4 C 0 km/h
271 31-08-2004 06:04:01 11.4 C 8.72 g/m*3 11.4 C 0 km/h
272 31-08-2004 06:16:00 11.5 C 8.78 g/m*3 11.5 C 0 km/h
273 31-08-2004 06:28:00 11.5 C 8.68 g/m*3 11.5 C 0 km/h
274 31-08-2004 06:40:00 11.6 C 8.63 g/m*3 11.6 C 0 km/h
275 31-08-2004 06:52:01 11.6 C 8.63 g/m*3 11.6 C 0 km/h
Sensor: Nr:Datum:Temp:Abs-Feuchte:Windchill:Wind:
Aussen-T/F 276 31-08-2004 07:04:02 11.5 C 8.57 g/m*3 11.5 C 0 km/h
277 31-08-2004 07:16:01 11.4 C 8.52 g/m*3 11.4 C 0 km/h
278 31-08-2004 07:28:01 11.6 C 8.63 g/m*3 11.6 C 0 km/h
279 31-08-2004 07:40:01 11.8 C 8.63 g/m*3 11.8 C 0 km/h
280 31-08-2004 07:52:01 12 C 8.53 g/m*3 12 C 0 km/h
281 31-08-2004 08:04:01 12.3 C 8.58 g/m*3 12.3 C 0 km/h
282 31-08-2004 08:16:01 12.4 C 8.74 g/m*3 12.4 C 0 km/h
283 31-08-2004 08:28:01 12.5 C 8.69 g/m*3 12.5 C 0 km/h
284 31-08-2004 08:40:00 12.5 C 8.69 g/m*3 12.5 C 0 km/h
285 31-08-2004 08:52:01 12.5 C 8.69 g/m*3 12.5 C 0 km/h
286 31-08-2004 09:04:02 12.8 C 8.85 g/m*3 12.8 C 0 km/h
287 31-08-2004 09:16:01 12.9 C 8.9 g/m*3 12.9 C 0 km/h
288 31-08-2004 09:28:01 13.1 C 8.9 g/m*3 13.1 C 0 km/h
289 31-08-2004 09:40:01 13.9 C 9.11 g/m*3 13.9 C 0 km/h
290 31-08-2004 09:52:01 14.4 C 9.02 g/m*3 14.4 C 0 km/h
291 31-08-2004 10:04:01 14.7 C 9.19 g/m*3 14.7 C 0 km/h
292 31-08-2004 10:16:01 14.5 C 9.08 g/m*3 14.5 C 0 km/h
293 31-08-2004 10:28:01 15 C 9.23 g/m*3 15 C 0 km/h
294 31-08-2004 10:40:00 15.2 C 9.09 g/m*3 15.2 C 0 km/h
295 31-08-2004 10:52:01 15.5 C 9.25 g/m*3 15.5 C 0 km/h
296 31-08-2004 11:04:01 15.6 C 9.18 g/m*3 15.6 C 0 km/h
297 31-08-2004 11:16:00 16.2 C 9.24 g/m*3 16.2 C 0 km/h
298 31-08-2004 11:28:00 16.6 C 9.32 g/m*3 16.6 C 0 km/h
299 31-08-2004 11:40:00 16.9 C 9.21 g/m*3 16.9 C 0 km/h
300 31-08-2004 11:52:02 16.9 C 8.77 g/m*3 16.9 C 0 km/h
Sensor: Nr:Datum:Temp:Abs-Feuchte:Windchill:Wind:
Aussen-T/F 301 31-08-2004 12:04:02 16.9 C 8.49 g/m*3 16.9 C 0 km/h
302 31-08-2004 12:16:01 17.1 C 8.3 g/m*3 17.1 C 0 km/h
303 31-08-2004 12:28:01 17.2 C 8.2 g/m*3 17.2 C 0 km/h
304 31-08-2004 12:40:01 16.8 C 9.01 g/m*3 16.8 C 0 km/h
305 31-08-2004 12:52:01 17.1 C 8.59 g/m*3 17.1 C 0 km/h
306 31-08-2004 13:04:01 17.7 C 8.9 g/m*3 17.7 C 0 km/h
307 31-08-2004 13:16:00 18.3 C 8.29 g/m*3 18.3 C 0 km/h
308 31-08-2004 13:28:00 17.8 C 8.65 g/m*3 17.8 C 0 km/h
309 31-08-2004 13:40:00 17.7 C 9.05 g/m*3 17.7 C 0 km/h
310 31-08-2004 13:52:02 17.7 C 8.3 g/m*3 17.7 C 0 km/h
311 31-08-2004 14:04:02 17.4 C 7.85 g/m*3 17.4 C 0 km/h
312 31-08-2004 14:16:01 17.5 C 8.35 g/m*3 17.5 C 0 km/h
313 31-08-2004 14:28:01 18.5 C 8.07 g/m*3 18.5 C 0 km/h
314 31-08-2004 14:40:01 18.9 C 8.75 g/m*3 18.9 C 0 km/h
315 31-08-2004 14:52:01 19.7 C 8.32 g/m*3 19.7 C 0 km/h
316 31-08-2004 15:04:01 19.5 C 7.89 g/m*3 19.5 C 0 km/h
317 31-08-2004 15:16:00 19 C 7.82 g/m*3 19 C 0 km/h
318 31-08-2004 15:28:00 18.8 C 9.34 g/m*3 18.8 C 0 km/h
319 31-08-2004 15:40:00 18.8 C 9.5 g/m*3 18.8 C 0 km/h
320 31-08-2004 15:52:01 18.1 C 9.27 g/m*3 18.1 C 0 km/h
321 31-08-2004 16:04:01 18.6 C 8.12 g/m*3 18.6 C 0 km/h
322 31-08-2004 16:16:01 19.2 C 7.91 g/m*3 19.2 C 0 km/h
323 31-08-2004 16:28:01 19.1 C 7.87 g/m*3 19.1 C 0 km/h
324 31-08-2004 16:40:01 18.8 C 8.7 g/m*3 18.8 C 0 km/h
325 31-08-2004 16:52:01 18.7 C 7.84 g/m*3 18.7 C 0 km/h
Sensor: Nr:Datum:Temp:Abs-Feuchte:Windchill:Wind:
Aussen-T/F 326 31-08-2004 17:04:01 18.9 C 8.26 g/m*3 18.9 C 0 km/h
327 31-08-2004 17:16:00 19.3 C 8.63 g/m*3 19.3 C 0 km/h
328 31-08-2004 17:28:00 19.6 C 8.61 g/m*3 19.6 C 0 km/h
329 31-08-2004 17:40:00 19.1 C 8.03 g/m*3 19.1 C 0 km/h
330 31-08-2004 17:52:01 19.4 C 8.01 g/m*3 19.4 C 0 km/h
331 31-08-2004 18:04:02 19.2 C 7.59 g/m*3 19.2 C 0 km/h
332 31-08-2004 18:16:01 18.9 C 7.29 g/m*3 18.9 C 0 km/h
333 31-08-2004 18:28:01 19.4 C 7.84 g/m*3 19.4 C 0 km/h
334 31-08-2004 18:40:01 19.1 C 8.36 g/m*3 19.1 C 0 km/h
335 31-08-2004 18:52:01 18.4 C 8.18 g/m*3 18.4 C 0 km/h
336 31-08-2004 19:04:01 18 C 7.68 g/m*3 18 C 0 km/h
337 31-08-2004 19:16:00 17.4 C 7.71 g/m*3 17.4 C 0 km/h
338 31-08-2004 19:28:00 17.2 C 7.91 g/m*3 17.2 C 0 km/h
339 31-08-2004 19:40:00 16.4 C 8.1 g/m*3 16.4 C 0 km/h
340 31-08-2004 19:52:01 16.3 C 8.19 g/m*3 16.3 C 0 km/h
341 31-08-2004 20:04:01 16.1 C 7.68 g/m*3 16.1 C 0 km/h
342 31-08-2004 20:16:01 15.9 C 7.85 g/m*3 15.9 C 0 km/h
343 31-08-2004 20:28:01 15.8 C 8.21 g/m*3 15.8 C 0 km/h
344 31-08-2004 20:40:01 15.8 C 8.08 g/m*3 15.8 C 0 km/h
345 31-08-2004 20:52:02 15.7 C 8.16 g/m*3 15.7 C 0 km/h
346 31-08-2004 21:04:02 15.8 C 8.08 g/m*3 15.8 C 0 km/h
347 31-08-2004 21:16:03 15.7 C 8.16 g/m*3 15.7 C 0 km/h
348 31-08-2004 21:28:03 15.6 C 8.51 g/m*3 15.6 C 0 km/h
349 31-08-2004 21:40:02 15.3 C 8.62 g/m*3 15.3 C 0 km/h
350 31-08-2004 21:52:02 15.1 C 8.64 g/m*3 15.1 C 0 km/h
Sensor: Nr:Datum:Temp:Abs-Feuchte:Windchill:Wind:
Aussen-T/F 351 31-08-2004 22:04:01 14.9 C 8.54 g/m*3 14.9 C 0 km/h
352 31-08-2004 22:16:02 14.8 C 8.74 g/m*3 14.8 C 0 km/h
353 31-08-2004 22:28:02 14.7 C 8.81 g/m*3 14.7 C 0 km/h
354 31-08-2004 22:40:02 14.5 C 8.95 g/m*3 14.5 C 0 km/h
355 31-08-2004 22:52:01 14.2 C 8.91 g/m*3 14.2 C 0 km/h
356 31-08-2004 23:04:01 13.8 C 8.82 g/m*3 13.8 C 0 km/h
357 31-08-2004 23:16:01 13.5 C 8.66 g/m*3 13.5 C 0 km/h
358 31-08-2004 23:28:01 13.3 C 8.55 g/m*3 13.3 C 0 km/h
359 31-08-2004 23:40:00 13.1 C 8.79 g/m*3 13.1 C 0 km/h
360 31-08-2004 23:52:01 13 C 8.73 g/m*3 13 C 0 km/h
361 01-09-2004 00:04:01 12.7 C 8.68 g/m*3 12.7 C 0 km/h
362 01-09-2004 00:16:01 12.6 C 8.63 g/m*3 12.6 C 0 km/h
363 01-09-2004 00:28:01 12.3 C 8.47 g/m*3 12.3 C 0 km/h
364 01-09-2004 00:40:01 12.1 C 8.36 g/m*3 12.1 C 0 km/h
365 01-09-2004 00:52:01 11.9 C 8.58 g/m*3 11.9 C 0 km/h
366 01-09-2004 01:04:01 11.7 C 8.47 g/m*3 11.7 C 0 km/h
367 01-09-2004 01:16:01 11.5 C 8.37 g/m*3 11.5 C 0 km/h
368 01-09-2004 01:28:01 11.1 C 8.16 g/m*3 11.1 C 0 km/h
369 01-09-2004 01:40:01 11 C 8.21 g/m*3 11 C 0 km/h
370 01-09-2004 01:52:01 11 C 8.31 g/m*3 11 C 0 km/h
371 01-09-2004 02:04:02 10.8 C 8.3 g/m*3 10.8 C 0 km/h
372 01-09-2004 02:16:02 10.8 C 8.4 g/m*3 10.8 C 0 km/h
373 01-09-2004 02:28:02 10.5 C 8.34 g/m*3 10.5 C 0 km/h
374 01-09-2004 02:40:01 10.2 C 8.18 g/m*3 10.2 C 0 km/h
375 01-09-2004 02:53:02 10.2 C 8.18 g/m*3 10.2 C 0 km/h
Sensor: Nr:Datum:Temp:Abs-Feuchte:Windchill:Wind:
Aussen-T/F 376 01-09-2004 03:05:02 10.1 C 8.23 g/m*3 10.1 C 0 km/h
377 01-09-2004 03:17:02 10 C 8.17 g/m*3 10 C 0 km/h
378 01-09-2004 03:29:02 9.8 C 8.16 g/m*3 9.8 C 0 km/h
379 01-09-2004 03:41:02 9.7 C 8.2 g/m*3 9.7 C 0 km/h
380 01-09-2004 03:53:02 9.8 C 8.26 g/m*3 9.8 C 0 km/h
381 01-09-2004 04:05:02 9.8 C 8.35 g/m*3 9.8 C 0 km/h
382 01-09-2004 04:17:01 9.8 C 8.35 g/m*3 9.8 C 0 km/h
383 01-09-2004 04:29:01 10 C 8.36 g/m*3 10 C 0 km/h
384 01-09-2004 04:41:01 10 C 8.36 g/m*3 10 C 0 km/h
385 01-09-2004 04:53:01 10 C 8.36 g/m*3 10 C 0 km/h
386 01-09-2004 05:05:01 9.8 C 8.35 g/m*3 9.8 C 0 km/h
387 01-09-2004 05:17:00 9.9 C 8.4 g/m*3 9.9 C 0 km/h
388 01-09-2004 05:29:00 10 C 8.36 g/m*3 10 C 0 km/h
389 01-09-2004 05:41:00 10 C 8.36 g/m*3 10 C 0 km/h
390 01-09-2004 05:53:02 10 C 8.36 g/m*3 10 C 0 km/h
391 01-09-2004 06:05:02 10 C 8.36 g/m*3 10 C 0 km/h
392 01-09-2004 06:17:01 10 C 8.46 g/m*3 10 C 0 km/h
393 01-09-2004 06:29:01 9.8 C 8.44 g/m*3 9.8 C 0 km/h
394 01-09-2004 06:41:01 9.8 C 8.44 g/m*3 9.8 C 0 km/h
395 01-09-2004 06:53:01 9.8 C 8.54 g/m*3 9.8 C 0 km/h
396 01-09-2004 07:05:01 9.9 C 8.59 g/m*3 9.9 C 0 km/h
397 01-09-2004 07:17:00 9.9 C 8.59 g/m*3 9.9 C 0 km/h
398 01-09-2004 07:29:00 9.8 C 8.44 g/m*3 9.8 C 0 km/h
399 01-09-2004 07:41:01 10 C 8.46 g/m*3 10 C 0 km/h
400 01-09-2004 07:53:01 10.3 C 8.71 g/m*3 10.3 C 0 km/h
Sensor: Nr:Datum:Temp:Abs-Feuchte:Windchill:Wind:
Aussen-T/F 401 01-09-2004 08:05:02 10.6 C 8.88 g/m*3 10.6 C 0 km/h
402 01-09-2004 08:17:01 11 C 9.11 g/m*3 11 C 0 km/h
403 01-09-2004 08:29:01 11.3 C 9.18 g/m*3 11.3 C 0 km/h
404 01-09-2004 08:41:01 11.7 C 9.31 g/m*3 11.7 C 0 km/h
405 01-09-2004 08:53:01 12.1 C 9.33 g/m*3 12.1 C 0 km/h
406 01-09-2004 09:05:01 12.2 C 8.96 g/m*3 12.2 C 0 km/h
407 01-09-2004 09:17:00 12.6 C 9.07 g/m*3 12.6 C 0 km/h
408 01-09-2004 09:29:00 13 C 8.96 g/m*3 13 C 0 km/h
409 01-09-2004 09:41:00 13.5 C 9.12 g/m*3 13.5 C 0 km/h
410 01-09-2004 09:53:01 13.2 C 8.84 g/m*3 13.2 C 0 km/h
411 01-09-2004 10:05:01 13.2 C 8.96 g/m*3 13.2 C 0 km/h
412 01-09-2004 10:17:01 13.6 C 9.3 g/m*3 13.6 C 0 km/h
413 01-09-2004 10:29:01 14.8 C 9.75 g/m*3 14.8 C 0 km/h
414 01-09-2004 10:41:01 15.4 C 9.72 g/m*3 15.4 C 0 km/h
415 01-09-2004 10:53:02 15.4 C 9.72 g/m*3 15.4 C 0 km/h
416 01-09-2004 11:05:02 16 C 9.95 g/m*3 16 C 0 km/h
417 01-09-2004 11:17:01 16.2 C 9.79 g/m*3 16.2 C 0 km/h
418 01-09-2004 11:29:01 17 C 9.84 g/m*3 17 C 0 km/h
419 01-09-2004 11:41:01 17.7 C 9.66 g/m*3 17.7 C 0 km/h
420 01-09-2004 11:53:01 17.8 C 9.41 g/m*3 17.8 C 0 km/h
421 01-09-2004 12:05:01 18.6 C 9.39 g/m*3 18.6 C 0 km/h
422 01-09-2004 12:17:56 19.1 C 9.34 g/m*3 19.1 C 0 km/h
423 01-09-2004 12:29:56 19.3 C 8.46 g/m*3 19.3 C 0 km/h
424 01-09-2004 12:41:56 19.9 C 8.08 g/m*3 19.9 C 0 km/h
425 01-09-2004 12:53:56 20.8 C 7.79 g/m*3 20.8 C 0 km/h
Sensor: Nr:Datum:Temp:Abs-Feuchte:Windchill:Wind:
Aussen-T/F 426 01-09-2004 13:05:56 20.8 C 7.97 g/m*3 20.8 C 0 km/h
427 01-09-2004 13:17:56 21.2 C 9.27 g/m*3 21.2 C 0 km/h
428 01-09-2004 13:29:56 21.2 C 9.27 g/m*3 21.2 C 0 km/h
429 01-09-2004 13:41:57 21 C 9.53 g/m*3 21 C 0 km/h
430 01-09-2004 13:53:57 21.2 C 9.82 g/m*3 21.2 C 0 km/h
431 01-09-2004 14:05:57 22.2 C 8.44 g/m*3 22.2 C 0 km/h
432 01-09-2004 14:17:57 22 C 7.96 g/m*3 22 C 0 km/h
433 01-09-2004 14:29:57 22.9 C 8.17 g/m*3 22.9 C 0 km/h
434 01-09-2004 14:41:57 22.7 C 8.69 g/m*3 22.7 C 0 km/h
435 01-09-2004 14:53:57 22.5 C 8.59 g/m*3 22.5 C 0 km/h
436 01-09-2004 15:05:57 22.8 C 8.13 g/m*3 22.8 C 0 km/h
437 01-09-2004 15:17:57 23.5 C 8.04 g/m*3 23.5 C 0 km/h
438 01-09-2004 15:29:57 23.9 C 8.44 g/m*3 23.9 C 0 km/h
439 01-09-2004 15:41:57 24.6 C 8.1 g/m*3 24.6 C 0 km/h
440 01-09-2004 15:53:57 25.7 C 7.42 g/m*3 25.7 C 0 km/h
441 01-09-2004 16:05:57 25.3 C 7.26 g/m*3 25.3 C 0 km/h
442 01-09-2004 16:17:57 25.4 C 7.3 g/m*3 25.4 C 0 km/h
443 01-09-2004 16:29:57 26 C 8.03 g/m*3 26 C 0 km/h
444 01-09-2004 16:41:57 26.4 C 7.47 g/m*3 26.4 C 0 km/h
445 01-09-2004 16:53:57 26.7 C 7.34 g/m*3 26.7 C 0 km/h
446 01-09-2004 17:05:57 25.9 C 6.78 g/m*3 25.9 C 0 km/h
447 01-09-2004 17:17:57 25.9 C 8.23 g/m*3 25.9 C 0 km/h
448 01-09-2004 17:29:57 26 C 6.82 g/m*3 26 C 0 km/h
449 01-09-2004 17:41:57 26.5 C 7.76 g/m*3 26.5 C 0 km/h
450 01-09-2004 17:53:01 26.3 C 7.18 g/m*3 26.3 C 0 km/h
Sensor: Nr:Datum:Temp:Abs-Feuchte:Windchill:Wind:
Aussen-T/F 451 01-09-2004 18:05:01 26.4 C 6.97 g/m*3 26.4 C 0 km/h
452 01-09-2004 18:17:01 26 C 7.79 g/m*3 26 C 0 km/h
453 01-09-2004 18:29:01 26.2 C 8.62 g/m*3 26.2 C 0 km/h
454 01-09-2004 18:41:01 24.5 C 8.95 g/m*3 24.5 C 0 km/h
455 01-09-2004 18:53:01 22.3 C 9.08 g/m*3 22.3 C 0 km/h
456 01-09-2004 19:05:00 20.4 C 8.85 g/m*3 20.4 C 0 km/h
457 01-09-2004 19:17:00 19.5 C 9.06 g/m*3 19.5 C 0 km/h
458 01-09-2004 19:29:00 19.3 C 8.96 g/m*3 19.3 C 0 km/h
459 01-09-2004 19:41:00 18.9 C 9.07 g/m*3 18.9 C 0 km/h
460 01-09-2004 19:53:00 18.4 C 8.81 g/m*3 18.4 C 0 km/h
461 01-09-2004 20:05:01 17.7 C 8.6 g/m*3 17.7 C 0 km/h
462 01-09-2004 20:17:01 17 C 8.39 g/m*3 17 C 0 km/h
463 01-09-2004 20:29:01 16.3 C 8.32 g/m*3 16.3 C 0 km/h
464 01-09-2004 20:41:01 15.8 C 8.35 g/m*3 15.8 C 0 km/h
465 01-09-2004 20:53:01 15.6 C 8.25 g/m*3 15.6 C 0 km/h
466 01-09-2004 21:05:01 15.4 C 8.41 g/m*3 15.4 C 0 km/h
467 01-09-2004 21:17:01 15.2 C 8.44 g/m*3 15.2 C 0 km/h
468 01-09-2004 21:29:01 15.2 C 8.44 g/m*3 15.2 C 0 km/h
469 01-09-2004 21:41:00 14.9 C 8.54 g/m*3 14.9 C 0 km/h
470 01-09-2004 21:53:00 14.7 C 8.44 g/m*3 14.7 C 0 km/h
471 01-09-2004 22:05:00 14.5 C 8.21 g/m*3 14.5 C 0 km/h
472 01-09-2004 22:17:00 14.3 C 8.35 g/m*3 14.3 C 0 km/h
473 01-09-2004 22:29:00 14.2 C 8.43 g/m*3 14.2 C 0 km/h
474 01-09-2004 22:41:00 14 C 8.2 g/m*3 14 C 0 km/h
475 01-09-2004 22:53:00 13.8 C 8.34 g/m*3 13.8 C 0 km/h
Sensor: Nr:Datum:Temp:Abs-Feuchte:Windchill:Wind:
Aussen-T/F 476 01-09-2004 23:05:00 13.6 C 8.47 g/m*3 13.6 C 0 km/h
477 01-09-2004 23:17:00 13.4 C 8.37 g/m*3 13.4 C 0 km/h
478 01-09-2004 23:29:00 13.3 C 8.66 g/m*3 13.3 C 0 km/h
479 01-09-2004 23:41:00 13.2 C 8.73 g/m*3 13.2 C 0 km/h
480 01-09-2004 23:53:00 13 C 8.62 g/m*3 13 C 0 km/h
481 02-09-2004 00:05:01 12.7 C 8.46 g/m*3 12.7 C 0 km/h
482 02-09-2004 00:17:01 12.5 C 8.36 g/m*3 12.5 C 0 km/h
483 02-09-2004 00:29:01 12.4 C 8.41 g/m*3 12.4 C 0 km/h
484 02-09-2004 00:41:00 12.2 C 8.42 g/m*3 12.2 C 0 km/h
485 02-09-2004 00:53:00 12.1 C 8.36 g/m*3 12.1 C 0 km/h
486 02-09-2004 01:05:00 12 C 8.53 g/m*3 12 C 0 km/h
487 02-09-2004 01:17:00 11.9 C 8.58 g/m*3 11.9 C 0 km/h
488 02-09-2004 01:29:00 11.7 C 8.58 g/m*3 11.7 C 0 km/h
489 02-09-2004 01:41:00 11.7 C 8.58 g/m*3 11.7 C 0 km/h
490 02-09-2004 01:53:00 11.5 C 8.57 g/m*3 11.5 C 0 km/h
491 02-09-2004 02:05:00 11.4 C 8.52 g/m*3 11.4 C 0 km/h
492 02-09-2004 02:17:59 11.2 C 8.41 g/m*3 11.2 C 0 km/h
493 02-09-2004 02:29:59 11 C 8.31 g/m*3 11 C 0 km/h
494 02-09-2004 02:40:59 10.7 C 8.25 g/m*3 10.7 C 0 km/h
495 02-09-2004 02:54:01 10.5 C 8.15 g/m*3 10.5 C 0 km/h
496 02-09-2004 03:06:01 10.3 C 8.14 g/m*3 10.3 C 0 km/h
497 02-09-2004 03:18:01 10.2 C 8.09 g/m*3 10.2 C 0 km/h
498 02-09-2004 03:30:01 10.1 C 8.13 g/m*3 10.1 C 0 km/h
499 02-09-2004 03:42:01 10 C 8.08 g/m*3 10 C 0 km/h
500 02-09-2004 03:54:01 9.8 C 8.07 g/m*3 9.8 C 0 km/h
Sensor: Nr:Datum:Temp:Abs-Feuchte:Windchill:Wind:
Aussen-T/F 501 02-09-2004 04:06:01 9.7 C 8.11 g/m*3 9.7 C 0 km/h
502 02-09-2004 04:18:01 9.5 C 8.01 g/m*3 9.5 C 0 km/h
503 02-09-2004 04:30:01 9.5 C 8.01 g/m*3 9.5 C 0 km/h
504 02-09-2004 04:42:01 9.4 C 7.96 g/m*3 9.4 C 0 km/h
505 02-09-2004 04:54:02 9.2 C 7.86 g/m*3 9.2 C 0 km/h
506 02-09-2004 05:06:01 9.2 C 7.86 g/m*3 9.2 C 0 km/h
507 02-09-2004 05:18:01 9.1 C 7.9 g/m*3 9.1 C 0 km/h
508 02-09-2004 05:30:01 9.1 C 7.9 g/m*3 9.1 C 0 km/h
509 02-09-2004 05:42:01 9.3 C 8 g/m*3 9.3 C 0 km/h
510 02-09-2004 05:54:01 9.5 C 8.19 g/m*3 9.5 C 0 km/h
511 02-09-2004 06:06:01 9.6 C 8.24 g/m*3 9.6 C 0 km/h
512 02-09-2004 06:18:01 9.7 C 8.3 g/m*3 9.7 C 0 km/h
513 02-09-2004 06:30:01 9.6 C 8.24 g/m*3 9.6 C 0 km/h
514 02-09-2004 06:42:01 9.6 C 8.24 g/m*3 9.6 C 0 km/h
515 02-09-2004 06:54:01 9.6 C 8.15 g/m*3 9.6 C 0 km/h
516 02-09-2004 07:06:02 9.8 C 8.26 g/m*3 9.8 C 0 km/h
517 02-09-2004 07:18:01 10 C 8.27 g/m*3 10 C 0 km/h
518 02-09-2004 07:30:01 10.2 C 8.37 g/m*3 10.2 C 0 km/h
519 02-09-2004 07:42:01 10.4 C 8.38 g/m*3 10.4 C 0 km/h
520 02-09-2004 07:54:00 10.5 C 8.34 g/m*3 10.5 C 0 km/h
521 02-09-2004 08:06:00 10.4 C 8.1 g/m*3 10.4 C 0 km/h
522 02-09-2004 08:18:00 10.7 C 8.25 g/m*3 10.7 C 0 km/h
523 02-09-2004 08:30:00 10.7 C 8.25 g/m*3 10.7 C 0 km/h
524 02-09-2004 08:42:01 10.7 C 8.25 g/m*3 10.7 C 0 km/h
525 02-09-2004 08:54:01 10.7 C 8.25 g/m*3 10.7 C 0 km/h
Sensor: Nr:Datum:Temp:Abs-Feuchte:Windchill:Wind:
Aussen-T/F 526 02-09-2004 09:06:02 10.7 C 8.35 g/m*3 10.7 C 0 km/h
527 02-09-2004 09:18:01 10.9 C 8.55 g/m*3 10.9 C 0 km/h
528 02-09-2004 09:30:01 11.2 C 8.72 g/m*3 11.2 C 0 km/h
529 02-09-2004 09:42:01 11.7 C 8.99 g/m*3 11.7 C 0 km/h
530 02-09-2004 09:54:01 12.2 C 9.06 g/m*3 12.2 C 0 km/h
531 02-09-2004 10:06:01 12.7 C 9.24 g/m*3 12.7 C 0 km/h
532 02-09-2004 10:18:01 13.3 C 9.47 g/m*3 13.3 C 0 km/h
533 02-09-2004 10:30:01 14 C 9.65 g/m*3 14 C 0 km/h
534 02-09-2004 10:42:00 14.5 C 9.7 g/m*3 14.5 C 0 km/h
535 02-09-2004 10:54:00 15.1 C 9.68 g/m*3 15.1 C 0 km/h
536 02-09-2004 11:06:00 15.6 C 9.84 g/m*3 15.6 C 0 km/h
537 02-09-2004 11:18:00 16.2 C 10.07 g/m*3 16.2 C 0 km/h
538 02-09-2004 11:30:00 17 C 9.98 g/m*3 17 C 0 km/h
539 02-09-2004 11:42:00 17.7 C 9.05 g/m*3 17.7 C 0 km/h
540 02-09-2004 11:54:00 18.7 C 9.29 g/m*3 18.7 C 0 km/h
541 02-09-2004 12:06:00 19.3 C 9.12 g/m*3 19.3 C 0 km/h
542 02-09-2004 12:18:00 19.8 C 8.54 g/m*3 19.8 C 0 km/h
543 02-09-2004 12:30:00 20.4 C 9.02 g/m*3 20.4 C 0 km/h
544 02-09-2004 12:42:01 20.8 C 8.87 g/m*3 20.8 C 0 km/h
545 02-09-2004 12:54:01 21.1 C 8.84 g/m*3 21.1 C 0 km/h
546 02-09-2004 13:06:01 21.6 C 9.1 g/m*3 21.6 C 0 km/h
547 02-09-2004 13:18:00 22.1 C 9.17 g/m*3 22.1 C 0 km/h
548 02-09-2004 13:30:00 22.6 C 9.24 g/m*3 22.6 C 0 km/h
549 02-09-2004 13:42:00 23.1 C 9.3 g/m*3 23.1 C 0 km/h
550 02-09-2004 13:54:00 23.7 C 8.98 g/m*3 23.7 C 0 km/h
Sensor: Nr:Datum:Temp:Abs-Feuchte:Windchill:Wind:
Aussen-T/F 551 02-09-2004 14:06:00 24.1 C 9.19 g/m*3 24.1 C 0 km/h
552 02-09-2004 14:18:00 24.9 C 9.39 g/m*3 24.9 C 0 km/h
553 02-09-2004 14:30:00 25.6 C 9.05 g/m*3 25.6 C 0 km/h
554 02-09-2004 14:42:00 26.5 C 10.26 g/m*3 26.5 C 0 km/h
555 02-09-2004 14:54:00 26.8 C 8.91 g/m*3 26.8 C 0 km/h
556 02-09-2004 15:06:00 27.1 C 8.02 g/m*3 27.1 C 0 km/h
557 02-09-2004 15:18:00 27.4 C 7.89 g/m*3 27.4 C 0 km/h
558 02-09-2004 15:30:00 27.5 C 8.2 g/m*3 27.5 C 0 km/h
559 02-09-2004 15:42:00 27.9 C 8.38 g/m*3 27.9 C 0 km/h
560 02-09-2004 15:54:00 27.4 C 6.84 g/m*3 27.4 C 0 km/h
561 02-09-2004 16:06:59 27.7 C 7.22 g/m*3 27.7 C 0 km/h
562 02-09-2004 16:29:59 27.4 C 6.84 g/m*3 27.4 C 0 km/h
563 02-09-2004 16:30:00 27.4 C 7.89 g/m*3 27.4 C 0 km/h
564 02-09-2004 16:42:00 27.5 C 7.41 g/m*3 27.5 C 0 km/h
565 02-09-2004 16:54:00 28.1 C 7.93 g/m*3 28.1 C 0 km/h
566 02-09-2004 17:06:00 28.2 C 7.7 g/m*3 28.2 C 0 km/h
567 02-09-2004 17:18:00 28.9 C 8.57 g/m*3 28.9 C 0 km/h
568 02-09-2004 17:30:00 29.3 C 9.63 g/m*3 29.3 C 0 km/h
569 02-09-2004 17:42:00 29.3 C 9.93 g/m*3 29.3 C 0 km/h
570 02-09-2004 17:54:00 29.3 C 9.05 g/m*3 29.3 C 0 km/h
571 02-09-2004 18:06:00 29.1 C 9.82 g/m*3 29.1 C 0 km/h
572 02-09-2004 18:18:00 28.6 C 10.12 g/m*3 28.6 C 0 km/h
573 02-09-2004 18:30:00 28.2 C 10.17 g/m*3 28.2 C 0 km/h
574 02-09-2004 18:42:00 27.4 C 10.26 g/m*3 27.4 C 0 km/h
575 02-09-2004 18:54:59 26.9 C 10.49 g/m*3 26.9 C 0 km/h
Sensor: Nr:Datum:Temp:Abs-Feuchte:Windchill:Wind:
Aussen-T/F 576 02-09-2004 19:06:59 25.9 C 10.17 g/m*3 25.9 C 0 km/h
577 02-09-2004 19:18:59 25.3 C 10.3 g/m*3 25.3 C 0 km/h
578 02-09-2004 19:30:59 24.5 C 10.07 g/m*3 24.5 C 0 km/h
579 02-09-2004 19:42:59 23.7 C 10.05 g/m*3 23.7 C 0 km/h
580 02-09-2004 19:54:59 22 C 10.09 g/m*3 22 C 0 km/h
581 02-09-2004 20:05:59 21 C 9.89 g/m*3 21 C 0 km/h
582 02-09-2004 20:30:00 19.8 C 10.08 g/m*3 19.8 C 0 km/h
583 02-09-2004 20:42:00 19.5 C 10.07 g/m*3 19.5 C 0 km/h
584 02-09-2004 20:54:00 19.1 C 10.16 g/m*3 19.1 C 0 km/h
585 02-09-2004 21:06:00 18.8 C 10.15 g/m*3 18.8 C 0 km/h
586 02-09-2004 21:18:59 18.6 C 10.19 g/m*3 18.6 C 0 km/h
587 02-09-2004 21:30:59 18.4 C 10.38 g/m*3 18.4 C 0 km/h
588 02-09-2004 21:42:59 18.3 C 10.32 g/m*3 18.3 C 0 km/h
589 02-09-2004 21:54:59 18 C 10.29 g/m*3 18 C 0 km/h
590 02-09-2004 22:05:59 17.9 C 10.38 g/m*3 17.9 C 0 km/h
591 02-09-2004 22:18:00 17.7 C 10.41 g/m*3 17.7 C 0 km/h
592 02-09-2004 22:30:00 17.4 C 10.37 g/m*3 17.4 C 0 km/h
593 02-09-2004 22:42:00 17.2 C 10.4 g/m*3 17.2 C 0 km/h
594 02-09-2004 22:54:59 17.1 C 10.48 g/m*3 17.1 C 0 km/h
595 02-09-2004 23:06:59 16.9 C 10.5 g/m*3 16.9 C 0 km/h
596 02-09-2004 23:18:59 16.6 C 10.45 g/m*3 16.6 C 0 km/h
597 02-09-2004 23:30:59 16.4 C 10.47 g/m*3 16.4 C 0 km/h
598 02-09-2004 23:42:59 16.3 C 10.41 g/m*3 16.3 C 0 km/h
599 02-09-2004 23:54:59 16 C 10.35 g/m*3 16 C 0 km/h
600 03-09-2004 00:06:59 15.9 C 10.56 g/m*3 15.9 C 0 km/h
Sensor: Nr:Datum:Temp:Abs-Feuchte:Windchill:Wind:
Aussen-T/F 601 03-09-2004 00:30:00 15.6 C 10.51 g/m*3 15.6 C 0 km/h
602 03-09-2004 00:30:59 15.4 C 10.51 g/m*3 15.4 C 0 km/h
603 03-09-2004 00:42:59 15.4 C 10.64 g/m*3 15.4 C 0 km/h
604 03-09-2004 00:54:59 15.1 C 10.45 g/m*3 15.1 C 0 km/h
605 03-09-2004 01:06:59 15.1 C 10.45 g/m*3 15.1 C 0 km/h
606 03-09-2004 01:18:59 14.9 C 10.45 g/m*3 14.9 C 0 km/h
607 03-09-2004 01:30:59 14.9 C 10.45 g/m*3 14.9 C 0 km/h
608 03-09-2004 01:42:59 14.7 C 10.45 g/m*3 14.7 C 0 km/h
609 03-09-2004 01:54:59 14.5 C 10.32 g/m*3 14.5 C 0 km/h
610 03-09-2004 02:06:58 14.4 C 10.26 g/m*3 14.4 C 0 km/h
611 03-09-2004 02:18:58 14.3 C 10.2 g/m*3 14.3 C 0 km/h
612 03-09-2004 02:30:58 14.2 C 10.26 g/m*3 14.2 C 0 km/h
613 03-09-2004 02:42:58 14 C 10.01 g/m*3 14 C 0 km/h
614 03-09-2004 02:55:00 14 C 10.13 g/m*3 14 C 0 km/h
615 03-09-2004 03:07:00 13.9 C 10.07 g/m*3 13.9 C 0 km/h
616 03-09-2004 03:19:00 13.9 C 10.19 g/m*3 13.9 C 0 km/h
617 03-09-2004 03:31:00 13.7 C 9.95 g/m*3 13.7 C 0 km/h
618 03-09-2004 03:43:00 13.6 C 10 g/m*3 13.6 C 0 km/h
619 03-09-2004 03:55:00 13.5 C 9.94 g/m*3 13.5 C 0 km/h
620 03-09-2004 04:07:00 13.4 C 9.88 g/m*3 13.4 C 0 km/h
621 03-09-2004 04:19:00 13.4 C 10 g/m*3 13.4 C 0 km/h
622 03-09-2004 04:31:00 13.2 C 9.76 g/m*3 13.2 C 0 km/h
623 03-09-2004 04:43:00 13.1 C 9.7 g/m*3 13.1 C 0 km/h
624 03-09-2004 04:55:00 13.2 C 9.87 g/m*3 13.2 C 0 km/h
625 03-09-2004 05:07:00 13 C 9.75 g/m*3 13 C 0 km/h
Sensor: Nr:Datum:Temp:Abs-Feuchte:Windchill:Wind:
Aussen-T/F 626 03-09-2004 05:19:00 12.9 C 9.81 g/m*3 12.9 C 0 km/h
627 03-09-2004 05:31:00 12.8 C 9.74 g/m*3 12.8 C 0 km/h
628 03-09-2004 05:43:00 12.7 C 9.68 g/m*3 12.7 C 0 km/h
629 03-09-2004 05:55:00 12.7 C 9.68 g/m*3 12.7 C 0 km/h
630 03-09-2004 06:07:00 12.8 C 9.86 g/m*3 12.8 C 0 km/h
631 03-09-2004 06:19:00 12.7 C 9.68 g/m*3 12.7 C 0 km/h
632 03-09-2004 06:31:00 12.7 C 9.8 g/m*3 12.7 C 0 km/h
633 03-09-2004 06:43:01 13 C 9.87 g/m*3 13 C 0 km/h
634 03-09-2004 06:55:00 13 C 9.75 g/m*3 13 C 0 km/h
635 03-09-2004 07:07:00 13 C 9.64 g/m*3 13 C 0 km/h
636 03-09-2004 07:19:00 13 C 9.64 g/m*3 13 C 0 km/h
637 03-09-2004 07:31:59 12.9 C 9.69 g/m*3 12.9 C 0 km/h
638 03-09-2004 07:43:59 13.1 C 9.81 g/m*3 13.1 C 0 km/h
639 03-09-2004 07:55:59 13.3 C 9.94 g/m*3 13.3 C 0 km/h
640 03-09-2004 08:07:59 13.5 C 9.94 g/m*3 13.5 C 0 km/h
641 03-09-2004 08:18:59 13.8 C 10.13 g/m*3 13.8 C 0 km/h
642 03-09-2004 08:31:00 13.8 C 10.01 g/m*3 13.8 C 0 km/h
643 03-09-2004 08:43:00 14.1 C 10.19 g/m*3 14.1 C 0 km/h
644 03-09-2004 08:55:00 14.8 C 10.64 g/m*3 14.8 C 0 km/h
645 03-09-2004 09:07:00 15.4 C 10.51 g/m*3 15.4 C 0 km/h
646 03-09-2004 09:19:00 15.2 C 10.25 g/m*3 15.2 C 0 km/h
647 03-09-2004 09:31:00 15.7 C 10.57 g/m*3 15.7 C 0 km/h
648 03-09-2004 09:43:00 15.7 C 10.3 g/m*3 15.7 C 0 km/h
649 03-09-2004 09:55:00 15.7 C 10.57 g/m*3 15.7 C 0 km/h
650 03-09-2004 10:07:00 16.3 C 10.41 g/m*3 16.3 C 0 km/h
Sensor: Nr:Datum:Temp:Abs-Feuchte:Windchill:Wind:
Aussen-T/F 651 03-09-2004 10:19:59 17.3 C 10.9 g/m*3 17.3 C 0 km/h
652 03-09-2004 10:31:59 18.2 C 10.57 g/m*3 18.2 C 0 km/h
653 03-09-2004 10:43:59 19.1 C 10.82 g/m*3 19.1 C 0 km/h
654 03-09-2004 10:55:59 19.7 C 11.21 g/m*3 19.7 C 0 km/h
655 03-09-2004 11:07:59 19.7 C 10.87 g/m*3 19.7 C 0 km/h
656 03-09-2004 11:19:59 20 C 11.58 g/m*3 20 C 0 km/h
657 03-09-2004 11:31:59 20.6 C 11.63 g/m*3 20.6 C 0 km/h
658 03-09-2004 11:43:59 21.1 C 11.98 g/m*3 21.1 C 0 km/h
659 03-09-2004 11:55:59 21.5 C 12.07 g/m*3 21.5 C 0 km/h
660 03-09-2004 12:07:59 22 C 12.42 g/m*3 22 C 0 km/h
661 03-09-2004 12:19:00 22.7 C 12.73 g/m*3 22.7 C 0 km/h
662 03-09-2004 12:31:00 22.9 C 12.47 g/m*3 22.9 C 0 km/h
663 03-09-2004 12:43:00 23.1 C 12.61 g/m*3 23.1 C 0 km/h
664 03-09-2004 12:55:00 23.4 C 13.25 g/m*3 23.4 C 0 km/h
665 03-09-2004 13:07:59 23.8 C 13.12 g/m*3 23.8 C 0 km/h
666 03-09-2004 13:19:59 24.3 C 13.28 g/m*3 24.3 C 0 km/h
667 03-09-2004 13:31:59 24.9 C 13.28 g/m*3 24.9 C 0 km/h
668 03-09-2004 13:43:59 25.5 C 11.84 g/m*3 25.5 C 0 km/h
669 03-09-2004 13:55:59 26.1 C 11.26 g/m*3 26.1 C 0 km/h
670 03-09-2004 14:07:59 26.5 C 12.02 g/m*3 26.5 C 0 km/h
671 03-09-2004 14:19:59 26.9 C 11.26 g/m*3 26.9 C 0 km/h
672 03-09-2004 14:31:59 27.6 C 10.64 g/m*3 27.6 C 0 km/h
673 03-09-2004 14:43:59 28.3 C 11.06 g/m*3 28.3 C 0 km/h
674 03-09-2004 14:55:59 28.6 C 11.24 g/m*3 28.6 C 0 km/h
675 03-09-2004 15:07:59 29.1 C 10.97 g/m*3 29.1 C 0 km/h
Sensor: Nr:Datum:Temp:Abs-Feuchte:Windchill:Wind:
Aussen-T/F 676 03-09-2004 15:19:59 29.6 C 11.28 g/m*3 29.6 C 0 km/h
677 03-09-2004 15:31:59 30 C 12.13 g/m*3 30 C 0 km/h
678 03-09-2004 15:43:59 30.2 C 11.96 g/m*3 30.2 C 0 km/h
679 03-09-2004 15:55:59 30.6 C 10.02 g/m*3 30.6 C 0 km/h
680 03-09-2004 16:07:58 30.6 C 10.65 g/m*3 30.6 C 0 km/h
681 03-09-2004 16:19:59 30.7 C 11.97 g/m*3 30.7 C 0 km/h
682 03-09-2004 16:31:59 30.4 C 12.39 g/m*3 30.4 C 0 km/h
683 03-09-2004 16:43:59 30.4 C 12.08 g/m*3 30.4 C 0 km/h
684 03-09-2004 16:55:59 28.9 C 12.86 g/m*3 28.9 C 0 km/h
685 03-09-2004 17:07:59 27.6 C 13.04 g/m*3 27.6 C 0 km/h
686 03-09-2004 17:19:59 27.5 C 12.7 g/m*3 27.5 C 0 km/h
687 03-09-2004 17:31:59 28.6 C 12.93 g/m*3 28.6 C 0 km/h
688 03-09-2004 17:43:59 29.3 C 12.85 g/m*3 29.3 C 0 km/h
689 03-09-2004 17:55:59 29.5 C 12.69 g/m*3 29.5 C 0 km/h
690 03-09-2004 18:07:59 29.4 C 12.62 g/m*3 29.4 C 0 km/h
691 03-09-2004 18:19:58 28.9 C 13.14 g/m*3 28.9 C 0 km/h
692 03-09-2004 18:31:58 28.6 C 12.65 g/m*3 28.6 C 0 km/h
693 03-09-2004 18:43:58 28.5 C 12.02 g/m*3 28.5 C 0 km/h
694 03-09-2004 18:55:58 28.6 C 12.65 g/m*3 28.6 C 0 km/h
695 03-09-2004 19:07:58 28.3 C 11.89 g/m*3 28.3 C 0 km/h
696 03-09-2004 19:19:58 27.5 C 12.7 g/m*3 27.5 C 0 km/h
697 03-09-2004 19:31:58 26.6 C 12.59 g/m*3 26.6 C 0 km/h
698 03-09-2004 19:43:58 25.6 C 13.09 g/m*3 25.6 C 0 km/h
699 03-09-2004 19:55:59 24 C 12.84 g/m*3 24 C 0 km/h
700 03-09-2004 20:07:59 23.5 C 13.11 g/m*3 23.5 C 0 km/h
Sensor: Nr:Datum:Temp:Abs-Feuchte:Windchill:Wind:
Aussen-T/F 701 03-09-2004 20:19:59 23.1 C 12.61 g/m*3 23.1 C 0 km/h
702 03-09-2004 20:31:59 22.7 C 12.73 g/m*3 22.7 C 0 km/h
703 03-09-2004 20:43:59 22.1 C 12.49 g/m*3 22.1 C 0 km/h
704 03-09-2004 20:55:59 21.9 C 12.93 g/m*3 21.9 C 0 km/h
705 03-09-2004 21:07:58 21.5 C 12.82 g/m*3 21.5 C 0 km/h
706 03-09-2004 21:19:58 21.3 C 12.68 g/m*3 21.3 C 0 km/h
707 03-09-2004 21:31:58 21.1 C 12.71 g/m*3 21.1 C 0 km/h
708 03-09-2004 21:43:58 21.1 C 12.53 g/m*3 21.1 C 0 km/h
709 03-09-2004 21:55:58 20.8 C 12.49 g/m*3 20.8 C 0 km/h
710 03-09-2004 22:07:58 20.7 C 12.78 g/m*3 20.7 C 0 km/h
711 03-09-2004 22:19:58 20.3 C 12.49 g/m*3 20.3 C 0 km/h
712 03-09-2004 22:31:58 20 C 12.44 g/m*3 20 C 0 km/h
713 03-09-2004 22:43:58 20 C 12.62 g/m*3 20 C 0 km/h
714 03-09-2004 22:55:58 19.7 C 12.57 g/m*3 19.7 C 0 km/h
715 03-09-2004 23:07:58 19.6 C 12.66 g/m*3 19.6 C 0 km/h
716 03-09-2004 23:19:58 19.4 C 12.51 g/m*3 19.4 C 0 km/h
717 03-09-2004 23:31:58 19.1 C 12.46 g/m*3 19.1 C 0 km/h
718 03-09-2004 23:43:58 18.9 C 12.64 g/m*3 18.9 C 0 km/h
719 03-09-2004 23:55:57 18.8 C 12.56 g/m*3 18.8 C 0 km/h
720 04-09-2004 00:07:58 18.6 C 12.57 g/m*3 18.6 C 0 km/h
721 04-09-2004 00:19:58 18.3 C 12.35 g/m*3 18.3 C 0 km/h
722 04-09-2004 00:31:57 18.2 C 12.43 g/m*3 18.2 C 0 km/h
723 04-09-2004 00:43:57 18.1 C 12.36 g/m*3 18.1 C 0 km/h
724 04-09-2004 00:55:58 18 C 12.44 g/m*3 18 C 0 km/h
725 04-09-2004 01:07:58 17.8 C 12.6 g/m*3 17.8 C 0 km/h
Sensor: Nr:Datum:Temp:Abs-Feuchte:Windchill:Wind:
Aussen-T/F 726 04-09-2004 01:19:58 17.7 C 12.52 g/m*3 17.7 C 0 km/h
727 04-09-2004 01:31:58 17.5 C 12.37 g/m*3 17.5 C 0 km/h
728 04-09-2004 01:43:58 17.5 C 12.37 g/m*3 17.5 C 0 km/h
729 04-09-2004 01:55:58 17.2 C 12.3 g/m*3 17.2 C 0 km/h
730 04-09-2004 02:07:58 17.1 C 12.23 g/m*3 17.1 C 0 km/h
731 04-09-2004 02:19:58 16.9 C 12.23 g/m*3 16.9 C 0 km/h
732 04-09-2004 02:31:58 16.8 C 12.15 g/m*3 16.8 C 0 km/h
733 04-09-2004 02:43:58 16.5 C 12.08 g/m*3 16.5 C 0 km/h
734 04-09-2004 02:56:00 16.5 C 12.08 g/m*3 16.5 C 0 km/h
735 04-09-2004 03:08:00 16.4 C 12 g/m*3 16.4 C 0 km/h
736 04-09-2004 03:20:59 16.3 C 11.93 g/m*3 16.3 C 0 km/h
737 04-09-2004 03:32:59 16.2 C 11.86 g/m*3 16.2 C 0 km/h
738 04-09-2004 03:44:59 16 C 11.72 g/m*3 16 C 0 km/h
739 04-09-2004 03:56:59 16 C 11.72 g/m*3 16 C 0 km/h
740 04-09-2004 04:08:59 15.9 C 11.78 g/m*3 15.9 C 0 km/h
741 04-09-2004 04:20:59 15.8 C 11.71 g/m*3 15.8 C 0 km/h
742 04-09-2004 04:32:59 15.6 C 11.44 g/m*3 15.6 C 0 km/h
743 04-09-2004 04:44:59 15.6 C 11.57 g/m*3 15.6 C 0 km/h
744 04-09-2004 04:57:00 15.4 C 11.43 g/m*3 15.4 C 0 km/h
745 04-09-2004 05:08:59 15.2 C 11.29 g/m*3 15.2 C 0 km/h
746 04-09-2004 05:20:59 15.2 C 11.29 g/m*3 15.2 C 0 km/h
747 04-09-2004 05:32:59 15.2 C 11.29 g/m*3 15.2 C 0 km/h
748 04-09-2004 05:44:58 15 C 11.28 g/m*3 15 C 0 km/h
749 04-09-2004 05:56:58 14.9 C 11.22 g/m*3 14.9 C 0 km/h
750 04-09-2004 06:08:58 14.7 C 11.21 g/m*3 14.7 C 0 km/h
Sensor: Nr:Datum:Temp:Abs-Feuchte:Windchill:Wind:
Aussen-T/F 751 04-09-2004 06:20:58 14.6 C 11.14 g/m*3 14.6 C 0 km/h
752 04-09-2004 06:32:59 14.7 C 11.21 g/m*3 14.7 C 0 km/h
753 04-09-2004 06:44:59 14.5 C 11.07 g/m*3 14.5 C 0 km/h
754 04-09-2004 06:56:59 14.2 C 10.99 g/m*3 14.2 C 0 km/h
755 04-09-2004 07:08:59 14.3 C 11.06 g/m*3 14.3 C 0 km/h
756 04-09-2004 07:20:59 14.3 C 11.06 g/m*3 14.3 C 0 km/h
757 04-09-2004 07:32:59 14.2 C 11.11 g/m*3 14.2 C 0 km/h
758 04-09-2004 07:44:59 14.5 C 11.32 g/m*3 14.5 C 0 km/h
759 04-09-2004 07:56:59 14.6 C 11.26 g/m*3 14.6 C 0 km/h
760 04-09-2004 08:08:59 15 C 11.41 g/m*3 15 C 0 km/h
761 04-09-2004 08:20:59 14.9 C 11.22 g/m*3 14.9 C 0 km/h
762 04-09-2004 08:32:58 15.4 C 11.43 g/m*3 15.4 C 0 km/h
763 04-09-2004 08:43:59 15.5 C 11.24 g/m*3 15.5 C 0 km/h
764 04-09-2004 08:55:59 15.4 C 11.04 g/m*3 15.4 C 0 km/h
765 04-09-2004 09:08:58 15.6 C 11.17 g/m*3 15.6 C 0 km/h
766 04-09-2004 09:20:58 16 C 11.31 g/m*3 16 C 0 km/h
767 04-09-2004 09:32:58 16.4 C 11.45 g/m*3 16.4 C 0 km/h
768 04-09-2004 09:44:58 16.7 C 11.37 g/m*3 16.7 C 0 km/h
769 04-09-2004 09:56:58 17.2 C 11.57 g/m*3 17.2 C 0 km/h
770 04-09-2004 10:08:58 17 C 11.43 g/m*3 17 C 0 km/h
771 04-09-2004 10:20:59 17.3 C 11.79 g/m*3 17.3 C 0 km/h
772 04-09-2004 10:32:59 17.8 C 11.99 g/m*3 17.8 C 0 km/h
773 04-09-2004 10:44:59 18.2 C 12.12 g/m*3 18.2 C 0 km/h
774 04-09-2004 10:56:59 18.7 C 12.33 g/m*3 18.7 C 0 km/h
775 04-09-2004 11:08:59 19.2 C 12.37 g/m*3 19.2 C 0 km/h
Sensor: Nr:Datum:Temp:Abs-Feuchte:Windchill:Wind:
Aussen-T/F 776 04-09-2004 11:20:59 19.8 C 12.47 g/m*3 19.8 C 0 km/h
777 04-09-2004 11:32:00 20.5 C 12.63 g/m*3 20.5 C 0 km/h
778 04-09-2004 11:44:00 21.3 C 12.12 g/m*3 21.3 C 0 km/h
779 04-09-2004 11:56:58 21.9 C 13.12 g/m*3 21.9 C 0 km/h
780 04-09-2004 12:08:58 22.6 C 12.86 g/m*3 22.6 C 0 km/h
781 04-09-2004 12:20:58 23.2 C 13.1 g/m*3 23.2 C 0 km/h
782 04-09-2004 12:32:58 23.6 C 13.4 g/m*3 23.6 C 0 km/h
783 04-09-2004 12:44:58 24 C 13.05 g/m*3 24 C 0 km/h
784 04-09-2004 12:56:58 24.6 C 13.95 g/m*3 24.6 C 0 km/h
785 04-09-2004 13:08:58 24.8 C 12.97 g/m*3 24.8 C 0 km/h
786 04-09-2004 13:20:58 25.4 C 13.18 g/m*3 25.4 C 0 km/h
787 04-09-2004 13:32:58 25.8 C 12.52 g/m*3 25.8 C 0 km/h
788 04-09-2004 13:44:58 26 C 12.17 g/m*3 26 C 0 km/h
789 04-09-2004 13:56:58 26.6 C 12.84 g/m*3 26.6 C 0 km/h
790 04-09-2004 14:08:58 27.2 C 12.49 g/m*3 27.2 C 0 km/h
791 04-09-2004 14:20:58 27.8 C 13.72 g/m*3 27.8 C 0 km/h
792 04-09-2004 14:32:58 28.2 C 12.65 g/m*3 28.2 C 0 km/h
793 04-09-2004 14:44:58 28.6 C 12.65 g/m*3 28.6 C 0 km/h
794 04-09-2004 14:56:58 29.4 C 13.21 g/m*3 29.4 C 0 km/h
795 04-09-2004 15:08:58 29.4 C 12.33 g/m*3 29.4 C 0 km/h
796 04-09-2004 15:20:58 30 C 12.13 g/m*3 30 C 0 km/h
797 04-09-2004 15:32:58 30.1 C 11.89 g/m*3 30.1 C 0 km/h
798 04-09-2004 15:44:58 30.2 C 11.96 g/m*3 30.2 C 0 km/h
799 04-09-2004 15:56:58 30.6 C 10.96 g/m*3 30.6 C 0 km/h
800 04-09-2004 16:08:57 30.6 C 10.65 g/m*3 30.6 C 0 km/h
Sensor: Nr:Datum:Temp:Abs-Feuchte:Windchill:Wind:
Aussen-T/F 801 04-09-2004 16:20:57 30.6 C 10.65 g/m*3 30.6 C 0 km/h
802 04-09-2004 16:32:57 30.7 C 11.34 g/m*3 30.7 C 0 km/h
803 04-09-2004 16:44:57 30.7 C 10.39 g/m*3 30.7 C 0 km/h
804 04-09-2004 16:56:57 30.8 C 10.13 g/m*3 30.8 C 0 km/h
805 04-09-2004 17:08:58 31 C 11.52 g/m*3 31 C 0 km/h
806 04-09-2004 17:20:58 31.2 C 11.32 g/m*3 31.2 C 0 km/h
807 04-09-2004 17:32:58 30.9 C 10.19 g/m*3 30.9 C 0 km/h
808 04-09-2004 17:44:58 30.9 C 10.82 g/m*3 30.9 C 0 km/h
809 04-09-2004 17:56:58 30 C 9.7 g/m*3 30 C 0 km/h
810 04-09-2004 18:08:58 30.1 C 10.67 g/m*3 30.1 C 0 km/h
811 04-09-2004 18:20:58 30.2 C 10.73 g/m*3 30.2 C 0 km/h
812 04-09-2004 18:32:58 30 C 11.22 g/m*3 30 C 0 km/h
813 04-09-2004 18:44:57 29.8 C 11.7 g/m*3 29.8 C 0 km/h
814 04-09-2004 18:56:57 29 C 11.49 g/m*3 29 C 0 km/h
815 04-09-2004 19:08:57 27.6 C 11.97 g/m*3 27.6 C 0 km/h
816 04-09-2004 19:20:57 26.9 C 12.29 g/m*3 26.9 C 0 km/h
817 04-09-2004 19:32:57 25.7 C 12.45 g/m*3 25.7 C 0 km/h
818 04-09-2004 19:44:57 24.8 C 12.52 g/m*3 24.8 C 0 km/h
819 04-09-2004 19:56:57 24.1 C 12.25 g/m*3 24.1 C 0 km/h
820 04-09-2004 20:08:57 23.3 C 11.92 g/m*3 23.3 C 0 km/h
821 04-09-2004 20:20:57 23.1 C 12.2 g/m*3 23.1 C 0 km/h
822 04-09-2004 20:32:57 22.6 C 12.25 g/m*3 22.6 C 0 km/h
823 04-09-2004 20:44:58 22.2 C 12.17 g/m*3 22.2 C 0 km/h
824 04-09-2004 20:56:58 22 C 12.42 g/m*3 22 C 0 km/h
825 04-09-2004 21:08:58 22.1 C 12.49 g/m*3 22.1 C 0 km/h
Sensor: Nr:Datum:Temp:Abs-Feuchte:Windchill:Wind:
Aussen-T/F 826 04-09-2004 21:20:58 21.7 C 12.78 g/m*3 21.7 C 0 km/h
827 04-09-2004 21:32:57 21.7 C 12.97 g/m*3 21.7 C 0 km/h
828 04-09-2004 21:44:57 21.4 C 12.94 g/m*3 21.4 C 0 km/h
829 04-09-2004 21:56:57 21.3 C 13.05 g/m*3 21.3 C 0 km/h
830 04-09-2004 22:08:57 20.9 C 12.93 g/m*3 20.9 C 0 km/h
831 04-09-2004 22:20:57 20.8 C 13.04 g/m*3 20.8 C 0 km/h
832 04-09-2004 22:32:57 20.6 C 13.07 g/m*3 20.6 C 0 km/h
833 04-09-2004 22:44:57 20.4 C 12.91 g/m*3 20.4 C 0 km/h
834 04-09-2004 22:56:57 20.3 C 13.01 g/m*3 20.3 C 0 km/h
835 04-09-2004 23:08:57 20 C 12.96 g/m*3 20 C 0 km/h
836 04-09-2004 23:20:57 19.8 C 13.15 g/m*3 19.8 C 0 km/h
837 04-09-2004 23:32:57 19.7 C 13.08 g/m*3 19.7 C 0 km/h
838 04-09-2004 23:44:57 19.4 C 12.85 g/m*3 19.4 C 0 km/h
839 04-09-2004 23:56:57 19.3 C 12.94 g/m*3 19.3 C 0 km/h
840 05-09-2004 00:08:57 19.1 C 12.95 g/m*3 19.1 C 0 km/h
841 05-09-2004 00:20:58 18.9 C 12.96 g/m*3 18.9 C 0 km/h
842 05-09-2004 00:32:57 18.8 C 13.05 g/m*3 18.8 C 0 km/h
843 05-09-2004 00:44:57 18.6 C 12.89 g/m*3 18.6 C 0 km/h
844 05-09-2004 00:56:57 18.5 C 12.82 g/m*3 18.5 C 0 km/h
845 05-09-2004 01:08:57 18.3 C 12.66 g/m*3 18.3 C 0 km/h
846 05-09-2004 01:20:56 18.2 C 12.59 g/m*3 18.2 C 0 km/h
847 05-09-2004 01:32:56 18.1 C 12.52 g/m*3 18.1 C 0 km/h
848 05-09-2004 01:44:56 17.9 C 12.67 g/m*3 17.9 C 0 km/h
849 05-09-2004 01:56:56 17.7 C 12.52 g/m*3 17.7 C 0 km/h
850 05-09-2004 02:08:56 17.6 C 12.45 g/m*3 17.6 C 0 km/h
Sensor: Nr:Datum:Temp:Abs-Feuchte:Windchill:Wind:
Aussen-T/F 851 05-09-2004 02:20:57 17.5 C 12.37 g/m*3 17.5 C 0 km/h
852 05-09-2004 02:32:57 17.3 C 12.23 g/m*3 17.3 C 0 km/h
853 05-09-2004 02:45:58 17.2 C 12.3 g/m*3 17.2 C 0 km/h
854 05-09-2004 02:57:58 17.1 C 12.08 g/m*3 17.1 C 0 km/h
855 05-09-2004 03:09:58 17 C 12.15 g/m*3 17 C 0 km/h
856 05-09-2004 03:21:58 16.7 C 12.22 g/m*3 16.7 C 0 km/h
857 05-09-2004 03:33:58 16.6 C 12.15 g/m*3 16.6 C 0 km/h
858 05-09-2004 03:45:58 16.6 C 12.01 g/m*3 16.6 C 0 km/h
859 05-09-2004 03:57:58 16.5 C 12.08 g/m*3 16.5 C 0 km/h
860 05-09-2004 04:09:58 16.4 C 12 g/m*3 16.4 C 0 km/h
861 05-09-2004 04:21:58 16.4 C 12 g/m*3 16.4 C 0 km/h
862 05-09-2004 04:33:58 16.2 C 11.86 g/m*3 16.2 C 0 km/h
863 05-09-2004 04:45:58 16 C 11.72 g/m*3 16 C 0 km/h
864 05-09-2004 04:57:58 15.9 C 11.78 g/m*3 15.9 C 0 km/h
865 05-09-2004 05:09:58 15.8 C 11.85 g/m*3 15.8 C 0 km/h
866 05-09-2004 05:21:58 15.8 C 11.85 g/m*3 15.8 C 0 km/h
867 05-09-2004 05:33:58 15.6 C 11.7 g/m*3 15.6 C 0 km/h
868 05-09-2004 05:45:58 15.5 C 11.63 g/m*3 15.5 C 0 km/h
869 05-09-2004 05:57:58 15.5 C 11.63 g/m*3 15.5 C 0 km/h
870 05-09-2004 06:09:58 15.3 C 11.36 g/m*3 15.3 C 0 km/h
871 05-09-2004 06:21:58 15.2 C 11.29 g/m*3 15.2 C 0 km/h
872 05-09-2004 06:33:58 15.1 C 11.35 g/m*3 15.1 C 0 km/h
873 05-09-2004 06:45:57 15.1 C 11.48 g/m*3 15.1 C 0 km/h
874 05-09-2004 06:57:57 15.2 C 11.55 g/m*3 15.2 C 0 km/h
875 05-09-2004 07:09:57 15.4 C 11.69 g/m*3 15.4 C 0 km/h
Sensor: Nr:Datum:Temp:Abs-Feuchte:Windchill:Wind:
Aussen-T/F 876 05-09-2004 07:21:58 15.6 C 11.7 g/m*3 15.6 C 0 km/h
877 05-09-2004 07:33:58 15.8 C 11.85 g/m*3 15.8 C 0 km/h
878 05-09-2004 07:45:58 15.9 C 12.05 g/m*3 15.9 C 0 km/h
879 05-09-2004 07:57:59 15.8 C 11.98 g/m*3 15.8 C 0 km/h
880 05-09-2004 08:09:58 16.1 C 12.2 g/m*3 16.1 C 0 km/h
881 05-09-2004 08:21:58 16.5 C 12.5 g/m*3 16.5 C 0 km/h
882 05-09-2004 08:33:58 16.8 C 12.44 g/m*3 16.8 C 0 km/h
883 05-09-2004 08:45:58 16.9 C 12.37 g/m*3 16.9 C 0 km/h
884 05-09-2004 08:57:58 17.1 C 12.37 g/m*3 17.1 C 0 km/h
885 05-09-2004 09:09:58 17.2 C 12.3 g/m*3 17.2 C 0 km/h
886 05-09-2004 09:21:57 17.4 C 12.45 g/m*3 17.4 C 0 km/h
887 05-09-2004 09:33:57 17.6 C 12.6 g/m*3 17.6 C 0 km/h
888 05-09-2004 09:45:57 17.7 C 12.52 g/m*3 17.7 C 0 km/h
889 05-09-2004 09:57:57 18.1 C 12.67 g/m*3 18.1 C 0 km/h
890 05-09-2004 10:09:57 18.3 C 12.66 g/m*3 18.3 C 0 km/h
891 05-09-2004 10:21:57 18.2 C 12.43 g/m*3 18.2 C 0 km/h
892 05-09-2004 10:33:57 18.1 C 12.98 g/m*3 18.1 C 0 km/h
893 05-09-2004 10:45:57 18.7 C 13.29 g/m*3 18.7 C 0 km/h
894 05-09-2004 10:57:57 19.6 C 13.51 g/m*3 19.6 C 0 km/h
895 05-09-2004 11:09:57 20.3 C 13.37 g/m*3 20.3 C 0 km/h
896 05-09-2004 11:21:58 21.2 C 13.53 g/m*3 21.2 C 0 km/h
897 05-09-2004 11:33:58 21.8 C 13.43 g/m*3 21.8 C 0 km/h
898 05-09-2004 11:45:57 22.3 C 13.62 g/m*3 22.3 C 0 km/h
899 05-09-2004 11:57:57 22.9 C 14.1 g/m*3 22.9 C 0 km/h
900 05-09-2004 12:09:57 23.5 C 14.38 g/m*3 23.5 C 0 km/h
Sensor: Nr:Datum:Temp:Abs-Feuchte:Windchill:Wind:
Aussen-T/F 901 05-09-2004 12:21:57 24.2 C 13.86 g/m*3 24.2 C 0 km/h
902 05-09-2004 12:33:57 24.6 C 14.18 g/m*3 24.6 C 0 km/h
903 05-09-2004 12:45:57 24.9 C 14.42 g/m*3 24.9 C 0 km/h
904 05-09-2004 12:57:57 25.1 C 14.12 g/m*3 25.1 C 0 km/h
905 05-09-2004 13:09:57 25.8 C 13.96 g/m*3 25.8 C 0 km/h
906 05-09-2004 13:21:57 26.6 C 13.84 g/m*3 26.6 C 0 km/h
907 05-09-2004 13:33:57 26.8 C 13.74 g/m*3 26.8 C 0 km/h
908 05-09-2004 13:45:57 27.5 C 12.17 g/m*3 27.5 C 0 km/h
909 05-09-2004 13:57:57 27.9 C 11.63 g/m*3 27.9 C 0 km/h
910 05-09-2004 14:09:57 28.2 C 11.27 g/m*3 28.2 C 0 km/h
911 05-09-2004 14:21:57 28.8 C 10.51 g/m*3 28.8 C 0 km/h
912 05-09-2004 14:33:56 29.4 C 10.57 g/m*3 29.4 C 0 km/h
913 05-09-2004 14:45:56 29.4 C 10.57 g/m*3 29.4 C 0 km/h
914 05-09-2004 14:57:56 29.9 C 11.46 g/m*3 29.9 C 0 km/h
915 05-09-2004 15:09:56 30.1 C 10.98 g/m*3 30.1 C 0 km/h
916 05-09-2004 15:21:57 30.3 C 10.17 g/m*3 30.3 C 0 km/h
917 05-09-2004 15:33:57 30.4 C 10.54 g/m*3 30.4 C 0 km/h
918 05-09-2004 15:45:57 30.3 C 10.48 g/m*3 30.3 C 0 km/h
919 05-09-2004 15:57:57 30 C 11.83 g/m*3 30 C 0 km/h
920 05-09-2004 16:09:57 30.4 C 9.92 g/m*3 30.4 C 0 km/h
921 05-09-2004 16:21:57 31 C 9.6 g/m*3 31 C 0 km/h
922 05-09-2004 16:33:57 31.3 C 9.76 g/m*3 31.3 C 0 km/h
923 05-09-2004 16:45:57 31.2 C 9.06 g/m*3 31.2 C 0 km/h
924 05-09-2004 16:57:57 31 C 9.92 g/m*3 31 C 0 km/h
925 05-09-2004 17:09:57 31 C 9.92 g/m*3 31 C 0 km/h
Sensor: Nr:Datum:Temp:Abs-Feuchte:Windchill:Wind:
Aussen-T/F 926 05-09-2004 17:21:56 31 C 9.92 g/m*3 31 C 0 km/h
927 05-09-2004 17:33:56 30.7 C 9.76 g/m*3 30.7 C 0 km/h
928 05-09-2004 17:45:56 30.8 C 9.81 g/m*3 30.8 C 0 km/h
929 05-09-2004 17:57:56 30.8 C 10.13 g/m*3 30.8 C 0 km/h
930 05-09-2004 18:09:56 30.7 C 10.39 g/m*3 30.7 C 0 km/h
931 05-09-2004 18:21:56 30.4 C 11.47 g/m*3 30.4 C 0 km/h
932 05-09-2004 18:33:56 30.1 C 11.59 g/m*3 30.1 C 0 km/h
933 05-09-2004 18:45:56 29.7 C 11.93 g/m*3 29.7 C 0 km/h
934 05-09-2004 18:57:57 29.3 C 11.68 g/m*3 29.3 C 0 km/h
935 05-09-2004 19:09:57 28.6 C 11.52 g/m*3 28.6 C 0 km/h
936 05-09-2004 19:21:57 27.6 C 11.17 g/m*3 27.6 C 0 km/h
937 05-09-2004 19:33:57 26.6 C 11.33 g/m*3 26.6 C 0 km/h
938 05-09-2004 19:45:56 25.6 C 10.95 g/m*3 25.6 C 0 km/h
939 05-09-2004 19:57:56 24.8 C 10.93 g/m*3 24.8 C 0 km/h
940 05-09-2004 20:09:56 24.2 C 10.78 g/m*3 24.2 C 0 km/h
941 05-09-2004 20:21:56 23.5 C 11 g/m*3 23.5 C 0 km/h
942 05-09-2004 20:33:56 22.9 C 11.04 g/m*3 22.9 C 0 km/h
943 05-09-2004 20:45:56 22.1 C 10.74 g/m*3 22.1 C 0 km/h
944 05-09-2004 20:57:56 22 C 10.87 g/m*3 22 C 0 km/h
945 05-09-2004 21:09:56 21.5 C 11.13 g/m*3 21.5 C 0 km/h
946 05-09-2004 21:21:56 21.3 C 11 g/m*3 21.3 C 0 km/h
947 05-09-2004 21:33:56 21 C 10.81 g/m*3 21 C 0 km/h
948 05-09-2004 21:45:56 20.9 C 11.29 g/m*3 20.9 C 0 km/h
949 05-09-2004 21:57:56 20.4 C 10.97 g/m*3 20.4 C 0 km/h
950 05-09-2004 22:09:56 20 C 11.41 g/m*3 20 C 0 km/h
Sensor: Nr:Datum:Temp:Abs-Feuchte:Windchill:Wind:
Aussen-T/F 951 05-09-2004 22:21:56 19.7 C 11.55 g/m*3 19.7 C 0 km/h
952 05-09-2004 22:33:55 19.5 C 11.41 g/m*3 19.5 C 0 km/h
953 05-09-2004 22:45:56 19.3 C 11.61 g/m*3 19.3 C 0 km/h
954 05-09-2004 22:57:56 19.1 C 11.64 g/m*3 19.1 C 0 km/h
955 05-09-2004 23:09:56 18.9 C 11.66 g/m*3 18.9 C 0 km/h
956 05-09-2004 23:21:56 18.6 C 11.46 g/m*3 18.6 C 0 km/h
957 05-09-2004 23:33:56 18.5 C 11.39 g/m*3 18.5 C 0 km/h
958 05-09-2004 23:45:56 18.3 C 11.41 g/m*3 18.3 C 0 km/h
959 05-09-2004 23:57:56 18.1 C 11.43 g/m*3 18.1 C 0 km/h
960 06-09-2004 00:09:56 18.2 C 11.35 g/m*3 18.2 C 0 km/h
961 06-09-2004 00:21:56 17.8 C 10.93 g/m*3 17.8 C 0 km/h
962 06-09-2004 00:33:55 17.5 C 11.03 g/m*3 17.5 C 0 km/h
963 06-09-2004 00:45:56 17.2 C 10.98 g/m*3 17.2 C 0 km/h
964 06-09-2004 00:57:56 17 C 10.71 g/m*3 17 C 0 km/h
965 06-09-2004 01:09:56 16.8 C 10.87 g/m*3 16.8 C 0 km/h
966 06-09-2004 01:21:56 16.5 C 10.81 g/m*3 16.5 C 0 km/h
967 06-09-2004 01:33:56 16.3 C 10.82 g/m*3 16.3 C 0 km/h
968 06-09-2004 01:45:56 16.1 C 10.69 g/m*3 16.1 C 0 km/h
969 06-09-2004 01:57:56 16 C 10.63 g/m*3 16 C 0 km/h
970 06-09-2004 02:09:56 15.9 C 10.7 g/m*3 15.9 C 0 km/h
971 06-09-2004 02:21:56 15.8 C 10.5 g/m*3 15.8 C 0 km/h
972 06-09-2004 02:33:55 15.7 C 10.57 g/m*3 15.7 C 0 km/h
973 06-09-2004 02:46:57 15.6 C 10.51 g/m*3 15.6 C 0 km/h
974 06-09-2004 02:58:57 15.4 C 10.38 g/m*3 15.4 C 0 km/h
975 06-09-2004 03:10:57 15.1 C 10.06 g/m*3 15.1 C 0 km/h
Sensor: Nr:Datum:Temp:Abs-Feuchte:Windchill:Wind:
Aussen-T/F 976 06-09-2004 03:22:57 14.9 C 10.2 g/m*3 14.9 C 0 km/h
977 06-09-2004 03:34:57 14.8 C 10.13 g/m*3 14.8 C 0 km/h
978 06-09-2004 03:46:57 14.6 C 10.01 g/m*3 14.6 C 0 km/h
979 06-09-2004 03:58:57 14.4 C 9.77 g/m*3 14.4 C 0 km/h
980 06-09-2004 04:10:57 14.4 C 9.89 g/m*3 14.4 C 0 km/h
981 06-09-2004 04:22:57 14.3 C 9.83 g/m*3 14.3 C 0 km/h
982 06-09-2004 04:34:57 14.1 C 9.71 g/m*3 14.1 C 0 km/h
983 06-09-2004 04:46:57 14.1 C 9.83 g/m*3 14.1 C 0 km/h
984 06-09-2004 04:58:57 13.8 C 9.65 g/m*3 13.8 C 0 km/h
985 06-09-2004 05:10:57 13.8 C 9.77 g/m*3 13.8 C 0 km/h
986 06-09-2004 05:22:56 13.8 C 9.77 g/m*3 13.8 C 0 km/h
987 06-09-2004 05:34:56 13.6 C 9.65 g/m*3 13.6 C 0 km/h
988 06-09-2004 05:46:56 13.6 C 9.65 g/m*3 13.6 C 0 km/h
989 06-09-2004 05:58:56 13.5 C 9.71 g/m*3 13.5 C 0 km/h
990 06-09-2004 06:10:56 13.4 C 9.65 g/m*3 13.4 C 0 km/h
991 06-09-2004 06:22:56 13.4 C 9.76 g/m*3 13.4 C 0 km/h
992 06-09-2004 06:34:57 13.1 C 9.59 g/m*3 13.1 C 0 km/h
993 06-09-2004 06:46:57 13.2 C 9.64 g/m*3 13.2 C 0 km/h
994 06-09-2004 06:58:57 13 C 9.64 g/m*3 13 C 0 km/h
995 06-09-2004 07:10:57 13 C 9.64 g/m*3 13 C 0 km/h
996 06-09-2004 07:22:57 12.9 C 9.81 g/m*3 12.9 C 0 km/h
997 06-09-2004 07:34:57 12.9 C 9.81 g/m*3 12.9 C 0 km/h
998 06-09-2004 07:46:57 12.9 C 9.81 g/m*3 12.9 C 0 km/h
999 06-09-2004 07:58:57 12.9 C 9.92 g/m*3 12.9 C 0 km/h
1000 06-09-2004 08:10:56 13 C 9.87 g/m*3 13 C 0 km/h
Sensor: Nr:Datum:Temp:Abs-Feuchte:Windchill:Wind:
Aussen-T/F 1001 06-09-2004 08:22:56 13.3 C 10.05 g/m*3 13.3 C 0 km/h
1002 06-09-2004 08:34:56 13.3 C 10.05 g/m*3 13.3 C 0 km/h
1003 06-09-2004 08:46:56 13.3 C 10.05 g/m*3 13.3 C 0 km/h
1004 06-09-2004 08:58:56 13.7 C 10.3 g/m*3 13.7 C 0 km/h
1005 06-09-2004 09:10:56 13.9 C 10.43 g/m*3 13.9 C 0 km/h
1006 06-09-2004 09:22:56 14.2 C 10.5 g/m*3 14.2 C 0 km/h
1007 06-09-2004 09:34:56 14.6 C 10.76 g/m*3 14.6 C 0 km/h
1008 06-09-2004 09:46:56 15.2 C 10.9 g/m*3 15.2 C 0 km/h
1009 06-09-2004 09:58:56 15.9 C 10.97 g/m*3 15.9 C 0 km/h
1010 06-09-2004 10:10:56 16.5 C 11.09 g/m*3 16.5 C 0 km/h
1011 06-09-2004 10:22:57 17 C 11.29 g/m*3 17 C 0 km/h
1012 06-09-2004 10:34:57 17.5 C 11.48 g/m*3 17.5 C 0 km/h
1013 06-09-2004 10:46:56 18.3 C 11.57 g/m*3 18.3 C 0 km/h
1014 06-09-2004 10:58:56 18.8 C 11.76 g/m*3 18.8 C 0 km/h
1015 06-09-2004 11:10:56 19.3 C 11.61 g/m*3 19.3 C 0 km/h
1016 06-09-2004 11:22:56 19.8 C 11.79 g/m*3 19.8 C 0 km/h
1017 06-09-2004 11:34:56 20.4 C 11.68 g/m*3 20.4 C 0 km/h
1018 06-09-2004 11:46:56 21.4 C 11.62 g/m*3 21.4 C 0 km/h
1019 06-09-2004 11:58:56 22.1 C 11.52 g/m*3 22.1 C 0 km/h
1020 06-09-2004 12:10:56 22.7 C 11.52 g/m*3 22.7 C 0 km/h
1021 06-09-2004 12:22:56 23 C 12.33 g/m*3 23 C 0 km/h
1022 06-09-2004 12:34:56 23.2 C 11.23 g/m*3 23.2 C 0 km/h
1023 06-09-2004 12:46:56 23.8 C 10.97 g/m*3 23.8 C 0 km/h
1024 06-09-2004 12:58:56 24 C 10.01 g/m*3 24 C 0 km/h
1025 06-09-2004 13:10:56 24.5 C 9.4 g/m*3 24.5 C 0 km/h
Sensor: Nr:Datum:Temp:Abs-Feuchte:Windchill:Wind:
Aussen-T/F 1026 06-09-2004 13:22:56 24.8 C 9.33 g/m*3 24.8 C 0 km/h
1027 06-09-2004 13:34:55 25.2 C 9.08 g/m*3 25.2 C 0 km/h
1028 06-09-2004 13:46:55 25.8 C 9.63 g/m*3 25.8 C 0 km/h
1029 06-09-2004 13:58:55 26.4 C 9.21 g/m*3 26.4 C 0 km/h
1030 06-09-2004 14:10:55 26.5 C 9.01 g/m*3 26.5 C 0 km/h
1031 06-09-2004 14:22:56 27.2 C 9.37 g/m*3 27.2 C 0 km/h
1032 06-09-2004 14:34:56 27.4 C 8.42 g/m*3 27.4 C 0 km/h
1033 06-09-2004 14:46:56 27.8 C 8.34 g/m*3 27.8 C 0 km/h
1034 06-09-2004 14:58:56 28.4 C 8.9 g/m*3 28.4 C 0 km/h
1035 06-09-2004 15:10:56 28.9 C 8.57 g/m*3 28.9 C 0 km/h
1036 06-09-2004 15:22:56 29.4 C 8.51 g/m*3 29.4 C 0 km/h
1037 06-09-2004 15:34:56 29.4 C 8.81 g/m*3 29.4 C 0 km/h
1038 06-09-2004 15:46:56 29.5 C 8.56 g/m*3 29.5 C 0 km/h
1039 06-09-2004 15:58:56 30 C 8.79 g/m*3 30 C 0 km/h
1040 06-09-2004 16:10:56 30.3 C 8.63 g/m*3 30.3 C 0 km/h
1041 06-09-2004 16:22:55 30.6 C 8.14 g/m*3 30.6 C 0 km/h
1042 06-09-2004 16:34:55 30.3 C 8.63 g/m*3 30.3 C 0 km/h
1043 06-09-2004 16:46:55 30.4 C 8.37 g/m*3 30.4 C 0 km/h
1044 06-09-2004 16:58:55 30.6 C 8.46 g/m*3 30.6 C 0 km/h
1045 06-09-2004 17:10:56 30.9 C 8.59 g/m*3 30.9 C 0 km/h
1046 06-09-2004 17:22:55 30.7 C 8.19 g/m*3 30.7 C 0 km/h
1047 06-09-2004 17:34:55 30.9 C 8.59 g/m*3 30.9 C 0 km/h
1048 06-09-2004 17:46:55 30.6 C 8.46 g/m*3 30.6 C 0 km/h
1049 06-09-2004 17:58:55 30.7 C 8.5 g/m*3 30.7 C 0 km/h
1050 06-09-2004 18:10:56 30.7 C 9.45 g/m*3 30.7 C 0 km/h
Sensor: Nr:Datum:Temp:Abs-Feuchte:Windchill:Wind:
Aussen-T/F 1051 06-09-2004 18:22:56 30.3 C 8.94 g/m*3 30.3 C 0 km/h
1052 06-09-2004 18:34:56 30.1 C 9.45 g/m*3 30.1 C 0 km/h
1053 06-09-2004 18:46:56 29.6 C 8.9 g/m*3 29.6 C 0 km/h
1054 06-09-2004 18:58:56 29.1 C 10.11 g/m*3 29.1 C 0 km/h
1055 06-09-2004 19:10:55 28.2 C 10.17 g/m*3 28.2 C 0 km/h
1056 06-09-2004 19:22:55 27.3 C 10.2 g/m*3 27.3 C 0 km/h
1057 06-09-2004 19:34:56 26.4 C 10.21 g/m*3 26.4 C 0 km/h
1058 06-09-2004 19:46:55 25.2 C 10.24 g/m*3 25.2 C 0 km/h
1059 06-09-2004 19:58:55 24.3 C 10.4 g/m*3 24.3 C 0 km/h
1060 06-09-2004 20:10:55 23.7 C 10.91 g/m*3 23.7 C 0 km/h
1061 06-09-2004 20:22:55 22.6 C 10.65 g/m*3 22.6 C 0 km/h
1062 06-09-2004 20:34:55 22.1 C 10.54 g/m*3 22.1 C 0 km/h
1063 06-09-2004 20:46:55 21.5 C 10.94 g/m*3 21.5 C 0 km/h
1064 06-09-2004 20:58:55 21.3 C 10.81 g/m*3 21.3 C 0 km/h
1065 06-09-2004 21:10:55 21.2 C 10.93 g/m*3 21.2 C 0 km/h
1066 06-09-2004 21:22:55 20.9 C 11.11 g/m*3 20.9 C 0 km/h
1067 06-09-2004 21:34:55 20.7 C 10.98 g/m*3 20.7 C 0 km/h
1068 06-09-2004 21:46:55 20.4 C 10.61 g/m*3 20.4 C 0 km/h
1069 06-09-2004 21:58:55 20 C 10.37 g/m*3 20 C 0 km/h
1070 06-09-2004 22:10:55 20 C 10.71 g/m*3 20 C 0 km/h
1071 06-09-2004 22:22:55 19.7 C 10.7 g/m*3 19.7 C 0 km/h
1072 06-09-2004 22:34:55 19.5 C 10.74 g/m*3 19.5 C 0 km/h
1073 06-09-2004 22:46:55 19.2 C 10.72 g/m*3 19.2 C 0 km/h
1074 06-09-2004 22:58:55 19.1 C 10.66 g/m*3 19.1 C 0 km/h
1075 06-09-2004 23:10:55 18.9 C 10.85 g/m*3 18.9 C 0 km/h
Sensor: Nr:Datum:Temp:Abs-Feuchte:Windchill:Wind:
Aussen-T/F 1076 06-09-2004 23:22:55 18.6 C 10.82 g/m*3 18.6 C 0 km/h
1077 06-09-2004 23:34:55 18.4 C 10.54 g/m*3 18.4 C 0 km/h
1078 06-09-2004 23:46:55 18.1 C 10.97 g/m*3 18.1 C 0 km/h
1079 06-09-2004 23:58:55 18.2 C 10.72 g/m*3 18.2 C 0 km/h
1080 07-09-2004 00:10:55 18.3 C 11.1 g/m*3 18.3 C 0 km/h
1081 07-09-2004 00:22:55 17.9 C 10.84 g/m*3 17.9 C 0 km/h
1082 07-09-2004 00:34:55 17.6 C 10.65 g/m*3 17.6 C 0 km/h
1083 07-09-2004 00:46:55 17.6 C 10.8 g/m*3 17.6 C 0 km/h
1084 07-09-2004 00:58:56 17.5 C 10.73 g/m*3 17.5 C 0 km/h
1085 07-09-2004 01:10:55 17.4 C 10.97 g/m*3 17.4 C 0 km/h
1086 07-09-2004 01:22:55 17.3 C 10.9 g/m*3 17.3 C 0 km/h
1087 07-09-2004 01:34:55 17.3 C 10.75 g/m*3 17.3 C 0 km/h
1088 07-09-2004 01:46:55 17 C 10.56 g/m*3 17 C 0 km/h
1089 07-09-2004 01:58:55 16.8 C 10.72 g/m*3 16.8 C 0 km/h
1090 07-09-2004 02:10:55 16.5 C 10.53 g/m*3 16.5 C 0 km/h
1091 07-09-2004 02:22:54 16.4 C 10.61 g/m*3 16.4 C 0 km/h
1092 07-09-2004 02:34:54 16.1 C 10.42 g/m*3 16.1 C 0 km/h
1093 07-09-2004 02:47:56 15.9 C 10.56 g/m*3 15.9 C 0 km/h
1094 07-09-2004 02:59:56 15.8 C 10.5 g/m*3 15.8 C 0 km/h
1095 07-09-2004 03:11:56 15.8 C 10.63 g/m*3 15.8 C 0 km/h
1096 07-09-2004 03:23:56 15.6 C 10.64 g/m*3 15.6 C 0 km/h
1097 07-09-2004 03:35:56 15.3 C 10.45 g/m*3 15.3 C 0 km/h
1098 07-09-2004 03:47:56 15.2 C 10.64 g/m*3 15.2 C 0 km/h
1099 07-09-2004 03:59:57 15.1 C 10.45 g/m*3 15.1 C 0 km/h
1100 07-09-2004 04:11:56 14.9 C 10.45 g/m*3 14.9 C 0 km/h
Sensor: Nr:Datum:Temp:Abs-Feuchte:Windchill:Wind:
Aussen-T/F 1101 07-09-2004 04:23:56 14.8 C 10.51 g/m*3 14.8 C 0 km/h
1102 07-09-2004 04:35:56 14.7 C 10.45 g/m*3 14.7 C 0 km/h
1103 07-09-2004 04:47:56 14.6 C 10.39 g/m*3 14.6 C 0 km/h
1104 07-09-2004 04:59:56 14.5 C 10.45 g/m*3 14.5 C 0 km/h
1105 07-09-2004 05:11:55 14.4 C 10.38 g/m*3 14.4 C 0 km/h
1106 07-09-2004 05:23:55 14.3 C 10.32 g/m*3 14.3 C 0 km/h
1107 07-09-2004 05:35:55 14.2 C 10.26 g/m*3 14.2 C 0 km/h
1108 07-09-2004 05:47:55 14.2 C 10.26 g/m*3 14.2 C 0 km/h
1109 07-09-2004 05:59:55 14.1 C 10.32 g/m*3 14.1 C 0 km/h
1110 07-09-2004 06:11:55 14 C 10.25 g/m*3 14 C 0 km/h
1111 07-09-2004 06:23:56 14 C 10.13 g/m*3 14 C 0 km/h
1112 07-09-2004 06:35:56 14 C 10.25 g/m*3 14 C 0 km/h
1113 07-09-2004 06:47:57 13.8 C 10.25 g/m*3 13.8 C 0 km/h
1114 07-09-2004 06:59:58 13.8 C 10.25 g/m*3 13.8 C 0 km/h
1115 07-09-2004 07:11:56 13.8 C 10.25 g/m*3 13.8 C 0 km/h
1116 07-09-2004 07:23:55 13.7 C 10.18 g/m*3 13.7 C 0 km/h
1117 07-09-2004 07:35:55 13.7 C 10.3 g/m*3 13.7 C 0 km/h
1118 07-09-2004 07:47:55 14 C 10.37 g/m*3 14 C 0 km/h
1119 07-09-2004 07:59:55 14 C 10.37 g/m*3 14 C 0 km/h
1120 07-09-2004 08:11:55 14.1 C 10.32 g/m*3 14.1 C 0 km/h
1121 07-09-2004 08:23:55 14.2 C 10.5 g/m*3 14.2 C 0 km/h
1122 07-09-2004 08:35:55 14.3 C 10.57 g/m*3 14.3 C 0 km/h
1123 07-09-2004 08:47:55 14.7 C 10.83 g/m*3 14.7 C 0 km/h
1124 07-09-2004 08:59:55 15 C 10.77 g/m*3 15 C 0 km/h
1125 07-09-2004 09:11:55 15.3 C 10.84 g/m*3 15.3 C 0 km/h
Sensor: Nr:Datum:Temp:Abs-Feuchte:Windchill:Wind:
Aussen-T/F 1126 07-09-2004 09:23:55 15.6 C 11.04 g/m*3 15.6 C 0 km/h
1127 07-09-2004 09:35:55 15.9 C 10.97 g/m*3 15.9 C 0 km/h
1128 07-09-2004 09:47:56 16.3 C 10.82 g/m*3 16.3 C 0 km/h
1129 07-09-2004 09:59:56 17.1 C 11.21 g/m*3 17.1 C 0 km/h
1130 07-09-2004 10:11:56 17.8 C 11.38 g/m*3 17.8 C 0 km/h
1131 07-09-2004 10:23:55 18.9 C 11.66 g/m*3 18.9 C 0 km/h
1132 07-09-2004 10:35:55 20 C 11.23 g/m*3 20 C 0 km/h
1133 07-09-2004 10:47:55 20.6 C 11.28 g/m*3 20.6 C 0 km/h
1134 07-09-2004 10:59:55 21 C 11.91 g/m*3 21 C 0 km/h
1135 07-09-2004 11:11:55 21.3 C 12.12 g/m*3 21.3 C 0 km/h
1136 07-09-2004 11:23:55 21.4 C 12.19 g/m*3 21.4 C 0 km/h
1137 07-09-2004 11:35:55 21.8 C 11.13 g/m*3 21.8 C 0 km/h
1138 07-09-2004 11:47:55 22.1 C 10.93 g/m*3 22.1 C 0 km/h
1139 07-09-2004 11:59:56 22.7 C 11.11 g/m*3 22.7 C 0 km/h
1140 07-09-2004 12:11:55 23.3 C 11.08 g/m*3 23.3 C 0 km/h
1141 07-09-2004 12:23:55 23.8 C 10.76 g/m*3 23.8 C 0 km/h
1142 07-09-2004 12:35:55 24.2 C 10.34 g/m*3 24.2 C 0 km/h
1143 07-09-2004 12:47:55 24.7 C 10.64 g/m*3 24.7 C 0 km/h
1144 07-09-2004 12:59:55 25 C 10.59 g/m*3 25 C 0 km/h
1145 07-09-2004 13:11:54 25.3 C 10.3 g/m*3 25.3 C 0 km/h
1146 07-09-2004 13:23:54 25.6 C 9.28 g/m*3 25.6 C 0 km/h
1147 07-09-2004 13:35:55 26.1 C 9.55 g/m*3 26.1 C 0 km/h
1148 07-09-2004 13:47:55 26.6 C 9.82 g/m*3 26.6 C 0 km/h
1149 07-09-2004 13:59:55 26.9 C 9.21 g/m*3 26.9 C 0 km/h
1150 07-09-2004 14:11:55 27.3 C 9.16 g/m*3 27.3 C 0 km/h
Sensor: Nr:Datum:Temp:Abs-Feuchte:Windchill:Wind:
Aussen-T/F 1151 07-09-2004 14:23:55 27.7 C 9.36 g/m*3 27.7 C 0 km/h
1152 07-09-2004 14:35:55 28.2 C 8.52 g/m*3 28.2 C 0 km/h
1153 07-09-2004 14:47:55 28.7 C 9.32 g/m*3 28.7 C 0 km/h
1154 07-09-2004 14:59:55 28.9 C 9.14 g/m*3 28.9 C 0 km/h
1155 07-09-2004 15:11:55 29.3 C 9.05 g/m*3 29.3 C 0 km/h
1156 07-09-2004 15:23:55 29.6 C 8.9 g/m*3 29.6 C 0 km/h
1157 07-09-2004 15:35:55 29.9 C 8.75 g/m*3 29.9 C 0 km/h
1158 07-09-2004 15:47:54 30.3 C 8.63 g/m*3 30.3 C 0 km/h
1159 07-09-2004 15:59:54 30.4 C 8.68 g/m*3 30.4 C 0 km/h
1160 07-09-2004 16:11:54 30.4 C 8.37 g/m*3 30.4 C 0 km/h
1161 07-09-2004 16:23:54 30.3 C 8.01 g/m*3 30.3 C 0 km/h
1162 07-09-2004 16:35:54 30.2 C 8.28 g/m*3 30.2 C 0 km/h
1163 07-09-2004 16:47:54 30.4 C 8.37 g/m*3 30.4 C 0 km/h
1164 07-09-2004 16:59:54 30.6 C 8.46 g/m*3 30.6 C 0 km/h
1165 07-09-2004 17:11:54 30.7 C 8.19 g/m*3 30.7 C 0 km/h
1166 07-09-2004 17:23:54 30.7 C 7.87 g/m*3 30.7 C 0 km/h
1167 07-09-2004 17:35:55 30.6 C 7.83 g/m*3 30.6 C 0 km/h
1168 07-09-2004 17:47:55 30.3 C 8.01 g/m*3 30.3 C 0 km/h
1169 07-09-2004 17:59:55 30.4 C 8.37 g/m*3 30.4 C 0 km/h
1170 07-09-2004 18:11:55 30.4 C 8.68 g/m*3 30.4 C 0 km/h
1171 07-09-2004 18:23:55 30.3 C 8.32 g/m*3 30.3 C 0 km/h
1172 07-09-2004 18:35:54 30.2 C 9.2 g/m*3 30.2 C 0 km/h
1173 07-09-2004 18:47:54 29.8 C 9.6 g/m*3 29.8 C 0 km/h
1174 07-09-2004 18:59:54 29.6 C 9.79 g/m*3 29.6 C 0 km/h
1175 07-09-2004 19:11:54 28.8 C 9.94 g/m*3 28.8 C 0 km/h
Sensor: Nr:Datum:Temp:Abs-Feuchte:Windchill:Wind:
Aussen-T/F 1176 07-09-2004 19:23:54 28.1 C 9.57 g/m*3 28.1 C 0 km/h
1177 07-09-2004 19:35:54 26.7 C 9.87 g/m*3 26.7 C 0 km/h
1178 07-09-2004 19:47:54 25.7 C 10.06 g/m*3 25.7 C 0 km/h
1179 07-09-2004 19:59:54 24.7 C 9.96 g/m*3 24.7 C 0 km/h
1180 07-09-2004 20:11:54 24 C 10.44 g/m*3 24 C 0 km/h
1181 07-09-2004 20:23:54 23.4 C 10.72 g/m*3 23.4 C 0 km/h
1182 07-09-2004 20:35:54 22.9 C 11.04 g/m*3 22.9 C 0 km/h
1183 07-09-2004 20:47:54 22.5 C 10.79 g/m*3 22.5 C 0 km/h
1184 07-09-2004 20:59:54 22.1 C 10.93 g/m*3 22.1 C 0 km/h
1185 07-09-2004 21:11:54 21.8 C 11.13 g/m*3 21.8 C 0 km/h
1186 07-09-2004 21:23:53 21.4 C 10.69 g/m*3 21.4 C 0 km/h
1187 07-09-2004 21:35:54 21.1 C 10.87 g/m*3 21.1 C 0 km/h
1188 07-09-2004 21:47:54 20.8 C 10.68 g/m*3 20.8 C 0 km/h
1189 07-09-2004 21:59:54 20.5 C 10.68 g/m*3 20.5 C 0 km/h
1190 07-09-2004 22:11:54 20.3 C 10.73 g/m*3 20.3 C 0 km/h
1191 07-09-2004 22:23:54 20 C 10.71 g/m*3 20 C 0 km/h
1192 07-09-2004 22:35:54 19.6 C 10.8 g/m*3 19.6 C 0 km/h
1193 07-09-2004 22:47:54 19.4 C 11.01 g/m*3 19.4 C 0 km/h
1194 07-09-2004 22:59:54 19.3 C 10.95 g/m*3 19.3 C 0 km/h
1195 07-09-2004 23:11:54 19.3 C 11.11 g/m*3 19.3 C 0 km/h
1196 07-09-2004 23:23:54 18.9 C 10.85 g/m*3 18.9 C 0 km/h
1197 07-09-2004 23:35:54 18.8 C 11.11 g/m*3 18.8 C 0 km/h
1198 07-09-2004 23:47:54 18.8 C 11.11 g/m*3 18.8 C 0 km/h
1199 07-09-2004 23:59:54 18.6 C 11.14 g/m*3 18.6 C 0 km/h
1200 08-09-2004 00:11:53 18.5 C 11.08 g/m*3 18.5 C 0 km/h
Sensor: Nr:Datum:Temp:Abs-Feuchte:Windchill:Wind:
Aussen-T/F 1201 08-09-2004 00:23:54 18.4 C 11.17 g/m*3 18.4 C 0 km/h
1202 08-09-2004 00:35:54 18.2 C 11.04 g/m*3 18.2 C 0 km/h
1203 08-09-2004 00:47:54 18.1 C 10.97 g/m*3 18.1 C 0 km/h
1204 08-09-2004 00:59:54 17.8 C 11.23 g/m*3 17.8 C 0 km/h
1205 08-09-2004 01:11:54 17.7 C 11.16 g/m*3 17.7 C 0 km/h
1206 08-09-2004 01:23:53 17.5 C 11.03 g/m*3 17.5 C 0 km/h
1207 08-09-2004 01:35:53 17.4 C 11.12 g/m*3 17.4 C 0 km/h
1208 08-09-2004 01:47:53 17.2 C 10.98 g/m*3 17.2 C 0 km/h
1209 08-09-2004 01:59:53 17.1 C 11.06 g/m*3 17.1 C 0 km/h
1210 08-09-2004 02:11:53 16.9 C 11.08 g/m*3 16.9 C 0 km/h
1211 08-09-2004 02:23:53 16.9 C 11.22 g/m*3 16.9 C 0 km/h
1212 08-09-2004 02:35:53 16.8 C 11.15 g/m*3 16.8 C 0 km/h
1213 08-09-2004 02:48:55 16.5 C 11.09 g/m*3 16.5 C 0 km/h
1214 08-09-2004 03:00:56 16.4 C 11.03 g/m*3 16.4 C 0 km/h
1215 08-09-2004 03:12:56 16.2 C 11.03 g/m*3 16.2 C 0 km/h
1216 08-09-2004 03:24:56 16 C 11.04 g/m*3 16 C 0 km/h
1217 08-09-2004 03:36:56 15.8 C 11.04 g/m*3 15.8 C 0 km/h
1218 08-09-2004 03:48:56 15.9 C 11.1 g/m*3 15.9 C 0 km/h
1219 08-09-2004 04:00:55 15.5 C 10.97 g/m*3 15.5 C 0 km/h
1220 08-09-2004 04:12:55 15.7 C 10.97 g/m*3 15.7 C 0 km/h
1221 08-09-2004 04:24:55 15.3 C 10.71 g/m*3 15.3 C 0 km/h
1222 08-09-2004 04:36:55 15.3 C 10.84 g/m*3 15.3 C 0 km/h
1223 08-09-2004 04:48:55 15.2 C 10.77 g/m*3 15.2 C 0 km/h
1224 08-09-2004 05:00:55 15.1 C 10.71 g/m*3 15.1 C 0 km/h
1225 08-09-2004 05:12:55 15.1 C 10.71 g/m*3 15.1 C 0 km/h
Sensor: Nr:Datum:Temp:Abs-Feuchte:Windchill:Wind:
Aussen-T/F 1226 08-09-2004 05:24:55 14.9 C 10.71 g/m*3 14.9 C 0 km/h
1227 08-09-2004 05:36:55 14.8 C 10.64 g/m*3 14.8 C 0 km/h
1228 08-09-2004 05:48:55 14.7 C 10.58 g/m*3 14.7 C 0 km/h
1229 08-09-2004 06:00:55 14.7 C 10.7 g/m*3 14.7 C 0 km/h
1230 08-09-2004 06:12:55 14.6 C 10.76 g/m*3 14.6 C 0 km/h
1231 08-09-2004 06:24:55 14.4 C 10.63 g/m*3 14.4 C 0 km/h
1232 08-09-2004 06:36:55 14.3 C 10.57 g/m*3 14.3 C 0 km/h
1233 08-09-2004 06:48:54 14.2 C 10.5 g/m*3 14.2 C 0 km/h
1234 08-09-2004 07:00:55 14.2 C 10.5 g/m*3 14.2 C 0 km/h
1235 08-09-2004 07:12:55 14.1 C 10.44 g/m*3 14.1 C 0 km/h
1236 08-09-2004 07:24:55 14.2 C 10.5 g/m*3 14.2 C 0 km/h
1237 08-09-2004 07:36:55 14 C 10.49 g/m*3 14 C 0 km/h
1238 08-09-2004 07:48:55 14.3 C 10.69 g/m*3 14.3 C 0 km/h
1239 08-09-2004 08:00:55 14.5 C 10.7 g/m*3 14.5 C 0 km/h
1240 08-09-2004 08:12:55 14.7 C 10.83 g/m*3 14.7 C 0 km/h
1241 08-09-2004 08:24:55 14.9 C 10.96 g/m*3 14.9 C 0 km/h
1242 08-09-2004 08:36:55 15 C 10.77 g/m*3 15 C 0 km/h
1243 08-09-2004 08:48:55 15.2 C 10.77 g/m*3 15.2 C 0 km/h
1244 08-09-2004 09:00:55 15.4 C 10.9 g/m*3 15.4 C 0 km/h
1245 08-09-2004 09:12:55 15.8 C 11.17 g/m*3 15.8 C 0 km/h
1246 08-09-2004 09:24:54 16.3 C 11.38 g/m*3 16.3 C 0 km/h
1247 08-09-2004 09:36:54 16.8 C 11.58 g/m*3 16.8 C 0 km/h
1248 08-09-2004 09:48:54 17.1 C 11.5 g/m*3 17.1 C 0 km/h
1249 08-09-2004 10:00:55 17.6 C 11.7 g/m*3 17.6 C 0 km/h
1250 08-09-2004 10:12:55 18 C 11.52 g/m*3 18 C 0 km/h
Sensor: Nr:Datum:Temp:Abs-Feuchte:Windchill:Wind:
Aussen-T/F 1251 08-09-2004 10:24:54 18.3 C 11.73 g/m*3 18.3 C 0 km/h
1252 08-09-2004 10:36:54 18.7 C 11.85 g/m*3 18.7 C 0 km/h
1253 08-09-2004 10:48:54 19.2 C 11.71 g/m*3 19.2 C 0 km/h
1254 08-09-2004 11:00:54 19.5 C 11.41 g/m*3 19.5 C 0 km/h
1255 08-09-2004 11:12:54 20 C 11.41 g/m*3 20 C 0 km/h
1256 08-09-2004 11:24:55 20.5 C 11.39 g/m*3 20.5 C 0 km/h
1257 08-09-2004 11:36:55 20.8 C 11.41 g/m*3 20.8 C 0 km/h
1258 08-09-2004 11:48:55 21.1 C 10.87 g/m*3 21.1 C 0 km/h
1259 08-09-2004 12:00:55 21.5 C 11.13 g/m*3 21.5 C 0 km/h
1260 08-09-2004 12:12:55 21.8 C 11.32 g/m*3 21.8 C 0 km/h
1261 08-09-2004 12:24:55 21.9 C 11.19 g/m*3 21.9 C 0 km/h
1262 08-09-2004 12:36:54 22 C 11.65 g/m*3 22 C 0 km/h
1263 08-09-2004 12:48:54 22.2 C 11.19 g/m*3 22.2 C 0 km/h
1264 08-09-2004 13:00:54 22.5 C 10.99 g/m*3 22.5 C 0 km/h
1265 08-09-2004 13:12:54 22.9 C 11.24 g/m*3 22.9 C 0 km/h
1266 08-09-2004 13:24:54 23.3 C 11.29 g/m*3 23.3 C 0 km/h
1267 08-09-2004 13:36:54 23.7 C 10.27 g/m*3 23.7 C 0 km/h
1268 08-09-2004 13:48:54 24.3 C 10.84 g/m*3 24.3 C 0 km/h
1269 08-09-2004 14:00:54 24.8 C 10.47 g/m*3 24.8 C 0 km/h
1270 08-09-2004 14:12:54 25.2 C 9.08 g/m*3 25.2 C 0 km/h
1271 08-09-2004 14:24:54 25.2 C 8.85 g/m*3 25.2 C 0 km/h
1272 08-09-2004 14:36:54 25.5 C 8.52 g/m*3 25.5 C 0 km/h
1273 08-09-2004 14:48:54 26.1 C 8.08 g/m*3 26.1 C 0 km/h
1274 08-09-2004 15:00:54 26.5 C 7.76 g/m*3 26.5 C 0 km/h
1275 08-09-2004 15:12:54 27.9 C 8.11 g/m*3 27.9 C 0 km/h
Sensor: Nr:Datum:Temp:Abs-Feuchte:Windchill:Wind:
Aussen-T/F 1276 08-09-2004 15:24:54 28.4 C 6.95 g/m*3 28.4 C 0 km/h
1277 08-09-2004 15:36:54 28.6 C 7.59 g/m*3 28.6 C 0 km/h
1278 08-09-2004 15:48:54 28.8 C 6.82 g/m*3 28.8 C 0 km/h
1279 08-09-2004 16:00:54 28.8 C 7.39 g/m*3 28.8 C 0 km/h
1280 08-09-2004 16:12:54 29.2 C 7.84 g/m*3 29.2 C 0 km/h
1281 08-09-2004 16:24:54 29.3 C 7.59 g/m*3 29.3 C 0 km/h
1282 08-09-2004 16:36:54 29 C 7.18 g/m*3 29 C 0 km/h
1283 08-09-2004 16:48:54 28.9 C 7.43 g/m*3 28.9 C 0 km/h
1284 08-09-2004 17:00:54 29.3 C 7.01 g/m*3 29.3 C 0 km/h
1285 08-09-2004 17:12:54 29.4 C 6.75 g/m*3 29.4 C 0 km/h
1286 08-09-2004 17:24:54 29.6 C 6.53 g/m*3 29.6 C 0 km/h
1287 08-09-2004 17:36:54 29.7 C 6.86 g/m*3 29.7 C 0 km/h
1288 08-09-2004 17:48:54 29.8 C 6.9 g/m*3 29.8 C 0 km/h
1289 08-09-2004 18:00:53 29.6 C 7.12 g/m*3 29.6 C 0 km/h
1290 08-09-2004 18:12:53 29 C 7.18 g/m*3 29 C 0 km/h
1291 08-09-2004 18:24:53 28.1 C 6.56 g/m*3 28.1 C 0 km/h
1292 08-09-2004 18:36:53 28.2 C 7.15 g/m*3 28.2 C 0 km/h
1293 08-09-2004 18:48:53 27.8 C 6.99 g/m*3 27.8 C 0 km/h
1294 08-09-2004 19:00:53 27.4 C 7.37 g/m*3 27.4 C 0 km/h
1295 08-09-2004 19:12:53 27 C 7.21 g/m*3 27 C 0 km/h
1296 08-09-2004 19:24:54 25.6 C 6.9 g/m*3 25.6 C 0 km/h
1297 08-09-2004 19:36:54 24.5 C 7.83 g/m*3 24.5 C 0 km/h
1298 08-09-2004 19:48:54 23.8 C 7.53 g/m*3 23.8 C 0 km/h
1299 08-09-2004 20:00:54 22.8 C 7.92 g/m*3 22.8 C 0 km/h
1300 08-09-2004 20:12:54 22 C 7.76 g/m*3 22 C 0 km/h
Sensor: Nr:Datum:Temp:Abs-Feuchte:Windchill:Wind:
Aussen-T/F 1301 08-09-2004 20:24:54 21.2 C 7.97 g/m*3 21.2 C 0 km/h
1302 08-09-2004 20:36:54 20.7 C 8.28 g/m*3 20.7 C 0 km/h
1303 08-09-2004 20:48:53 19.7 C 8.32 g/m*3 19.7 C 0 km/h
1304 08-09-2004 21:00:53 19.5 C 8.22 g/m*3 19.5 C 0 km/h
1305 08-09-2004 21:12:53 19.3 C 8.29 g/m*3 19.3 C 0 km/h
1306 08-09-2004 21:24:53 18.9 C 8.26 g/m*3 18.9 C 0 km/h
1307 08-09-2004 21:36:53 18.5 C 8.23 g/m*3 18.5 C 0 km/h
1308 08-09-2004 21:48:53 18.2 C 8.24 g/m*3 18.2 C 0 km/h
1309 08-09-2004 22:00:53 17.9 C 8.55 g/m*3 17.9 C 0 km/h
1310 08-09-2004 22:12:53 17.8 C 8.65 g/m*3 17.8 C 0 km/h
1311 08-09-2004 22:24:53 17.6 C 8.55 g/m*3 17.6 C 0 km/h
1312 08-09-2004 22:36:53 17.6 C 8.7 g/m*3 17.6 C 0 km/h
1313 08-09-2004 22:48:53 17.3 C 8.25 g/m*3 17.3 C 0 km/h
1314 08-09-2004 23:00:54 17.2 C 8.49 g/m*3 17.2 C 0 km/h
1315 08-09-2004 23:12:54 16.9 C 8.77 g/m*3 16.9 C 0 km/h
1316 08-09-2004 23:24:54 16.5 C 8.71 g/m*3 16.5 C 0 km/h
1317 08-09-2004 23:36:53 16.3 C 8.6 g/m*3 16.3 C 0 km/h
1318 08-09-2004 23:48:53 15.9 C 8.67 g/m*3 15.9 C 0 km/h
1319 09-09-2004 00:00:53 15.7 C 8.7 g/m*3 15.7 C 0 km/h
1320 09-09-2004 00:12:53 15.8 C 8.48 g/m*3 15.8 C 0 km/h
1321 09-09-2004 00:24:53 15.7 C 8.3 g/m*3 15.7 C 0 km/h
1322 09-09-2004 00:36:53 16.1 C 8.22 g/m*3 16.1 C 0 km/h
1323 09-09-2004 00:48:53 16 C 7.77 g/m*3 16 C 0 km/h
1324 09-09-2004 01:00:53 16 C 7.49 g/m*3 16 C 0 km/h
1325 09-09-2004 01:12:53 15.9 C 7.72 g/m*3 15.9 C 0 km/h
Sensor: Nr:Datum:Temp:Abs-Feuchte:Windchill:Wind:
Aussen-T/F 1326 09-09-2004 01:24:53 15.8 C 7.67 g/m*3 15.8 C 0 km/h
1327 09-09-2004 01:36:53 15.7 C 7.89 g/m*3 15.7 C 0 km/h
1328 09-09-2004 01:48:53 15.4 C 7.88 g/m*3 15.4 C 0 km/h
1329 09-09-2004 02:00:53 15.1 C 7.87 g/m*3 15.1 C 0 km/h
1330 09-09-2004 02:12:53 14.8 C 7.98 g/m*3 14.8 C 0 km/h
1331 09-09-2004 02:24:53 14.4 C 7.91 g/m*3 14.4 C 0 km/h
1332 09-09-2004 02:36:53 14.3 C 7.86 g/m*3 14.3 C 0 km/h
1333 09-09-2004 02:49:54 14 C 7.84 g/m*3 14 C 0 km/h
1334 09-09-2004 03:01:54 13.7 C 7.82 g/m*3 13.7 C 0 km/h
1335 09-09-2004 03:13:54 13.6 C 7.89 g/m*3 13.6 C 0 km/h
1336 09-09-2004 03:25:54 13.5 C 7.95 g/m*3 13.5 C 0 km/h
1337 09-09-2004 03:37:54 13.5 C 7.95 g/m*3 13.5 C 0 km/h
1338 09-09-2004 03:49:54 13.4 C 7.9 g/m*3 13.4 C 0 km/h
1339 09-09-2004 04:01:54 13.4 C 7.9 g/m*3 13.4 C 0 km/h
1340 09-09-2004 04:13:54 13.3 C 7.86 g/m*3 13.3 C 0 km/h
1341 09-09-2004 04:25:54 13.1 C 7.87 g/m*3 13.1 C 0 km/h
1342 09-09-2004 04:37:54 13 C 7.83 g/m*3 13 C 0 km/h
1343 09-09-2004 04:49:54 12.7 C 7.9 g/m*3 12.7 C 0 km/h
1344 09-09-2004 05:01:54 12.6 C 7.97 g/m*3 12.6 C 0 km/h
1345 09-09-2004 05:13:54 12.4 C 7.87 g/m*3 12.4 C 0 km/h
1346 09-09-2004 05:25:54 12.1 C 7.72 g/m*3 12.1 C 0 km/h
1347 09-09-2004 05:37:54 12 C 7.78 g/m*3 12 C 0 km/h
1348 09-09-2004 05:49:54 11.8 C 7.79 g/m*3 11.8 C 0 km/h
1349 09-09-2004 06:01:54 11.8 C 7.89 g/m*3 11.8 C 0 km/h
1350 09-09-2004 06:13:54 11.5 C 7.85 g/m*3 11.5 C 0 km/h
Sensor: Nr:Datum:Temp:Abs-Feuchte:Windchill:Wind:
Aussen-T/F 1351 09-09-2004 06:25:54 11.4 C 8.01 g/m*3 11.4 C 0 km/h
1352 09-09-2004 06:37:54 11.2 C 8.01 g/m*3 11.2 C 0 km/h
1353 09-09-2004 06:49:54 11 C 8.01 g/m*3 11 C 0 km/h
1354 09-09-2004 07:01:54 11 C 8.01 g/m*3 11 C 0 km/h
1355 09-09-2004 07:13:55 11 C 8.01 g/m*3 11 C 0 km/h
1356 09-09-2004 07:25:54 11 C 8.11 g/m*3 11 C 0 km/h
1357 09-09-2004 07:37:54 11 C 8.01 g/m*3 11 C 0 km/h
1358 09-09-2004 07:49:54 11 C 8.01 g/m*3 11 C 0 km/h
1359 09-09-2004 08:01:54 11 C 8.01 g/m*3 11 C 0 km/h
1360 09-09-2004 08:13:54 11.1 C 8.06 g/m*3 11.1 C 0 km/h
1361 09-09-2004 08:25:53 11.2 C 8.11 g/m*3 11.2 C 0 km/h
1362 09-09-2004 08:37:53 11.2 C 8.11 g/m*3 11.2 C 0 km/h
1363 09-09-2004 08:49:53 11.4 C 8.21 g/m*3 11.4 C 0 km/h
1364 09-09-2004 09:01:53 11.6 C 8.21 g/m*3 11.6 C 0 km/h
1365 09-09-2004 09:13:53 11.8 C 8.31 g/m*3 11.8 C 0 km/h
1366 09-09-2004 09:25:53 12.1 C 8.26 g/m*3 12.1 C 0 km/h
1367 09-09-2004 09:37:54 12.5 C 8.47 g/m*3 12.5 C 0 km/h
1368 09-09-2004 09:49:54 13.2 C 8.61 g/m*3 13.2 C 0 km/h
1369 09-09-2004 10:01:54 13.8 C 8.7 g/m*3 13.8 C 0 km/h
1370 09-09-2004 10:13:54 14.7 C 8.56 g/m*3 14.7 C 0 km/h
1371 09-09-2004 10:25:54 15.4 C 8.54 g/m*3 15.4 C 0 km/h
1372 09-09-2004 10:37:54 16.1 C 8.36 g/m*3 16.1 C 0 km/h
1373 09-09-2004 10:49:54 16.8 C 8.29 g/m*3 16.8 C 0 km/h
1374 09-09-2004 11:01:53 17.5 C 8.2 g/m*3 17.5 C 0 km/h
1375 09-09-2004 11:13:53 18 C 8.6 g/m*3 18 C 0 km/h
Sensor: Nr:Datum:Temp:Abs-Feuchte:Windchill:Wind:
Aussen-T/F 1376 09-09-2004 11:25:53 18.7 C 8.81 g/m*3 18.7 C 0 km/h
1377 09-09-2004 11:37:53 19.1 C 8.03 g/m*3 19.1 C 0 km/h
1378 09-09-2004 11:49:53 19.7 C 8.15 g/m*3 19.7 C 0 km/h
1379 09-09-2004 12:01:53 20.2 C 7.69 g/m*3 20.2 C 0 km/h
1380 09-09-2004 12:13:53 20.7 C 7.38 g/m*3 20.7 C 0 km/h
1381 09-09-2004 12:25:53 21.2 C 6.67 g/m*3 21.2 C 0 km/h
1382 09-09-2004 12:37:53 21.4 C 6.94 g/m*3 21.4 C 0 km/h
1383 09-09-2004 12:49:53 21.6 C 6.45 g/m*3 21.6 C 0 km/h
1384 09-09-2004 13:01:53 21.9 C 6.37 g/m*3 21.9 C 0 km/h
1385 09-09-2004 13:13:53 22.4 C 6.55 g/m*3 22.4 C 0 km/h
1386 09-09-2004 13:25:53 22.7 C 6.26 g/m*3 22.7 C 0 km/h
1387 09-09-2004 13:37:54 23.1 C 6.41 g/m*3 23.1 C 0 km/h
1388 09-09-2004 13:49:53 23.6 C 6.38 g/m*3 23.6 C 0 km/h
1389 09-09-2004 14:01:53 24 C 5.87 g/m*3 24 C 0 km/h
1390 09-09-2004 14:13:53 24.3 C 6.42 g/m*3 24.3 C 0 km/h
1391 09-09-2004 14:25:53 25 C 5.99 g/m*3 25 C 0 km/h
1392 09-09-2004 14:37:53 25.6 C 6.43 g/m*3 25.6 C 0 km/h
1393 09-09-2004 14:49:53 25.9 C 6.29 g/m*3 25.9 C 0 km/h
1394 09-09-2004 15:01:53 26.6 C 6.29 g/m*3 26.6 C 0 km/h
1395 09-09-2004 15:13:53 27.1 C 6.73 g/m*3 27.1 C 0 km/h
1396 09-09-2004 15:25:53 27.7 C 6.42 g/m*3 27.7 C 0 km/h
1397 09-09-2004 15:37:53 28.4 C 6.67 g/m*3 28.4 C 0 km/h
1398 09-09-2004 15:49:53 28.5 C 6.43 g/m*3 28.5 C 0 km/h
1399 09-09-2004 16:01:53 28.5 C 6.15 g/m*3 28.5 C 0 km/h
1400 09-09-2004 16:13:53 28.8 C 7.1 g/m*3 28.8 C 0 km/h
Sensor: Nr:Datum:Temp:Abs-Feuchte:Windchill:Wind:
Aussen-T/F 1401 09-09-2004 16:25:53 29 C 6.03 g/m*3 29 C 0 km/h
1402 09-09-2004 16:37:52 29.2 C 6.1 g/m*3 29.2 C 0 km/h
1403 09-09-2004 16:49:52 29.4 C 6.16 g/m*3 29.4 C 0 km/h
1404 09-09-2004 17:01:52 29.7 C 6.56 g/m*3 29.7 C 0 km/h
1405 09-09-2004 17:13:52 29.4 C 6.16 g/m*3 29.4 C 0 km/h
1406 09-09-2004 17:25:52 30.1 C 6.4 g/m*3 30.1 C 0 km/h
1407 09-09-2004 17:37:53 29.8 C 6 g/m*3 29.8 C 0 km/h
1408 09-09-2004 17:49:53 29.8 C 6 g/m*3 29.8 C 0 km/h
1409 09-09-2004 18:01:53 30 C 6.06 g/m*3 30 C 0 km/h
1410 09-09-2004 18:13:53 29.3 C 5.84 g/m*3 29.3 C 0 km/h
1411 09-09-2004 18:25:53 28.2 C 5.5 g/m*3 28.2 C 0 km/h
1412 09-09-2004 18:37:53 27.9 C 5.95 g/m*3 27.9 C 0 km/h
1413 09-09-2004 18:49:53 27.9 C 7.3 g/m*3 27.9 C 0 km/h
1414 09-09-2004 19:01:53 27 C 7.46 g/m*3 27 C 0 km/h
1415 09-09-2004 19:13:53 26.3 C 6.93 g/m*3 26.3 C 0 km/h
1416 09-09-2004 19:25:52 25.3 C 7.26 g/m*3 25.3 C 0 km/h
1417 09-09-2004 19:37:52 23.9 C 7.57 g/m*3 23.9 C 0 km/h
1418 09-09-2004 19:49:52 22.2 C 7.66 g/m*3 22.2 C 0 km/h
1419 09-09-2004 20:01:52 20.8 C 7.24 g/m*3 20.8 C 0 km/h
1420 09-09-2004 20:13:52 19.8 C 7.17 g/m*3 19.8 C 0 km/h
1421 09-09-2004 20:25:52 19.3 C 7.13 g/m*3 19.3 C 0 km/h
1422 09-09-2004 20:37:52 19 C 7.17 g/m*3 19 C 0 km/h
1423 09-09-2004 20:49:52 18.8 C 7.25 g/m*3 18.8 C 0 km/h
1424 09-09-2004 21:01:52 18.6 C 7 g/m*3 18.6 C 0 km/h
1425 09-09-2004 21:13:52 18.4 C 6.76 g/m*3 18.4 C 0 km/h
Sensor: Nr:Datum:Temp:Abs-Feuchte:Windchill:Wind:
Aussen-T/F 1426 09-09-2004 21:25:53 18.2 C 6.84 g/m*3 18.2 C 0 km/h
1427 09-09-2004 21:37:53 17.9 C 6.72 g/m*3 17.9 C 0 km/h
1428 09-09-2004 21:49:53 17.6 C 6.75 g/m*3 17.6 C 0 km/h
1429 09-09-2004 22:01:52 17.4 C 6.67 g/m*3 17.4 C 0 km/h
1430 09-09-2004 22:13:52 17.2 C 6.74 g/m*3 17.2 C 0 km/h
1431 09-09-2004 22:25:52 16.9 C 6.76 g/m*3 16.9 C 0 km/h
1432 09-09-2004 22:37:52 16.7 C 6.68 g/m*3 16.7 C 0 km/h
1433 09-09-2004 22:49:52 16.2 C 6.62 g/m*3 16.2 C 0 km/h
1434 09-09-2004 23:01:52 15.9 C 6.77 g/m*3 15.9 C 0 km/h
1435 09-09-2004 23:13:52 15.8 C 6.87 g/m*3 15.8 C 0 km/h
1436 09-09-2004 23:25:52 15.6 C 6.65 g/m*3 15.6 C 0 km/h
1437 09-09-2004 23:37:52 15.3 C 6.66 g/m*3 15.3 C 0 km/h
1438 09-09-2004 23:49:52 15.2 C 6.88 g/m*3 15.2 C 0 km/h
1439 10-09-2004 00:01:52 14.9 C 6.75 g/m*3 14.9 C 0 km/h
1440 10-09-2004 00:13:52 14.6 C 6.63 g/m*3 14.6 C 0 km/h
1441 10-09-2004 00:25:53 14.4 C 6.43 g/m*3 14.4 C 0 km/h
1442 10-09-2004 00:37:52 14.4 C 6.43 g/m*3 14.4 C 0 km/h
1443 10-09-2004 00:49:52 14.2 C 6.35 g/m*3 14.2 C 0 km/h
1444 10-09-2004 01:01:52 14.1 C 6.19 g/m*3 14.1 C 0 km/h
1445 10-09-2004 01:13:52 13.8 C 6.55 g/m*3 13.8 C 0 km/h
1446 10-09-2004 01:25:51 13.6 C 6.47 g/m*3 13.6 C 0 km/h
1447 10-09-2004 01:37:51 13.2 C 6.43 g/m*3 13.2 C 0 km/h
1448 10-09-2004 01:49:52 13.2 C 6.2 g/m*3 13.2 C 0 km/h
1449 10-09-2004 02:01:52 13 C 6.35 g/m*3 13 C 0 km/h
1450 10-09-2004 02:13:52 12.8 C 6.38 g/m*3 12.8 C 0 km/h
Sensor: Nr:Datum:Temp:Abs-Feuchte:Windchill:Wind:
Aussen-T/F 1451 10-09-2004 02:25:52 12.5 C 6.38 g/m*3 12.5 C 0 km/h
1452 10-09-2004 02:37:52 12.3 C 6.3 g/m*3 12.3 C 0 km/h
1453 10-09-2004 02:50:53 12.1 C 6.65 g/m*3 12.1 C 0 km/h
1454 10-09-2004 03:02:53 12.1 C 6.54 g/m*3 12.1 C 0 km/h
1455 10-09-2004 03:14:53 11.7 C 6.38 g/m*3 11.7 C 0 km/h
1456 10-09-2004 03:26:53 11.4 C 6.26 g/m*3 11.4 C 0 km/h
1457 10-09-2004 03:38:53 11.2 C 6.28 g/m*3 11.2 C 0 km/h
1458 10-09-2004 03:50:53 11.2 C 6.39 g/m*3 11.2 C 0 km/h
1459 10-09-2004 04:02:53 11.1 C 6.45 g/m*3 11.1 C 0 km/h
1460 10-09-2004 04:14:53 10.9 C 6.56 g/m*3 10.9 C 0 km/h
1461 10-09-2004 04:26:53 10.7 C 6.68 g/m*3 10.7 C 0 km/h
1462 10-09-2004 04:38:53 10.6 C 6.54 g/m*3 10.6 C 0 km/h
1463 10-09-2004 04:50:53 10.3 C 6.7 g/m*3 10.3 C 0 km/h
1464 10-09-2004 05:02:53 10.2 C 6.76 g/m*3 10.2 C 0 km/h
1465 10-09-2004 05:14:53 10 C 6.86 g/m*3 10 C 0 km/h
1466 10-09-2004 05:26:53 9.7 C 6.82 g/m*3 9.7 C 0 km/h
1467 10-09-2004 05:38:53 9.5 C 6.83 g/m*3 9.5 C 0 km/h
1468 10-09-2004 05:50:53 9.4 C 6.96 g/m*3 9.4 C 0 km/h
1469 10-09-2004 06:02:53 9.2 C 6.61 g/m*3 9.2 C 0 km/h
1470 10-09-2004 06:14:53 9.1 C 6.92 g/m*3 9.1 C 0 km/h
1471 10-09-2004 06:26:53 8.9 C 7.1 g/m*3 8.9 C 0 km/h
1472 10-09-2004 06:38:53 8.9 C 6.83 g/m*3 8.9 C 0 km/h
1473 10-09-2004 06:50:53 8.8 C 6.61 g/m*3 8.8 C 0 km/h
1474 10-09-2004 07:02:52 8.7 C 7.01 g/m*3 8.7 C 0 km/h
1475 10-09-2004 07:14:53 8.6 C 6.79 g/m*3 8.6 C 0 km/h
Sensor: Nr:Datum:Temp:Abs-Feuchte:Windchill:Wind:
Aussen-T/F 1476 10-09-2004 07:26:53 8.6 C 6.7 g/m*3 8.6 C 0 km/h
1477 10-09-2004 07:38:53 8.9 C 6.83 g/m*3 8.9 C 0 km/h
1478 10-09-2004 07:50:53 8.7 C 6.66 g/m*3 8.7 C 0 km/h
1479 10-09-2004 08:02:53 8.8 C 6.79 g/m*3 8.8 C 0 km/h
1480 10-09-2004 08:14:53 8.8 C 6.88 g/m*3 8.8 C 0 km/h
1481 10-09-2004 08:26:53 9 C 6.96 g/m*3 9 C 0 km/h
1482 10-09-2004 08:38:53 9.3 C 7.01 g/m*3 9.3 C 0 km/h
1483 10-09-2004 08:50:53 9.5 C 7.1 g/m*3 9.5 C 0 km/h
1484 10-09-2004 09:02:53 9.9 C 7.19 g/m*3 9.9 C 0 km/h
1485 10-09-2004 09:14:52 10.2 C 7.23 g/m*3 10.2 C 0 km/h
1486 10-09-2004 09:26:52 10.6 C 7.32 g/m*3 10.6 C 0 km/h
1487 10-09-2004 09:38:52 11.3 C 7.34 g/m*3 11.3 C 0 km/h
1488 10-09-2004 09:50:52 12 C 7.35 g/m*3 12 C 0 km/h
1489 10-09-2004 10:02:52 12.9 C 7.44 g/m*3 12.9 C 0 km/h
1490 10-09-2004 10:14:52 13.6 C 7.65 g/m*3 13.6 C 0 km/h
1491 10-09-2004 10:26:52 14.1 C 7.52 g/m*3 14.1 C 0 km/h
1492 10-09-2004 10:38:52 15 C 7.69 g/m*3 15 C 0 km/h
1493 10-09-2004 10:50:52 16.2 C 7.03 g/m*3 16.2 C 0 km/h
1494 10-09-2004 11:02:52 17 C 6.51 g/m*3 17 C 0 km/h
1495 10-09-2004 11:14:52 17.8 C 6.68 g/m*3 17.8 C 0 km/h
1496 10-09-2004 11:26:52 18.3 C 6.1 g/m*3 18.3 C 0 km/h
1497 10-09-2004 11:38:53 19 C 6.52 g/m*3 19 C 0 km/h
1498 10-09-2004 11:50:53 19.5 C 6.55 g/m*3 19.5 C 0 km/h
1499 10-09-2004 12:02:53 20.2 C 6.29 g/m*3 20.2 C 0 km/h
1500 10-09-2004 12:14:52 20.6 C 6.44 g/m*3 20.6 C 0 km/h
Sensor: Nr:Datum:Temp:Abs-Feuchte:Windchill:Wind:
Aussen-T/F 1501 10-09-2004 12:26:52 21 C 6.41 g/m*3 21 C 0 km/h
1502 10-09-2004 12:38:52 21.6 C 6.64 g/m*3 21.6 C 0 km/h
1503 10-09-2004 12:50:52 21.8 C 6.72 g/m*3 21.8 C 0 km/h
1504 10-09-2004 13:02:52 22.2 C 6.87 g/m*3 22.2 C 0 km/h
1505 10-09-2004 13:14:52 22.7 C 7.27 g/m*3 22.7 C 0 km/h
1506 10-09-2004 13:26:52 23.2 C 6.65 g/m*3 23.2 C 0 km/h
1507 10-09-2004 13:38:52 23.6 C 6.81 g/m*3 23.6 C 0 km/h
1508 10-09-2004 13:50:52 24.3 C 6.86 g/m*3 24.3 C 0 km/h
1509 10-09-2004 14:02:52 24.5 C 6.71 g/m*3 24.5 C 0 km/h
1510 10-09-2004 14:14:52 25 C 6.91 g/m*3 25 C 0 km/h
1511 10-09-2004 14:26:52 24.9 C 6.87 g/m*3 24.9 C 0 km/h
1512 10-09-2004 14:38:52 25.3 C 7.02 g/m*3 25.3 C 0 km/h
1513 10-09-2004 14:50:52 25.7 C 6.7 g/m*3 25.7 C 0 km/h
1514 10-09-2004 15:02:52 26.4 C 7.47 g/m*3 26.4 C 0 km/h
1515 10-09-2004 15:14:52 27.2 C 7.81 g/m*3 27.2 C 0 km/h
1516 10-09-2004 15:26:52 27.2 C 7.29 g/m*3 27.2 C 0 km/h
1517 10-09-2004 15:38:52 26.1 C 8.32 g/m*3 26.1 C 0 km/h
1518 10-09-2004 15:50:52 27 C 7.98 g/m*3 27 C 0 km/h
1519 10-09-2004 16:02:52 28.5 C 8.38 g/m*3 28.5 C 0 km/h
1520 10-09-2004 16:14:52 29.2 C 7.84 g/m*3 29.2 C 0 km/h
1521 10-09-2004 16:26:52 29.5 C 7.67 g/m*3 29.5 C 0 km/h
1522 10-09-2004 16:38:52 29.9 C 8.14 g/m*3 29.9 C 0 km/h
1523 10-09-2004 16:50:52 29.3 C 7.88 g/m*3 29.3 C 0 km/h
1524 10-09-2004 17:02:52 28.8 C 7.96 g/m*3 28.8 C 0 km/h
1525 10-09-2004 17:14:52 28.8 C 8.81 g/m*3 28.8 C 0 km/h
Sensor: Nr:Datum:Temp:Abs-Feuchte:Windchill:Wind:
Aussen-T/F 1526 10-09-2004 17:26:52 30.1 C 8.54 g/m*3 30.1 C 0 km/h
1527 10-09-2004 17:38:52 29.8 C 9.6 g/m*3 29.8 C 0 km/h
1528 10-09-2004 17:50:51 29.8 C 9.9 g/m*3 29.8 C 0 km/h
1529 10-09-2004 18:02:51 28.1 C 9.84 g/m*3 28.1 C 0 km/h
1530 10-09-2004 18:14:51 26.2 C 10.09 g/m*3 26.2 C 0 km/h
1531 10-09-2004 18:26:51 25.8 C 10.11 g/m*3 25.8 C 0 km/h
1532 10-09-2004 18:38:51 27.1 C 10.09 g/m*3 27.1 C 0 km/h
1533 10-09-2004 18:50:51 27.3 C 10.47 g/m*3 27.3 C 0 km/h
1534 10-09-2004 19:02:52 26.7 C 10.12 g/m*3 26.7 C 0 km/h
1535 10-09-2004 19:14:52 25.6 C 10.48 g/m*3 25.6 C 0 km/h
1536 10-09-2004 19:26:52 24.5 C 10.74 g/m*3 24.5 C 0 km/h
1537 10-09-2004 19:38:52 23.3 C 10.45 g/m*3 23.3 C 0 km/h
1538 10-09-2004 19:50:52 22.6 C 10.45 g/m*3 22.6 C 0 km/h
1539 10-09-2004 20:02:52 22.2 C 10.41 g/m*3 22.2 C 0 km/h
1540 10-09-2004 20:14:51 21.8 C 10.36 g/m*3 21.8 C 0 km/h
1541 10-09-2004 20:26:51 21.7 C 10.3 g/m*3 21.7 C 0 km/h
1542 10-09-2004 20:38:51 21.6 C 10.24 g/m*3 21.6 C 0 km/h
1543 10-09-2004 20:50:51 21.6 C 10.24 g/m*3 21.6 C 0 km/h
1544 10-09-2004 21:02:51 21.3 C 10.07 g/m*3 21.3 C 0 km/h
1545 10-09-2004 21:14:51 20.9 C 10.2 g/m*3 20.9 C 0 km/h
1546 10-09-2004 21:26:51 20.8 C 10.5 g/m*3 20.8 C 0 km/h
1547 10-09-2004 21:38:51 20.5 C 10.5 g/m*3 20.5 C 0 km/h
1548 10-09-2004 21:50:51 20.3 C 10.55 g/m*3 20.3 C 0 km/h
1549 10-09-2004 22:02:51 20.3 C 10.73 g/m*3 20.3 C 0 km/h
1550 10-09-2004 22:14:51 20.4 C 10.97 g/m*3 20.4 C 0 km/h
Sensor: Nr:Datum:Temp:Abs-Feuchte:Windchill:Wind:
Aussen-T/F 1551 10-09-2004 22:26:51 20.3 C 10.9 g/m*3 20.3 C 0 km/h
1552 10-09-2004 22:38:51 20.2 C 11.02 g/m*3 20.2 C 0 km/h
1553 10-09-2004 22:50:51 20.3 C 11.08 g/m*3 20.3 C 0 km/h
1554 10-09-2004 23:02:50 20 C 11.06 g/m*3 20 C 0 km/h
1555 10-09-2004 23:14:51 19.7 C 11.21 g/m*3 19.7 C 0 km/h
1556 10-09-2004 23:26:51 19.6 C 11.48 g/m*3 19.6 C 0 km/h
1557 10-09-2004 23:38:51 19.4 C 11.51 g/m*3 19.4 C 0 km/h
1558 10-09-2004 23:50:51 19.3 C 11.61 g/m*3 19.3 C 0 km/h
1559 11-09-2004 00:02:51 19.2 C 11.54 g/m*3 19.2 C 0 km/h
1560 11-09-2004 00:14:53 19.1 C 11.47 g/m*3 19.1 C 0 km/h
1561 11-09-2004 00:26:54 19.1 C 11.8 g/m*3 19.1 C 0 km/h
1562 11-09-2004 00:38:51 19.2 C 11.71 g/m*3 19.2 C 0 km/h
1563 11-09-2004 00:50:51 19.1 C 11.64 g/m*3 19.1 C 0 km/h
1564 11-09-2004 01:02:51 18.9 C 11.66 g/m*3 18.9 C 0 km/h
1565 11-09-2004 01:14:50 18.9 C 11.83 g/m*3 18.9 C 0 km/h
1566 11-09-2004 01:26:50 18.8 C 11.76 g/m*3 18.8 C 0 km/h
1567 11-09-2004 01:38:50 18.5 C 11.71 g/m*3 18.5 C 0 km/h
1568 11-09-2004 01:50:50 18.7 C 11.85 g/m*3 18.7 C 0 km/h
1569 11-09-2004 02:02:51 18.8 C 11.92 g/m*3 18.8 C 0 km/h
1570 11-09-2004 02:14:51 18.9 C 11.99 g/m*3 18.9 C 0 km/h
1571 11-09-2004 02:26:51 18.8 C 11.92 g/m*3 18.8 C 0 km/h
1572 11-09-2004 02:38:51 18.5 C 12.02 g/m*3 18.5 C 0 km/h
1573 11-09-2004 02:51:52 18.4 C 13.21 g/m*3 18.4 C 0 km/h
1574 11-09-2004 03:03:52 18.4 C 13.53 g/m*3 18.4 C 0 km/h
1575 11-09-2004 03:15:52 18.1 C 13.75 g/m*3 18.1 C 0 km/h
Sensor: Nr:Datum:Temp:Abs-Feuchte:Windchill:Wind:
Aussen-T/F 1576 11-09-2004 03:27:52 18 C 13.82 g/m*3 18 C 0 km/h
1577 11-09-2004 03:39:52 17.9 C 14.05 g/m*3 17.9 C 0 km/h
1578 11-09-2004 03:51:52 17.9 C 14.05 g/m*3 17.9 C 0 km/h
1579 11-09-2004 04:03:52 17.9 C 13.89 g/m*3 17.9 C 0 km/h
1580 11-09-2004 04:15:52 17.9 C 13.89 g/m*3 17.9 C 0 km/h
1581 11-09-2004 04:27:52 17.8 C 13.96 g/m*3 17.8 C 0 km/h
1582 11-09-2004 04:39:52 17.5 C 13.72 g/m*3 17.5 C 0 km/h
1583 11-09-2004 04:51:52 17.3 C 13.55 g/m*3 17.3 C 0 km/h
1584 11-09-2004 05:03:52 17.2 C 13.47 g/m*3 17.2 C 0 km/h
1585 11-09-2004 05:15:52 17.1 C 13.39 g/m*3 17.1 C 0 km/h
1586 11-09-2004 05:27:52 17.2 C 13.62 g/m*3 17.2 C 0 km/h
1587 11-09-2004 05:39:52 16.9 C 13.38 g/m*3 16.9 C 0 km/h
1588 11-09-2004 05:51:52 16.8 C 13.3 g/m*3 16.8 C 0 km/h
1589 11-09-2004 06:03:52 16.9 C 13.52 g/m*3 16.9 C 0 km/h
1590 11-09-2004 06:15:52 16.9 C 13.52 g/m*3 16.9 C 0 km/h
1591 11-09-2004 06:27:52 16.8 C 13.44 g/m*3 16.8 C 0 km/h
1592 11-09-2004 06:39:52 16.8 C 13.44 g/m*3 16.8 C 0 km/h
1593 11-09-2004 06:51:51 16.7 C 13.36 g/m*3 16.7 C 0 km/h
1594 11-09-2004 07:03:51 16.6 C 13.28 g/m*3 16.6 C 0 km/h
1595 11-09-2004 07:15:51 16.9 C 13.52 g/m*3 16.9 C 0 km/h
1596 11-09-2004 07:27:51 17 C 13.6 g/m*3 17 C 0 km/h
1597 11-09-2004 07:39:51 17.1 C 13.68 g/m*3 17.1 C 0 km/h
1598 11-09-2004 07:51:52 17.1 C 13.54 g/m*3 17.1 C 0 km/h
1599 11-09-2004 08:03:52 17.1 C 13.54 g/m*3 17.1 C 0 km/h
1600 11-09-2004 08:15:01 17.5 C 13.72 g/m*3 17.5 C 0 km/h
Sensor: Nr:Datum:Temp:Abs-Feuchte:Windchill:Wind:
Aussen-T/F 1601 11-09-2004 08:27:01 17.9 C 13.89 g/m*3 17.9 C 0 km/h
1602 11-09-2004 08:39:01 18.7 C 13.61 g/m*3 18.7 C 0 km/h
1603 11-09-2004 08:51:01 18.9 C 13.45 g/m*3 18.9 C 0 km/h
1604 11-09-2004 09:03:01 19.1 C 13.28 g/m*3 19.1 C 0 km/h
1605 11-09-2004 09:15:01 19.1 C 13.28 g/m*3 19.1 C 0 km/h
1606 11-09-2004 09:27:01 19.4 C 13.51 g/m*3 19.4 C 0 km/h
1607 11-09-2004 09:39:01 19.5 C 13.43 g/m*3 19.5 C 0 km/h
1608 11-09-2004 09:51:01 19.9 C 13.57 g/m*3 19.9 C 0 km/h
1609 11-09-2004 10:03:00 20.3 C 13.72 g/m*3 20.3 C 0 km/h
1610 11-09-2004 10:15:00 20.4 C 13.44 g/m*3 20.4 C 0 km/h
1611 11-09-2004 10:27:00 20.4 C 13.27 g/m*3 20.4 C 0 km/h
1612 11-09-2004 10:39:00 20.7 C 13.14 g/m*3 20.7 C 0 km/h
1613 11-09-2004 10:51:00 20.5 C 13.17 g/m*3 20.5 C 0 km/h
1614 11-09-2004 11:03:00 20.8 C 13.04 g/m*3 20.8 C 0 km/h
1615 11-09-2004 11:15:00 21.1 C 12.9 g/m*3 21.1 C 0 km/h
1616 11-09-2004 11:27:00 21.5 C 12.82 g/m*3 21.5 C 0 km/h
1617 11-09-2004 11:39:00 21.8 C 12.85 g/m*3 21.8 C 0 km/h
1618 11-09-2004 11:51:00 21.9 C 12.54 g/m*3 21.9 C 0 km/h
1619 11-09-2004 12:03:00 22.2 C 12.57 g/m*3 22.2 C 0 km/h
1620 11-09-2004 12:15:00 22.5 C 12.38 g/m*3 22.5 C 0 km/h
1621 11-09-2004 12:27:00 22.8 C 12.6 g/m*3 22.8 C 0 km/h
1622 11-09-2004 12:39:01 23.1 C 12.2 g/m*3 23.1 C 0 km/h
1623 11-09-2004 12:51:00 23.4 C 11.99 g/m*3 23.4 C 0 km/h
1624 11-09-2004 13:03:00 23.3 C 11.5 g/m*3 23.3 C 0 km/h
1625 11-09-2004 13:15:00 23.5 C 11.63 g/m*3 23.5 C 0 km/h
Sensor: Nr:Datum:Temp:Abs-Feuchte:Windchill:Wind:
Aussen-T/F 1626 11-09-2004 13:27:00 23.3 C 11.29 g/m*3 23.3 C 0 km/h
1627 11-09-2004 13:39:00 23.7 C 11.34 g/m*3 23.7 C 0 km/h
1628 11-09-2004 13:51:00 24.1 C 11.16 g/m*3 24.1 C 0 km/h
1629 11-09-2004 14:03:00 24.2 C 11.22 g/m*3 24.2 C 0 km/h
1630 11-09-2004 14:15:00 24.5 C 11.19 g/m*3 24.5 C 0 km/h
1631 11-09-2004 14:27:00 24.8 C 10.47 g/m*3 24.8 C 0 km/h
1632 11-09-2004 14:39:00 25.2 C 10.71 g/m*3 25.2 C 0 km/h
1633 11-09-2004 14:51:00 25.2 C 10.71 g/m*3 25.2 C 0 km/h
1634 11-09-2004 15:03:00 24.5 C 10.74 g/m*3 24.5 C 0 km/h
1635 11-09-2004 15:15:59 24.4 C 10.68 g/m*3 24.4 C 0 km/h
1636 11-09-2004 15:27:59 24.8 C 10.7 g/m*3 24.8 C 0 km/h
1637 11-09-2004 15:39:59 24.3 C 10.62 g/m*3 24.3 C 0 km/h
1638 11-09-2004 15:50:59 24.6 C 11.03 g/m*3 24.6 C 0 km/h
1639 11-09-2004 16:03:00 24.1 C 10.72 g/m*3 24.1 C 0 km/h
1640 11-09-2004 16:15:00 24.3 C 10.62 g/m*3 24.3 C 0 km/h
1641 11-09-2004 16:27:00 24.7 C 10.86 g/m*3 24.7 C 0 km/h
1642 11-09-2004 16:39:00 24.6 C 10.35 g/m*3 24.6 C 0 km/h
1643 11-09-2004 16:51:00 24.6 C 10.13 g/m*3 24.6 C 0 km/h
1644 11-09-2004 17:03:00 24.7 C 10.19 g/m*3 24.7 C 0 km/h
1645 11-09-2004 17:15:00 24.1 C 10.06 g/m*3 24.1 C 0 km/h
1646 11-09-2004 17:27:00 24.1 C 10.06 g/m*3 24.1 C 0 km/h
1647 11-09-2004 17:39:00 23.9 C 9.95 g/m*3 23.9 C 0 km/h
1648 11-09-2004 17:51:59 23.7 C 10.05 g/m*3 23.7 C 0 km/h
1649 11-09-2004 18:03:59 23.5 C 10.15 g/m*3 23.5 C 0 km/h
1650 11-09-2004 18:15:59 23.8 C 10.33 g/m*3 23.8 C 0 km/h
Sensor: Nr:Datum:Temp:Abs-Feuchte:Windchill:Wind:
Aussen-T/F 1651 11-09-2004 18:27:59 23.6 C 10.21 g/m*3 23.6 C 0 km/h
1652 11-09-2004 18:39:00 23.8 C 9.9 g/m*3 23.8 C 0 km/h
1653 11-09-2004 18:51:59 23.9 C 10.17 g/m*3 23.9 C 0 km/h
1654 11-09-2004 19:03:59 23.7 C 10.05 g/m*3 23.7 C 0 km/h
1655 11-09-2004 19:15:00 23.2 C 11.02 g/m*3 23.2 C 0 km/h
1656 11-09-2004 19:27:00 22.3 C 11.26 g/m*3 22.3 C 0 km/h
1657 11-09-2004 19:39:01 21.7 C 11.64 g/m*3 21.7 C 0 km/h
1658 11-09-2004 19:51:00 21.3 C 11.74 g/m*3 21.3 C 0 km/h
1659 11-09-2004 20:03:00 20.9 C 11.29 g/m*3 20.9 C 0 km/h
1660 11-09-2004 20:15:00 20.7 C 11.34 g/m*3 20.7 C 0 km/h
1661 11-09-2004 20:27:00 20.4 C 10.97 g/m*3 20.4 C 0 km/h
1662 11-09-2004 20:39:00 20.5 C 10.85 g/m*3 20.5 C 0 km/h
1663 11-09-2004 20:51:00 20.5 C 10.85 g/m*3 20.5 C 0 km/h
1664 11-09-2004 21:03:01 20.3 C 10.9 g/m*3 20.3 C 0 km/h
1665 11-09-2004 21:15:00 20.1 C 10.95 g/m*3 20.1 C 0 km/h
1666 11-09-2004 21:27:00 20.1 C 10.95 g/m*3 20.1 C 0 km/h
1667 11-09-2004 21:39:59 20.1 C 10.95 g/m*3 20.1 C 0 km/h
1668 11-09-2004 21:51:59 20.3 C 10.9 g/m*3 20.3 C 0 km/h
1669 11-09-2004 22:03:59 20.4 C 11.14 g/m*3 20.4 C 0 km/h
1670 11-09-2004 22:15:59 20 C 11.23 g/m*3 20 C 0 km/h
1671 11-09-2004 22:27:59 19.8 C 11.44 g/m*3 19.8 C 0 km/h
1672 11-09-2004 22:39:59 19.7 C 11.38 g/m*3 19.7 C 0 km/h
1673 11-09-2004 22:51:59 19.8 C 11.44 g/m*3 19.8 C 0 km/h
1674 11-09-2004 23:03:59 19.7 C 11.55 g/m*3 19.7 C 0 km/h
1675 11-09-2004 23:15:59 19.6 C 11.65 g/m*3 19.6 C 0 km/h
Sensor: Nr:Datum:Temp:Abs-Feuchte:Windchill:Wind:
Aussen-T/F 1676 11-09-2004 23:27:59 19.5 C 11.58 g/m*3 19.5 C 0 km/h
1677 11-09-2004 23:39:59 19.5 C 11.75 g/m*3 19.5 C 0 km/h
1678 11-09-2004 23:51:59 19.5 C 11.58 g/m*3 19.5 C 0 km/h
1679 12-09-2004 00:03:59 19.8 C 11.44 g/m*3 19.8 C 0 km/h
1680 12-09-2004 00:15:59 20.2 C 10.84 g/m*3 20.2 C 0 km/h
1681 12-09-2004 00:27:59 20.1 C 11.13 g/m*3 20.1 C 0 km/h
1682 12-09-2004 00:39:59 20 C 11.06 g/m*3 20 C 0 km/h
1683 12-09-2004 00:51:59 19.8 C 11.27 g/m*3 19.8 C 0 km/h
1684 12-09-2004 01:03:59 19.7 C 11.55 g/m*3 19.7 C 0 km/h
1685 12-09-2004 01:15:59 19.2 C 11.87 g/m*3 19.2 C 0 km/h
1686 12-09-2004 01:28:00 19 C 11.9 g/m*3 19 C 0 km/h
1687 12-09-2004 01:39:59 18.9 C 11.99 g/m*3 18.9 C 0 km/h
1688 12-09-2004 01:51:59 18.9 C 11.99 g/m*3 18.9 C 0 km/h
1689 12-09-2004 02:03:59 18.8 C 11.92 g/m*3 18.8 C 0 km/h
1690 12-09-2004 02:15:58 18.8 C 11.92 g/m*3 18.8 C 0 km/h
1691 12-09-2004 02:27:58 18.8 C 12.08 g/m*3 18.8 C 0 km/h
1692 12-09-2004 02:39:58 18.7 C 11.85 g/m*3 18.7 C 0 km/h
1693 12-09-2004 02:52:00 18.9 C 11.99 g/m*3 18.9 C 0 km/h
1694 12-09-2004 03:04:00 18.9 C 11.83 g/m*3 18.9 C 0 km/h
1695 12-09-2004 03:16:00 18.2 C 12.12 g/m*3 18.2 C 0 km/h
1696 12-09-2004 03:28:00 17.9 C 12.52 g/m*3 17.9 C 0 km/h
1697 12-09-2004 03:40:00 17.9 C 12.37 g/m*3 17.9 C 0 km/h
1698 12-09-2004 03:52:01 17.3 C 12.37 g/m*3 17.3 C 0 km/h
1699 12-09-2004 04:04:00 16.9 C 12.51 g/m*3 16.9 C 0 km/h
1700 12-09-2004 04:16:00 16.8 C 12.44 g/m*3 16.8 C 0 km/h
Sensor: Nr:Datum:Temp:Abs-Feuchte:Windchill:Wind:
Aussen-T/F 1701 12-09-2004 04:28:00 17 C 12.44 g/m*3 17 C 0 km/h
1702 12-09-2004 04:40:00 17 C 12.59 g/m*3 17 C 0 km/h
1703 12-09-2004 04:52:59 17 C 12.44 g/m*3 17 C 0 km/h
1704 12-09-2004 05:04:59 16.9 C 11.79 g/m*3 16.9 C 0 km/h
1705 12-09-2004 05:15:59 16.6 C 11.16 g/m*3 16.6 C 0 km/h
1706 12-09-2004 05:27:59 16 C 10.49 g/m*3 16 C 0 km/h
1707 12-09-2004 05:40:00 15.9 C 10.83 g/m*3 15.9 C 0 km/h
1708 12-09-2004 05:52:00 15.6 C 10.51 g/m*3 15.6 C 0 km/h
1709 12-09-2004 06:04:00 15.2 C 10.38 g/m*3 15.2 C 0 km/h
1710 12-09-2004 06:16:00 14.8 C 10.39 g/m*3 14.8 C 0 km/h
1711 12-09-2004 06:28:01 14.6 C 10.39 g/m*3 14.6 C 0 km/h
1712 12-09-2004 06:40:00 14.5 C 10.45 g/m*3 14.5 C 0 km/h
1713 12-09-2004 06:52:00 14.3 C 10.44 g/m*3 14.3 C 0 km/h
1714 12-09-2004 07:04:00 14.1 C 10.44 g/m*3 14.1 C 0 km/h
1715 12-09-2004 07:16:59 13.9 C 10.55 g/m*3 13.9 C 0 km/h
1716 12-09-2004 07:28:59 14 C 10.61 g/m*3 14 C 0 km/h
1717 12-09-2004 07:40:59 14 C 10.61 g/m*3 14 C 0 km/h
1718 12-09-2004 07:52:59 14.1 C 10.68 g/m*3 14.1 C 0 km/h
1719 12-09-2004 08:04:59 14.1 C 10.56 g/m*3 14.1 C 0 km/h
1720 12-09-2004 08:16:00 14.2 C 10.5 g/m*3 14.2 C 0 km/h
1721 12-09-2004 08:28:00 14.3 C 10.32 g/m*3 14.3 C 0 km/h
1722 12-09-2004 08:40:59 14.7 C 10.58 g/m*3 14.7 C 0 km/h
1723 12-09-2004 08:51:59 14.7 C 10.45 g/m*3 14.7 C 0 km/h
1724 12-09-2004 09:04:00 14.8 C 10.26 g/m*3 14.8 C 0 km/h
1725 12-09-2004 09:16:00 15.4 C 9.99 g/m*3 15.4 C 0 km/h
Sensor: Nr:Datum:Temp:Abs-Feuchte:Windchill:Wind:
Aussen-T/F 1726 12-09-2004 09:28:00 15.7 C 9.9 g/m*3 15.7 C 0 km/h
1727 12-09-2004 09:40:00 15.8 C 9.69 g/m*3 15.8 C 0 km/h
1728 12-09-2004 09:52:00 15.5 C 9.78 g/m*3 15.5 C 0 km/h
1729 12-09-2004 10:04:59 15.6 C 9.71 g/m*3 15.6 C 0 km/h
1730 12-09-2004 10:16:59 16.3 C 9.71 g/m*3 16.3 C 0 km/h
1731 12-09-2004 10:28:59 16.6 C 8.05 g/m*3 16.6 C 0 km/h
1732 12-09-2004 10:40:59 16.5 C 7.3 g/m*3 16.5 C 0 km/h
1733 12-09-2004 10:52:59 16 C 7.36 g/m*3 16 C 0 km/h
1734 12-09-2004 11:04:59 16.8 C 7.72 g/m*3 16.8 C 0 km/h
1735 12-09-2004 11:16:01 16.5 C 7.16 g/m*3 16.5 C 0 km/h
1736 12-09-2004 11:28:01 17.2 C 6.88 g/m*3 17.2 C 0 km/h
1737 12-09-2004 11:40:01 16.8 C 7.01 g/m*3 16.8 C 0 km/h
1738 12-09-2004 11:52:01 18 C 7.07 g/m*3 18 C 0 km/h
1739 12-09-2004 12:04:01 17.9 C 6.87 g/m*3 17.9 C 0 km/h
1740 12-09-2004 12:16:01 17.4 C 6.82 g/m*3 17.4 C 0 km/h
1741 12-09-2004 12:28:01 17.7 C 6.94 g/m*3 17.7 C 0 km/h
1742 12-09-2004 12:40:00 18 C 6.76 g/m*3 18 C 0 km/h
1743 12-09-2004 12:52:00 18.3 C 6.41 g/m*3 18.3 C 0 km/h
1744 12-09-2004 13:04:00 17.9 C 6.57 g/m*3 17.9 C 0 km/h
1745 12-09-2004 13:16:00 18.3 C 6.88 g/m*3 18.3 C 0 km/h
1746 12-09-2004 13:28:00 18.7 C 6.56 g/m*3 18.7 C 0 km/h
1747 12-09-2004 13:40:00 18.9 C 6.8 g/m*3 18.9 C 0 km/h
1748 12-09-2004 13:52:00 18.9 C 6.64 g/m*3 18.9 C 0 km/h
1749 12-09-2004 14:04:01 18.4 C 6.61 g/m*3 18.4 C 0 km/h
1750 12-09-2004 14:16:01 19.2 C 6.27 g/m*3 19.2 C 0 km/h
Sensor: Nr:Datum:Temp:Abs-Feuchte:Windchill:Wind:
Aussen-T/F 1751 12-09-2004 14:28:01 19 C 6.03 g/m*3 19 C 0 km/h
1752 12-09-2004 14:40:01 20.4 C 6.19 g/m*3 20.4 C 0 km/h
1753 12-09-2004 14:52:00 21 C 5.86 g/m*3 21 C 0 km/h
1754 12-09-2004 15:04:00 21.2 C 6.12 g/m*3 21.2 C 0 km/h
1755 12-09-2004 15:16:00 20.8 C 6.16 g/m*3 20.8 C 0 km/h
1756 12-09-2004 15:28:00 20.5 C 6.23 g/m*3 20.5 C 0 km/h
1757 12-09-2004 15:40:01 20.7 C 5.58 g/m*3 20.7 C 0 km/h
1758 12-09-2004 15:52:01 19.7 C 6.11 g/m*3 19.7 C 0 km/h
1759 12-09-2004 16:04:01 19.7 C 6.11 g/m*3 19.7 C 0 km/h
1760 12-09-2004 16:16:01 19.4 C 6.17 g/m*3 19.4 C 0 km/h
1761 12-09-2004 16:28:01 18.8 C 6.44 g/m*3 18.8 C 0 km/h
1762 12-09-2004 16:40:00 18.2 C 6.37 g/m*3 18.2 C 0 km/h
1763 12-09-2004 16:52:00 18 C 6.45 g/m*3 18 C 0 km/h
1764 12-09-2004 17:04:00 18.9 C 7.13 g/m*3 18.9 C 0 km/h
1765 12-09-2004 17:16:00 19.8 C 6.49 g/m*3 19.8 C 0 km/h
1766 12-09-2004 17:28:00 20 C 6.57 g/m*3 20 C 0 km/h
1767 12-09-2004 17:40:00 19.7 C 6.45 g/m*3 19.7 C 0 km/h
1768 12-09-2004 17:52:00 19.9 C 6.7 g/m*3 19.9 C 0 km/h
1769 12-09-2004 18:04:00 19.1 C 6.72 g/m*3 19.1 C 0 km/h
1770 12-09-2004 18:16:00 18.7 C 6.56 g/m*3 18.7 C 0 km/h
1771 12-09-2004 18:28:00 18.4 C 6.76 g/m*3 18.4 C 0 km/h
1772 12-09-2004 18:40:00 18.3 C 7.04 g/m*3 18.3 C 0 km/h
1773 12-09-2004 18:52:00 18.9 C 7.29 g/m*3 18.9 C 0 km/h
1774 12-09-2004 19:04:59 19.2 C 7.42 g/m*3 19.2 C 0 km/h
1775 12-09-2004 19:16:00 18.2 C 7.15 g/m*3 18.2 C 0 km/h
Sensor: Nr:Datum:Temp:Abs-Feuchte:Windchill:Wind:
Aussen-T/F 1776 12-09-2004 19:28:00 17.5 C 7.16 g/m*3 17.5 C 0 km/h
1777 12-09-2004 19:40:00 17 C 7.23 g/m*3 17 C 0 km/h
1778 12-09-2004 19:52:00 16.6 C 7.35 g/m*3 16.6 C 0 km/h
1779 12-09-2004 20:04:00 16.3 C 7.49 g/m*3 16.3 C 0 km/h
1780 12-09-2004 20:16:00 15.8 C 7.81 g/m*3 15.8 C 0 km/h
1781 12-09-2004 20:28:00 15.5 C 7.8 g/m*3 15.5 C 0 km/h
1782 12-09-2004 20:40:00 15.2 C 7.79 g/m*3 15.2 C 0 km/h
1783 12-09-2004 20:52:00 15.1 C 8 g/m*3 15.1 C 0 km/h
1784 12-09-2004 21:04:00 15.1 C 8 g/m*3 15.1 C 0 km/h
1785 12-09-2004 21:16:00 15 C 8.08 g/m*3 15 C 0 km/h
1786 12-09-2004 21:28:00 14.8 C 8.23 g/m*3 14.8 C 0 km/h
1787 12-09-2004 21:40:00 14.8 C 8.23 g/m*3 14.8 C 0 km/h
1788 12-09-2004 21:52:59 14.8 C 8.36 g/m*3 14.8 C 0 km/h
1789 12-09-2004 22:04:59 14.5 C 8.33 g/m*3 14.5 C 0 km/h
1790 12-09-2004 22:16:59 14.4 C 8.41 g/m*3 14.4 C 0 km/h
1791 12-09-2004 22:28:59 14.5 C 8.46 g/m*3 14.5 C 0 km/h
1792 12-09-2004 22:40:59 14.6 C 8.63 g/m*3 14.6 C 0 km/h
1793 12-09-2004 22:51:59 14.6 C 8.63 g/m*3 14.6 C 0 km/h
1794 12-09-2004 23:04:00 14.5 C 8.58 g/m*3 14.5 C 0 km/h
1795 12-09-2004 23:16:00 14.4 C 8.53 g/m*3 14.4 C 0 km/h
1796 12-09-2004 23:28:00 14.2 C 8.55 g/m*3 14.2 C 0 km/h
1797 12-09-2004 23:40:00 14 C 8.44 g/m*3 14 C 0 km/h
1798 12-09-2004 23:52:00 13.9 C 8.51 g/m*3 13.9 C 0 km/h
1799 13-09-2004 00:04:00 13.9 C 8.51 g/m*3 13.9 C 0 km/h
1800 13-09-2004 00:16:00 13.7 C 8.53 g/m*3 13.7 C 0 km/h
Sensor: Nr:Datum:Temp:Abs-Feuchte:Windchill:Wind:
Aussen-T/F 1801 13-09-2004 00:28:00 13.5 C 8.42 g/m*3 13.5 C 0 km/h
1802 13-09-2004 00:40:00 13.3 C 8.2 g/m*3 13.3 C 0 km/h
1803 13-09-2004 00:52:00 13.1 C 8.22 g/m*3 13.1 C 0 km/h
1804 13-09-2004 01:04:59 13 C 8.17 g/m*3 13 C 0 km/h
1805 13-09-2004 01:16:59 13 C 8.17 g/m*3 13 C 0 km/h
1806 13-09-2004 01:28:59 13.1 C 8.22 g/m*3 13.1 C 0 km/h
1807 13-09-2004 01:40:59 13.2 C 8.27 g/m*3 13.2 C 0 km/h
1808 13-09-2004 01:52:59 13.1 C 8.22 g/m*3 13.1 C 0 km/h
1809 13-09-2004 02:04:59 13.1 C 8.22 g/m*3 13.1 C 0 km/h
1810 13-09-2004 02:16:59 13.1 C 8.22 g/m*3 13.1 C 0 km/h
1811 13-09-2004 02:28:59 13.2 C 8.38 g/m*3 13.2 C 0 km/h
1812 13-09-2004 02:40:59 13.2 C 8.27 g/m*3 13.2 C 0 km/h
1813 13-09-2004 02:53:01 13.4 C 8.37 g/m*3 13.4 C 0 km/h
1814 13-09-2004 03:05:01 13.4 C 8.37 g/m*3 13.4 C 0 km/h
1815 13-09-2004 03:17:01 13.2 C 8.27 g/m*3 13.2 C 0 km/h
1816 13-09-2004 03:29:01 13.1 C 8.1 g/m*3 13.1 C 0 km/h
1817 13-09-2004 03:41:00 13 C 8.05 g/m*3 13 C 0 km/h
1818 13-09-2004 03:53:00 12.9 C 8.11 g/m*3 12.9 C 0 km/h
1819 13-09-2004 04:05:00 13 C 8.05 g/m*3 13 C 0 km/h
1820 13-09-2004 04:17:00 13 C 8.05 g/m*3 13 C 0 km/h
1821 13-09-2004 04:29:00 13 C 7.94 g/m*3 13 C 0 km/h
1822 13-09-2004 04:41:00 12.9 C 8.11 g/m*3 12.9 C 0 km/h
1823 13-09-2004 04:53:00 12.9 C 8 g/m*3 12.9 C 0 km/h
1824 13-09-2004 05:05:01 13 C 8.05 g/m*3 13 C 0 km/h
1825 13-09-2004 05:17:01 13 C 8.05 g/m*3 13 C 0 km/h
Sensor: Nr:Datum:Temp:Abs-Feuchte:Windchill:Wind:
Aussen-T/F 1826 13-09-2004 05:29:01 13 C 7.94 g/m*3 13 C 0 km/h
1827 13-09-2004 05:41:01 13.1 C 8.1 g/m*3 13.1 C 0 km/h
1828 13-09-2004 05:53:01 13.1 C 8.1 g/m*3 13.1 C 0 km/h
1829 13-09-2004 06:05:00 13.1 C 8.1 g/m*3 13.1 C 0 km/h
1830 13-09-2004 06:17:00 13.1 C 8.1 g/m*3 13.1 C 0 km/h
1831 13-09-2004 06:29:00 13.1 C 8.1 g/m*3 13.1 C 0 km/h
1832 13-09-2004 06:41:00 13.1 C 8.22 g/m*3 13.1 C 0 km/h
1833 13-09-2004 06:53:00 13.1 C 8.1 g/m*3 13.1 C 0 km/h
1834 13-09-2004 07:05:00 13 C 8.17 g/m*3 13 C 0 km/h
1835 13-09-2004 07:17:00 13 C 8.28 g/m*3 13 C 0 km/h
1836 13-09-2004 07:29:00 13.1 C 8.33 g/m*3 13.1 C 0 km/h
1837 13-09-2004 07:41:00 13.2 C 8.38 g/m*3 13.2 C 0 km/h
1838 13-09-2004 07:53:00 13.3 C 8.32 g/m*3 13.3 C 0 km/h
1839 13-09-2004 08:05:00 13.6 C 8.47 g/m*3 13.6 C 0 km/h
1840 13-09-2004 08:17:00 13.5 C 8.42 g/m*3 13.5 C 0 km/h
1841 13-09-2004 08:29:00 13.7 C 8.53 g/m*3 13.7 C 0 km/h
1842 13-09-2004 08:41:00 14 C 8.68 g/m*3 14 C 0 km/h
1843 13-09-2004 08:53:00 14.5 C 9.08 g/m*3 14.5 C 0 km/h
1844 13-09-2004 09:05:00 14.9 C 8.92 g/m*3 14.9 C 0 km/h
1845 13-09-2004 09:17:00 15.1 C 8.77 g/m*3 15.1 C 0 km/h
1846 13-09-2004 09:29:00 15.2 C 8.96 g/m*3 15.2 C 0 km/h
1847 13-09-2004 09:41:00 15.2 C 9.35 g/m*3 15.2 C 0 km/h
1848 13-09-2004 09:53:00 15.1 C 9.16 g/m*3 15.1 C 0 km/h
1849 13-09-2004 10:05:00 15.1 C 9.03 g/m*3 15.1 C 0 km/h
1850 13-09-2004 10:17:00 15.2 C 9.09 g/m*3 15.2 C 0 km/h
Sensor: Nr:Datum:Temp:Abs-Feuchte:Windchill:Wind:
Aussen-T/F 1851 13-09-2004 10:29:00 15.5 C 9.25 g/m*3 15.5 C 0 km/h
1852 13-09-2004 10:41:00 15.9 C 9.62 g/m*3 15.9 C 0 km/h
1853 13-09-2004 10:53:00 16.2 C 9.1 g/m*3 16.2 C 0 km/h
1854 13-09-2004 11:05:59 17 C 8.83 g/m*3 17 C 0 km/h
1855 13-09-2004 11:17:59 17.4 C 8.89 g/m*3 17.4 C 0 km/h
1856 13-09-2004 11:29:59 18.2 C 8.86 g/m*3 18.2 C 0 km/h
1857 13-09-2004 11:41:59 18.9 C 8.75 g/m*3 18.9 C 0 km/h
1858 13-09-2004 11:53:00 18.9 C 8.75 g/m*3 18.9 C 0 km/h
1859 13-09-2004 12:05:00 19.1 C 8.69 g/m*3 19.1 C 0 km/h
1860 13-09-2004 12:17:00 19.3 C 8.79 g/m*3 19.3 C 0 km/h
1861 13-09-2004 12:29:00 19.5 C 9.06 g/m*3 19.5 C 0 km/h
1862 13-09-2004 12:41:00 19.2 C 8.57 g/m*3 19.2 C 0 km/h
1863 13-09-2004 12:53:00 18.9 C 8.91 g/m*3 18.9 C 0 km/h
1864 13-09-2004 13:05:00 18.6 C 8.91 g/m*3 18.6 C 0 km/h
1865 13-09-2004 13:17:00 18.6 C 8.59 g/m*3 18.6 C 0 km/h
1866 13-09-2004 13:29:00 18.5 C 8.7 g/m*3 18.5 C 0 km/h
1867 13-09-2004 13:41:59 18.5 C 8.7 g/m*3 18.5 C 0 km/h
1868 13-09-2004 13:53:59 18.8 C 8.86 g/m*3 18.8 C 0 km/h
1869 13-09-2004 14:05:59 19.2 C 9.07 g/m*3 19.2 C 0 km/h
1870 13-09-2004 14:17:59 19.3 C 9.12 g/m*3 19.3 C 0 km/h
1871 13-09-2004 14:29:59 19.5 C 8.56 g/m*3 19.5 C 0 km/h
1872 13-09-2004 14:41:59 20.1 C 8.52 g/m*3 20.1 C 0 km/h
1873 13-09-2004 14:53:59 20.9 C 8.56 g/m*3 20.9 C 0 km/h
1874 13-09-2004 15:04:59 21.6 C 8.53 g/m*3 21.6 C 0 km/h
1875 13-09-2004 15:17:00 22.2 C 8.64 g/m*3 22.2 C 0 km/h
Sensor: Nr:Datum:Temp:Abs-Feuchte:Windchill:Wind:
Aussen-T/F 1876 13-09-2004 15:29:00 22.1 C 8.59 g/m*3 22.1 C 0 km/h
1877 13-09-2004 15:41:00 22.2 C 8.83 g/m*3 22.2 C 0 km/h
1878 13-09-2004 15:53:00 21.7 C 8.58 g/m*3 21.7 C 0 km/h
1879 13-09-2004 16:05:59 22.3 C 8.89 g/m*3 22.3 C 0 km/h
1880 13-09-2004 16:17:59 23 C 8.43 g/m*3 23 C 0 km/h
1881 13-09-2004 16:29:59 22.6 C 8.04 g/m*3 22.6 C 0 km/h
1882 13-09-2004 16:41:59 22.6 C 8.04 g/m*3 22.6 C 0 km/h
1883 13-09-2004 16:53:59 22.4 C 7.75 g/m*3 22.4 C 0 km/h
1884 13-09-2004 17:05:59 22.9 C 8.17 g/m*3 22.9 C 0 km/h
1885 13-09-2004 17:17:59 22.8 C 8.33 g/m*3 22.8 C 0 km/h
1886 13-09-2004 17:29:59 22.1 C 8.2 g/m*3 22.1 C 0 km/h
1887 13-09-2004 17:41:59 21.6 C 8.53 g/m*3 21.6 C 0 km/h
1888 13-09-2004 17:53:59 21.6 C 8.72 g/m*3 21.6 C 0 km/h
1889 13-09-2004 18:05:59 22.5 C 9.19 g/m*3 22.5 C 0 km/h
1890 13-09-2004 18:17:59 23.1 C 8.68 g/m*3 23.1 C 0 km/h
1891 13-09-2004 18:28:59 22.8 C 9.14 g/m*3 22.8 C 0 km/h
1892 13-09-2004 18:41:59 22.8 C 9.35 g/m*3 22.8 C 0 km/h
1893 13-09-2004 18:53:59 22.2 C 9.23 g/m*3 22.2 C 0 km/h
1894 13-09-2004 19:05:00 21.9 C 9.84 g/m*3 21.9 C 0 km/h
1895 13-09-2004 19:17:59 21.6 C 9.67 g/m*3 21.6 C 0 km/h
1896 13-09-2004 19:29:59 21.1 C 9.4 g/m*3 21.1 C 0 km/h
1897 13-09-2004 19:41:59 20.7 C 9.54 g/m*3 20.7 C 0 km/h
1898 13-09-2004 19:53:59 20.3 C 9.67 g/m*3 20.3 C 0 km/h
1899 13-09-2004 20:05:59 20 C 9.51 g/m*3 20 C 0 km/h
1900 13-09-2004 20:17:59 19.7 C 9.51 g/m*3 19.7 C 0 km/h
Sensor: Nr:Datum:Temp:Abs-Feuchte:Windchill:Wind:
Aussen-T/F 1901 13-09-2004 20:29:59 19.4 C 9.34 g/m*3 19.4 C 0 km/h
1902 13-09-2004 20:41:59 19.1 C 9.51 g/m*3 19.1 C 0 km/h
1903 13-09-2004 20:53:59 18.9 C 9.72 g/m*3 18.9 C 0 km/h
1904 13-09-2004 21:04:59 18.8 C 9.82 g/m*3 18.8 C 0 km/h
1905 13-09-2004 21:17:58 18.8 C 9.66 g/m*3 18.8 C 0 km/h
1906 13-09-2004 21:29:58 18.7 C 9.77 g/m*3 18.7 C 0 km/h
1907 13-09-2004 21:41:58 18.5 C 9.97 g/m*3 18.5 C 0 km/h
1908 13-09-2004 21:53:58 18.5 C 10.13 g/m*3 18.5 C 0 km/h
1909 13-09-2004 22:05:58 18.5 C 10.13 g/m*3 18.5 C 0 km/h
1910 13-09-2004 22:17:59 18.5 C 10.13 g/m*3 18.5 C 0 km/h
1911 13-09-2004 22:29:59 18.5 C 10.13 g/m*3 18.5 C 0 km/h
1912 13-09-2004 22:41:59 18.4 C 10.07 g/m*3 18.4 C 0 km/h
1913 13-09-2004 22:53:59 18.3 C 10.32 g/m*3 18.3 C 0 km/h
1914 13-09-2004 23:05:59 17.8 C 8.65 g/m*3 17.8 C 0 km/h
1915 13-09-2004 23:17:59 17.4 C 8.15 g/m*3 17.4 C 0 km/h
1916 13-09-2004 23:29:59 17.2 C 8.05 g/m*3 17.2 C 0 km/h
1917 13-09-2004 23:41:59 17.1 C 8.3 g/m*3 17.1 C 0 km/h
1918 13-09-2004 23:53:58 16.9 C 8.34 g/m*3 16.9 C 0 km/h
1919 14-09-2004 00:05:58 16.8 C 8.58 g/m*3 16.8 C 0 km/h
1920 14-09-2004 00:17:59 16.6 C 8.33 g/m*3 16.6 C 0 km/h
1921 14-09-2004 00:29:59 16.5 C 8.43 g/m*3 16.5 C 0 km/h
1922 14-09-2004 00:41:58 16.4 C 8.37 g/m*3 16.4 C 0 km/h
1923 14-09-2004 00:53:58 16.2 C 8.27 g/m*3 16.2 C 0 km/h
1924 14-09-2004 01:05:58 16.1 C 8.36 g/m*3 16.1 C 0 km/h
1925 14-09-2004 01:17:59 16.1 C 8.5 g/m*3 16.1 C 0 km/h
Sensor: Nr:Datum:Temp:Abs-Feuchte:Windchill:Wind:
Aussen-T/F 1926 14-09-2004 01:29:59 16.1 C 8.36 g/m*3 16.1 C 0 km/h
1927 14-09-2004 01:41:59 16.2 C 8.69 g/m*3 16.2 C 0 km/h
1928 14-09-2004 01:53:59 16.1 C 8.77 g/m*3 16.1 C 0 km/h
1929 14-09-2004 02:05:58 16 C 8.72 g/m*3 16 C 0 km/h
1930 14-09-2004 02:17:58 16 C 9.13 g/m*3 16 C 0 km/h
1931 14-09-2004 02:29:58 15.9 C 9.48 g/m*3 15.9 C 0 km/h
1932 14-09-2004 02:41:58 15.8 C 9.15 g/m*3 15.8 C 0 km/h
1933 14-09-2004 02:54:00 15.7 C 9.23 g/m*3 15.7 C 0 km/h
1934 14-09-2004 03:06:00 15.6 C 9.31 g/m*3 15.6 C 0 km/h
1935 14-09-2004 03:18:00 15.3 C 9.27 g/m*3 15.3 C 0 km/h
1936 14-09-2004 03:30:00 15.2 C 9.22 g/m*3 15.2 C 0 km/h
1937 14-09-2004 03:42:00 15.2 C 9.22 g/m*3 15.2 C 0 km/h
1938 14-09-2004 03:54:00 15.1 C 9.16 g/m*3 15.1 C 0 km/h
1939 14-09-2004 04:06:00 15.2 C 9.48 g/m*3 15.2 C 0 km/h
1940 14-09-2004 04:18:00 15.9 C 9.48 g/m*3 15.9 C 0 km/h
1941 14-09-2004 04:30:00 16 C 9.26 g/m*3 16 C 0 km/h
1942 14-09-2004 04:42:59 16 C 9.13 g/m*3 16 C 0 km/h
1943 14-09-2004 04:54:59 16 C 9.13 g/m*3 16 C 0 km/h
1944 14-09-2004 05:06:59 15.6 C 9.18 g/m*3 15.6 C 0 km/h
1945 14-09-2004 05:18:59 15.3 C 9.14 g/m*3 15.3 C 0 km/h
1946 14-09-2004 05:30:59 15 C 9.1 g/m*3 15 C 0 km/h
1947 14-09-2004 05:42:59 14.8 C 9.12 g/m*3 14.8 C 0 km/h
1948 14-09-2004 05:54:59 14.4 C 9.02 g/m*3 14.4 C 0 km/h
1949 14-09-2004 06:05:59 14.1 C 8.98 g/m*3 14.1 C 0 km/h
1950 14-09-2004 06:30:00 13.8 C 9.06 g/m*3 13.8 C 0 km/h
Sensor: Nr:Datum:Temp:Abs-Feuchte:Windchill:Wind:
Aussen-T/F 1951 14-09-2004 06:42:00 13.7 C 9 g/m*3 13.7 C 0 km/h
1952 14-09-2004 06:54:59 13.7 C 9.12 g/m*3 13.7 C 0 km/h
1953 14-09-2004 07:06:59 14 C 9.17 g/m*3 14 C 0 km/h
1954 14-09-2004 07:18:59 13.9 C 9.23 g/m*3 13.9 C 0 km/h
1955 14-09-2004 07:30:59 14 C 9.29 g/m*3 14 C 0 km/h
1956 14-09-2004 07:42:59 14 C 9.17 g/m*3 14 C 0 km/h
1957 14-09-2004 07:54:01 14.1 C 9.34 g/m*3 14.1 C 0 km/h
1958 14-09-2004 08:06:02 14 C 9.29 g/m*3 14 C 0 km/h
1959 14-09-2004 08:18:04 14.2 C 9.52 g/m*3 14.2 C 0 km/h
1960 14-09-2004 08:30:04 14.1 C 9.34 g/m*3 14.1 C 0 km/h
1961 14-09-2004 08:42:05 14.4 C 9.52 g/m*3 14.4 C 0 km/h
1962 14-09-2004 08:54:01 15 C 9.23 g/m*3 15 C 0 km/h
1963 14-09-2004 09:06:01 15.2 C 9.09 g/m*3 15.2 C 0 km/h
1964 14-09-2004 09:18:01 15.4 C 9.07 g/m*3 15.4 C 0 km/h
1965 14-09-2004 09:30:01 15.6 C 8.91 g/m*3 15.6 C 0 km/h
1966 14-09-2004 09:42:01 15.9 C 8.94 g/m*3 15.9 C 0 km/h
1967 14-09-2004 09:54:02 16 C 8.72 g/m*3 16 C 0 km/h
1968 14-09-2004 10:06:02 16.2 C 8.55 g/m*3 16.2 C 0 km/h
1969 14-09-2004 10:18:02 16.4 C 7.96 g/m*3 16.4 C 0 km/h
1970 14-09-2004 10:30:02 16.6 C 8.33 g/m*3 16.6 C 0 km/h
1971 14-09-2004 10:42:02 16.5 C 8.14 g/m*3 16.5 C 0 km/h
1972 14-09-2004 10:54:01 16.8 C 8.01 g/m*3 16.8 C 0 km/h
1973 14-09-2004 11:06:01 16.2 C 7.72 g/m*3 16.2 C 0 km/h
1974 14-09-2004 11:18:01 16.9 C 7.91 g/m*3 16.9 C 0 km/h
1975 14-09-2004 11:30:01 17 C 7.81 g/m*3 17 C 0 km/h
Sensor: Nr:Datum:Temp:Abs-Feuchte:Windchill:Wind:
Aussen-T/F 1976 14-09-2004 11:42:01 17.6 C 7.8 g/m*3 17.6 C 0 km/h
1977 14-09-2004 11:54:01 18.4 C 7.55 g/m*3 18.4 C 0 km/h
1978 14-09-2004 12:06:01 18.1 C 7.42 g/m*3 18.1 C 0 km/h
1979 14-09-2004 12:18:01 18.4 C 7.39 g/m*3 18.4 C 0 km/h
1980 14-09-2004 12:30:01 18.7 C 7.2 g/m*3 18.7 C 0 km/h
1981 14-09-2004 12:42:01 19.2 C 7.42 g/m*3 19.2 C 0 km/h
1982 14-09-2004 12:54:01 19.7 C 7.3 g/m*3 19.7 C 0 km/h
1983 14-09-2004 13:06:02 20.1 C 6.95 g/m*3 20.1 C 0 km/h
1984 14-09-2004 13:18:02 20.6 C 6.8 g/m*3 20.6 C 0 km/h
1985 14-09-2004 13:30:02 21.1 C 6.63 g/m*3 21.1 C 0 km/h
1986 14-09-2004 13:42:02 21.2 C 7.04 g/m*3 21.2 C 0 km/h
1987 14-09-2004 13:54:01 21.1 C 6.82 g/m*3 21.1 C 0 km/h
1988 14-09-2004 14:06:01 21.5 C 6.79 g/m*3 21.5 C 0 km/h
1989 14-09-2004 14:18:01 21.4 C 6.56 g/m*3 21.4 C 0 km/h
1990 14-09-2004 14:30:01 21.5 C 6.98 g/m*3 21.5 C 0 km/h
1991 14-09-2004 14:42:01 20.9 C 6.92 g/m*3 20.9 C 0 km/h
1992 14-09-2004 14:54:01 21.1 C 6.82 g/m*3 21.1 C 0 km/h
1993 14-09-2004 15:06:01 20.8 C 7.06 g/m*3 20.8 C 0 km/h
1994 14-09-2004 15:18:01 21.2 C 7.23 g/m*3 21.2 C 0 km/h
1995 14-09-2004 15:30:01 21.6 C 7.4 g/m*3 21.6 C 0 km/h
1996 14-09-2004 15:42:01 22.2 C 7.07 g/m*3 22.2 C 0 km/h
1997 14-09-2004 15:54:01 21.5 C 6.98 g/m*3 21.5 C 0 km/h
1998 14-09-2004 16:06:01 22 C 6.79 g/m*3 22 C 0 km/h
1999 14-09-2004 16:18:02 21.8 C 6.91 g/m*3 21.8 C 0 km/h
2000 14-09-2004 16:30:02 21.8 C 7.1 g/m*3 21.8 C 0 km/h
Sensor: Nr:Datum:Temp:Abs-Feuchte:Windchill:Wind:
Aussen-T/F 2001 14-09-2004 16:42:02 21.3 C 6.9 g/m*3 21.3 C 0 km/h
2002 14-09-2004 16:54:01 21 C 6.78 g/m*3 21 C 0 km/h
2003 14-09-2004 17:06:01 21.7 C 7.06 g/m*3 21.7 C 0 km/h
2004 14-09-2004 17:18:01 22 C 6.99 g/m*3 22 C 0 km/h
2005 14-09-2004 17:30:01 21.9 C 7.14 g/m*3 21.9 C 0 km/h
2006 14-09-2004 17:42:01 20.8 C 6.88 g/m*3 20.8 C 0 km/h
2007 14-09-2004 17:54:01 20.5 C 7.12 g/m*3 20.5 C 0 km/h
2008 14-09-2004 18:06:01 20.2 C 6.99 g/m*3 20.2 C 0 km/h
2009 14-09-2004 18:18:01 20.1 C 7.13 g/m*3 20.1 C 0 km/h
2010 14-09-2004 18:30:01 20.1 C 7.3 g/m*3 20.1 C 0 km/h
2011 14-09-2004 18:42:00 20 C 7.26 g/m*3 20 C 0 km/h
2012 14-09-2004 18:54:01 19.9 C 7.39 g/m*3 19.9 C 0 km/h
2013 14-09-2004 19:06:01 20.4 C 7.43 g/m*3 20.4 C 0 km/h
2014 14-09-2004 19:18:02 20.8 C 7.6 g/m*3 20.8 C 0 km/h
2015 14-09-2004 19:30:02 20.2 C 7.52 g/m*3 20.2 C 0 km/h
2016 14-09-2004 19:42:02 19.5 C 7.55 g/m*3 19.5 C 0 km/h
2017 14-09-2004 19:54:02 19.1 C 7.38 g/m*3 19.1 C 0 km/h
2018 14-09-2004 20:06:03 18.7 C 7.68 g/m*3 18.7 C 0 km/h
2019 14-09-2004 20:18:02 18.6 C 7.8 g/m*3 18.6 C 0 km/h
2020 14-09-2004 20:30:02 18.1 C 7.88 g/m*3 18.1 C 0 km/h
2021 14-09-2004 20:42:02 18.3 C 8.29 g/m*3 18.3 C 0 km/h
2022 14-09-2004 20:54:01 18.1 C 8.03 g/m*3 18.1 C 0 km/h
2023 14-09-2004 21:06:01 17.7 C 8.3 g/m*3 17.7 C 0 km/h
2024 14-09-2004 21:18:01 17.5 C 8.2 g/m*3 17.5 C 0 km/h
2025 14-09-2004 21:30:01 17.2 C 8.49 g/m*3 17.2 C 0 km/h
Sensor: Nr:Datum:Temp:Abs-Feuchte:Windchill:Wind:
Aussen-T/F 2026 14-09-2004 21:42:01 16.9 C 8.63 g/m*3 16.9 C 0 km/h
2027 14-09-2004 21:54:01 16.7 C 8.67 g/m*3 16.7 C 0 km/h
2028 14-09-2004 22:06:01 16.5 C 8.71 g/m*3 16.5 C 0 km/h
2029 14-09-2004 22:18:01 16.4 C 8.65 g/m*3 16.4 C 0 km/h
2030 14-09-2004 22:30:01 16.2 C 8.55 g/m*3 16.2 C 0 km/h
2031 14-09-2004 22:42:01 15.9 C 8.67 g/m*3 15.9 C 0 km/h
2032 14-09-2004 22:54:01 15.8 C 8.75 g/m*3 15.8 C 0 km/h
2033 14-09-2004 23:06:01 15.5 C 8.72 g/m*3 15.5 C 0 km/h
2034 14-09-2004 23:18:01 15.2 C 8.83 g/m*3 15.2 C 0 km/h
2035 14-09-2004 23:30:01 14.9 C 8.92 g/m*3 14.9 C 0 km/h
2036 14-09-2004 23:42:02 14.6 C 8.88 g/m*3 14.6 C 0 km/h
2037 14-09-2004 23:54:01 14.5 C 8.95 g/m*3 14.5 C 0 km/h
2038 15-09-2004 00:06:01 14.4 C 9.02 g/m*3 14.4 C 0 km/h
2039 15-09-2004 00:18:00 14.3 C 8.97 g/m*3 14.3 C 0 km/h
2040 15-09-2004 00:30:00 14.4 C 9.02 g/m*3 14.4 C 0 km/h
2041 15-09-2004 00:42:00 14 C 8.93 g/m*3 14 C 0 km/h
2042 15-09-2004 00:54:01 13.9 C 9.11 g/m*3 13.9 C 0 km/h
2043 15-09-2004 01:06:01 13.9 C 9.11 g/m*3 13.9 C 0 km/h
2044 15-09-2004 01:18:01 13.6 C 8.94 g/m*3 13.6 C 0 km/h
2045 15-09-2004 01:30:01 13.4 C 8.95 g/m*3 13.4 C 0 km/h
2046 15-09-2004 01:42:01 13.3 C 9.01 g/m*3 13.3 C 0 km/h
2047 15-09-2004 01:54:01 13.2 C 9.07 g/m*3 13.2 C 0 km/h
2048 15-09-2004 02:06:02 13 C 8.96 g/m*3 13 C 0 km/h
2049 15-09-2004 02:18:02 13.2 C 9.07 g/m*3 13.2 C 0 km/h
2050 15-09-2004 02:30:02 13.3 C 9.13 g/m*3 13.3 C 0 km/h
Sensor: Nr:Datum:Temp:Abs-Feuchte:Windchill:Wind:
Aussen-T/F 2051 15-09-2004 02:42:02 12.8 C 8.96 g/m*3 12.8 C 0 km/h
2052 15-09-2004 02:54:01 12.7 C 9.02 g/m*3 12.7 C 0 km/h
2053 15-09-2004 03:06:01 12.7 C 9.13 g/m*3 12.7 C 0 km/h
2054 15-09-2004 03:18:01 12.6 C 9.07 g/m*3 12.6 C 0 km/h
2055 15-09-2004 03:30:01 12.5 C 9.02 g/m*3 12.5 C 0 km/h
2056 15-09-2004 03:42:00 12.5 C 9.13 g/m*3 12.5 C 0 km/h
2057 15-09-2004 03:54:00 12.3 C 9.01 g/m*3 12.3 C 0 km/h
2058 15-09-2004 04:06:00 12.1 C 8.9 g/m*3 12.1 C 0 km/h
2059 15-09-2004 04:18:00 12 C 8.85 g/m*3 12 C 0 km/h
2060 15-09-2004 04:30:00 11.8 C 8.95 g/m*3 11.8 C 0 km/h
2061 15-09-2004 04:42:00 11.7 C 8.89 g/m*3 11.7 C 0 km/h
2062 15-09-2004 04:54:00 11.7 C 8.99 g/m*3 11.7 C 0 km/h
2063 15-09-2004 05:06:00 11.8 C 8.95 g/m*3 11.8 C 0 km/h
2064 15-09-2004 05:18:00 11.9 C 9 g/m*3 11.9 C 0 km/h
2065 15-09-2004 05:30:00 11.7 C 8.89 g/m*3 11.7 C 0 km/h
2066 15-09-2004 05:42:01 11.5 C 8.88 g/m*3 11.5 C 0 km/h
2067 15-09-2004 05:54:01 11.5 C 8.99 g/m*3 11.5 C 0 km/h
2068 15-09-2004 06:06:01 11.5 C 8.99 g/m*3 11.5 C 0 km/h
2069 15-09-2004 06:18:01 11.6 C 8.94 g/m*3 11.6 C 0 km/h
2070 15-09-2004 06:30:01 11.6 C 8.83 g/m*3 11.6 C 0 km/h
2071 15-09-2004 06:42:01 11.5 C 8.78 g/m*3 11.5 C 0 km/h
2072 15-09-2004 06:54:01 11.7 C 8.89 g/m*3 11.7 C 0 km/h
2073 15-09-2004 07:06:00 11.8 C 8.84 g/m*3 11.8 C 0 km/h
2074 15-09-2004 07:18:00 12 C 8.74 g/m*3 12 C 0 km/h
2075 15-09-2004 07:30:00 12.2 C 8.63 g/m*3 12.2 C 0 km/h
Sensor: Nr:Datum:Temp:Abs-Feuchte:Windchill:Wind:
Aussen-T/F 2076 15-09-2004 07:42:00 12.4 C 8.63 g/m*3 12.4 C 0 km/h
2077 15-09-2004 07:54:00 12.4 C 8.63 g/m*3 12.4 C 0 km/h
2078 15-09-2004 08:06:00 12.4 C 8.63 g/m*3 12.4 C 0 km/h
2079 15-09-2004 08:18:00 12.6 C 8.63 g/m*3 12.6 C 0 km/h
2080 15-09-2004 08:30:00 12.8 C 8.51 g/m*3 12.8 C 0 km/h
2081 15-09-2004 08:42:00 13 C 8.39 g/m*3 13 C 0 km/h
2082 15-09-2004 08:54:00 13.5 C 8.54 g/m*3 13.5 C 0 km/h
2083 15-09-2004 09:06:00 13.5 C 8.42 g/m*3 13.5 C 0 km/h
2084 15-09-2004 09:18:01 13.5 C 8.54 g/m*3 13.5 C 0 km/h
2085 15-09-2004 09:30:01 13.8 C 8.7 g/m*3 13.8 C 0 km/h
2086 15-09-2004 09:42:01 14.2 C 8.55 g/m*3 14.2 C 0 km/h
2087 15-09-2004 09:54:01 14.2 C 8.43 g/m*3 14.2 C 0 km/h
2088 15-09-2004 10:06:01 14.4 C 8.28 g/m*3 14.4 C 0 km/h
2089 15-09-2004 10:18:00 14.6 C 8.38 g/m*3 14.6 C 0 km/h
2090 15-09-2004 10:30:00 14.5 C 8.33 g/m*3 14.5 C 0 km/h
2091 15-09-2004 10:42:00 14.7 C 8.31 g/m*3 14.7 C 0 km/h
2092 15-09-2004 10:54:00 15.2 C 8.31 g/m*3 15.2 C 0 km/h
2093 15-09-2004 11:06:00 15.8 C 8.08 g/m*3 15.8 C 0 km/h
2094 15-09-2004 11:18:00 16.2 C 8.14 g/m*3 16.2 C 0 km/h
2095 15-09-2004 11:30:00 16.4 C 8.1 g/m*3 16.4 C 0 km/h
2096 15-09-2004 11:42:00 16.7 C 8.1 g/m*3 16.7 C 0 km/h
2097 15-09-2004 11:54:00 16.8 C 8.15 g/m*3 16.8 C 0 km/h
2098 15-09-2004 12:06:00 15.4 C 8.93 g/m*3 15.4 C 0 km/h
2099 15-09-2004 12:18:00 14.6 C 9.51 g/m*3 14.6 C 0 km/h
2100 15-09-2004 12:30:00 14.9 C 9.81 g/m*3 14.9 C 0 km/h
Sensor: Nr:Datum:Temp:Abs-Feuchte:Windchill:Wind:
Aussen-T/F 2101 15-09-2004 12:42:01 15.6 C 9.58 g/m*3 15.6 C 0 km/h
2102 15-09-2004 12:54:01 16.2 C 9.24 g/m*3 16.2 C 0 km/h
2103 15-09-2004 13:06:01 16.6 C 9.04 g/m*3 16.6 C 0 km/h
2104 15-09-2004 13:18:01 16.8 C 8.72 g/m*3 16.8 C 0 km/h
2105 15-09-2004 13:30:01 16.8 C 8.29 g/m*3 16.8 C 0 km/h
2106 15-09-2004 13:42:01 16.8 C 8.29 g/m*3 16.8 C 0 km/h
2107 15-09-2004 13:54:00 17 C 7.96 g/m*3 17 C 0 km/h
2108 15-09-2004 14:06:00 17.2 C 8.05 g/m*3 17.2 C 0 km/h
2109 15-09-2004 14:18:00 17.5 C 8.35 g/m*3 17.5 C 0 km/h
2110 15-09-2004 14:30:00 17.5 C 8.2 g/m*3 17.5 C 0 km/h
2111 15-09-2004 14:42:00 17.5 C 6.71 g/m*3 17.5 C 0 km/h
2112 15-09-2004 14:54:00 17 C 6.66 g/m*3 17 C 0 km/h
2113 15-09-2004 15:06:00 18 C 6.6 g/m*3 18 C 0 km/h
2114 15-09-2004 15:18:00 19.1 C 6.07 g/m*3 19.1 C 0 km/h
2115 15-09-2004 15:30:00 19.6 C 5.74 g/m*3 19.6 C 0 km/h
2116 15-09-2004 15:42:00 19.8 C 5.12 g/m*3 19.8 C 0 km/h
2117 15-09-2004 15:54:01 19.3 C 5.14 g/m*3 19.3 C 0 km/h
2118 15-09-2004 16:06:01 19.9 C 5.33 g/m*3 19.9 C 0 km/h
2119 15-09-2004 16:18:01 19.8 C 5.3 g/m*3 19.8 C 0 km/h
2120 15-09-2004 16:30:01 19.4 C 5.34 g/m*3 19.4 C 0 km/h
2121 15-09-2004 16:42:01 19.7 C 5.43 g/m*3 19.7 C 0 km/h
2122 15-09-2004 16:54:00 20.3 C 5.63 g/m*3 20.3 C 0 km/h
2123 15-09-2004 17:06:00 20 C 5.7 g/m*3 20 C 0 km/h
2124 15-09-2004 17:18:00 20.3 C 5.8 g/m*3 20.3 C 0 km/h
2125 15-09-2004 17:30:00 19.2 C 6.1 g/m*3 19.2 C 0 km/h
Sensor: Nr:Datum:Temp:Abs-Feuchte:Windchill:Wind:
Aussen-T/F 2126 15-09-2004 17:42:00 17.9 C 6.87 g/m*3 17.9 C 0 km/h
2127 15-09-2004 17:54:00 18.2 C 6.99 g/m*3 18.2 C 0 km/h
2128 15-09-2004 18:06:00 18.6 C 6.53 g/m*3 18.6 C 0 km/h
2129 15-09-2004 18:18:00 18.5 C 6.49 g/m*3 18.5 C 0 km/h
2130 15-09-2004 18:30:00 18.6 C 6.68 g/m*3 18.6 C 0 km/h
2131 15-09-2004 18:42:00 17.4 C 6.67 g/m*3 17.4 C 0 km/h
2132 15-09-2004 18:54:00 16.6 C 6.64 g/m*3 16.6 C 0 km/h
2133 15-09-2004 19:06:01 16.8 C 6.72 g/m*3 16.8 C 0 km/h
2134 15-09-2004 19:18:01 17.1 C 6.84 g/m*3 17.1 C 0 km/h
2135 15-09-2004 19:30:01 16.3 C 6.8 g/m*3 16.3 C 0 km/h
2136 15-09-2004 19:42:01 15.5 C 6.74 g/m*3 15.5 C 0 km/h
2137 15-09-2004 19:54:01 15.1 C 6.58 g/m*3 15.1 C 0 km/h
2138 15-09-2004 20:06:01 14.7 C 6.92 g/m*3 14.7 C 0 km/h
2139 15-09-2004 20:18:00 14.1 C 6.92 g/m*3 14.1 C 0 km/h
2140 15-09-2004 20:30:00 13.8 C 7.03 g/m*3 13.8 C 0 km/h
2141 15-09-2004 20:42:00 13.7 C 7.1 g/m*3 13.7 C 0 km/h
2142 15-09-2004 20:54:00 13.5 C 7.13 g/m*3 13.5 C 0 km/h
2143 15-09-2004 21:06:00 13.2 C 7.23 g/m*3 13.2 C 0 km/h
2144 15-09-2004 21:18:00 13 C 7.14 g/m*3 13 C 0 km/h
2145 15-09-2004 21:30:00 12.7 C 7.35 g/m*3 12.7 C 0 km/h
2146 15-09-2004 21:42:00 12.5 C 7.37 g/m*3 12.5 C 0 km/h
2147 15-09-2004 21:54:00 12.3 C 7.38 g/m*3 12.3 C 0 km/h
2148 15-09-2004 22:06:00 12 C 7.35 g/m*3 12 C 0 km/h
2149 15-09-2004 22:18:00 11.9 C 7.52 g/m*3 11.9 C 0 km/h
2150 15-09-2004 22:30:01 11.7 C 7.64 g/m*3 11.7 C 0 km/h
Sensor: Nr:Datum:Temp:Abs-Feuchte:Windchill:Wind:
Aussen-T/F 2151 15-09-2004 22:42:01 11.4 C 7.29 g/m*3 11.4 C 0 km/h
2152 15-09-2004 22:54:01 11.2 C 7.4 g/m*3 11.2 C 0 km/h
2153 15-09-2004 23:06:01 11.1 C 7.35 g/m*3 11.1 C 0 km/h
2154 15-09-2004 23:18:01 10.9 C 7.36 g/m*3 10.9 C 0 km/h
2155 15-09-2004 23:30:01 10.8 C 7.41 g/m*3 10.8 C 0 km/h
2156 15-09-2004 23:42:00 10.6 C 7.42 g/m*3 10.6 C 0 km/h
2157 15-09-2004 23:54:00 10.5 C 7.37 g/m*3 10.5 C 0 km/h
2158 16-09-2004 00:06:00 10.3 C 7.37 g/m*3 10.3 C 0 km/h
2159 16-09-2004 00:18:01 10.2 C 7.42 g/m*3 10.2 C 0 km/h
2160 16-09-2004 00:30:01 9.8 C 7.42 g/m*3 9.8 C 0 km/h
2161 16-09-2004 00:42:01 9.8 C 7.52 g/m*3 9.8 C 0 km/h
2162 16-09-2004 00:54:01 9.5 C 7.37 g/m*3 9.5 C 0 km/h
2163 16-09-2004 01:06:00 9.5 C 7.46 g/m*3 9.5 C 0 km/h
2164 16-09-2004 01:18:00 9.5 C 7.46 g/m*3 9.5 C 0 km/h
2165 16-09-2004 01:30:00 9.7 C 7.47 g/m*3 9.7 C 0 km/h
2166 16-09-2004 01:42:00 10 C 7.42 g/m*3 10 C 0 km/h
2167 16-09-2004 01:54:00 9.8 C 7.42 g/m*3 9.8 C 0 km/h
2168 16-09-2004 02:06:00 9.6 C 7.42 g/m*3 9.6 C 0 km/h
2169 16-09-2004 02:18:00 9.5 C 7.37 g/m*3 9.5 C 0 km/h
2170 16-09-2004 02:30:00 9.5 C 7.37 g/m*3 9.5 C 0 km/h
2171 16-09-2004 02:42:00 9.1 C 7.28 g/m*3 9.1 C 0 km/h
2172 16-09-2004 02:55:03 8.8 C 7.31 g/m*3 8.8 C 0 km/h
2173 16-09-2004 03:07:03 8.6 C 7.3 g/m*3 8.6 C 0 km/h
2174 16-09-2004 03:19:04 8.5 C 7.34 g/m*3 8.5 C 0 km/h
2175 16-09-2004 03:31:01 8.4 C 7.3 g/m*3 8.4 C 0 km/h
Sensor: Nr:Datum:Temp:Abs-Feuchte:Windchill:Wind:
Aussen-T/F 2176 16-09-2004 03:43:01 8.2 C 7.29 g/m*3 8.2 C 0 km/h
2177 16-09-2004 03:55:01 8.1 C 7.24 g/m*3 8.1 C 0 km/h
2178 16-09-2004 04:07:01 8 C 7.19 g/m*3 8 C 0 km/h
2179 16-09-2004 04:19:01 8 C 7.28 g/m*3 8 C 0 km/h
2180 16-09-2004 04:31:00 7.9 C 7.31 g/m*3 7.9 C 0 km/h
2181 16-09-2004 04:43:00 7.7 C 7.22 g/m*3 7.7 C 0 km/h
2182 16-09-2004 04:55:01 7.6 C 7.17 g/m*3 7.6 C 0 km/h
2183 16-09-2004 05:07:01 7.6 C 7.25 g/m*3 7.6 C 0 km/h
2184 16-09-2004 05:19:01 7.4 C 7.16 g/m*3 7.4 C 0 km/h
2185 16-09-2004 05:31:00 7.2 C 7.06 g/m*3 7.2 C 0 km/h
2186 16-09-2004 05:43:00 7.1 C 7.02 g/m*3 7.1 C 0 km/h
2187 16-09-2004 05:55:01 7.2 C 7.06 g/m*3 7.2 C 0 km/h
2188 16-09-2004 06:07:01 7 C 7.05 g/m*3 7 C 0 km/h
2189 16-09-2004 06:19:00 6.9 C 7.01 g/m*3 6.9 C 0 km/h
2190 16-09-2004 06:31:00 6.9 C 7.01 g/m*3 6.9 C 0 km/h
2191 16-09-2004 06:43:00 6.8 C 6.96 g/m*3 6.8 C 0 km/h
2192 16-09-2004 06:55:02 6.8 C 6.96 g/m*3 6.8 C 0 km/h
2193 16-09-2004 07:07:02 6.7 C 6.91 g/m*3 6.7 C 0 km/h
2194 16-09-2004 07:19:02 6.4 C 6.85 g/m*3 6.4 C 0 km/h
2195 16-09-2004 07:31:01 6.4 C 6.85 g/m*3 6.4 C 0 km/h
2196 16-09-2004 07:43:01 6.4 C 6.85 g/m*3 6.4 C 0 km/h
2197 16-09-2004 07:55:01 6.5 C 6.9 g/m*3 6.5 C 0 km/h
2198 16-09-2004 08:07:01 6.7 C 7.07 g/m*3 6.7 C 0 km/h
2199 16-09-2004 08:19:01 6.8 C 7.11 g/m*3 6.8 C 0 km/h
2200 16-09-2004 08:31:00 7 C 7.13 g/m*3 7 C 0 km/h
Sensor: Nr:Datum:Temp:Abs-Feuchte:Windchill:Wind:
Aussen-T/F 2201 16-09-2004 08:43:00 7.4 C 7.24 g/m*3 7.4 C 0 km/h
2202 16-09-2004 08:55:01 7.5 C 7.2 g/m*3 7.5 C 0 km/h
2203 16-09-2004 09:07:01 7.8 C 7.26 g/m*3 7.8 C 0 km/h
2204 16-09-2004 09:19:00 8.1 C 7.24 g/m*3 8.1 C 0 km/h
2205 16-09-2004 09:31:00 8.4 C 7.3 g/m*3 8.4 C 0 km/h
2206 16-09-2004 09:43:00 8.8 C 7.4 g/m*3 8.8 C 0 km/h
2207 16-09-2004 09:55:01 9.3 C 7.46 g/m*3 9.3 C 0 km/h
2208 16-09-2004 10:07:01 9.5 C 7.46 g/m*3 9.5 C 0 km/h
2209 16-09-2004 10:19:01 9.8 C 7.52 g/m*3 9.8 C 0 km/h
2210 16-09-2004 10:31:01 10.4 C 7.81 g/m*3 10.4 C 0 km/h
2211 16-09-2004 10:43:01 10.9 C 7.96 g/m*3 10.9 C 0 km/h
2212 16-09-2004 10:55:01 11.5 C 8.06 g/m*3 11.5 C 0 km/h
2213 16-09-2004 11:07:01 12.1 C 8.26 g/m*3 12.1 C 0 km/h
2214 16-09-2004 11:19:00 12.5 C 8.25 g/m*3 12.5 C 0 km/h
2215 16-09-2004 11:31:00 13.1 C 8.33 g/m*3 13.1 C 0 km/h
2216 16-09-2004 11:43:00 13.6 C 8.24 g/m*3 13.6 C 0 km/h
2217 16-09-2004 11:55:01 14.2 C 8.3 g/m*3 14.2 C 0 km/h
2218 16-09-2004 12:07:01 14.6 C 8.13 g/m*3 14.6 C 0 km/h
2219 16-09-2004 12:19:01 15 C 7.95 g/m*3 15 C 0 km/h
2220 16-09-2004 12:31:00 15.5 C 7.67 g/m*3 15.5 C 0 km/h
2221 16-09-2004 12:43:00 15.6 C 7.31 g/m*3 15.6 C 0 km/h
2222 16-09-2004 12:55:01 15.8 C 7.27 g/m*3 15.8 C 0 km/h
2223 16-09-2004 13:07:01 16.1 C 7.4 g/m*3 16.1 C 0 km/h
2224 16-09-2004 13:19:00 16.7 C 6.96 g/m*3 16.7 C 0 km/h
2225 16-09-2004 13:31:01 17.5 C 6.11 g/m*3 17.5 C 0 km/h
Sensor: Nr:Datum:Temp:Abs-Feuchte:Windchill:Wind:
Aussen-T/F 2226 16-09-2004 13:43:01 17.9 C 6.26 g/m*3 17.9 C 0 km/h
2227 16-09-2004 13:55:01 18.3 C 6.41 g/m*3 18.3 C 0 km/h
2228 16-09-2004 14:07:01 18.7 C 5.92 g/m*3 18.7 C 0 km/h
2229 16-09-2004 14:19:00 19.2 C 5.44 g/m*3 19.2 C 0 km/h
2230 16-09-2004 14:31:00 19.7 C 5.94 g/m*3 19.7 C 0 km/h
2231 16-09-2004 14:43:00 20.5 C 5.69 g/m*3 20.5 C 0 km/h
2232 16-09-2004 14:55:01 21.4 C 5.62 g/m*3 21.4 C 0 km/h
2233 16-09-2004 15:07:01 21.8 C 5.76 g/m*3 21.8 C 0 km/h
2234 16-09-2004 15:19:01 21 C 5.31 g/m*3 21 C 0 km/h
2235 16-09-2004 15:31:00 19.7 C 5.6 g/m*3 19.7 C 0 km/h
2236 16-09-2004 15:43:00 20.5 C 5.52 g/m*3 20.5 C 0 km/h
2237 16-09-2004 15:55:01 21.2 C 5 g/m*3 21.2 C 0 km/h
2238 16-09-2004 16:07:01 21.3 C 4.85 g/m*3 21.3 C 0 km/h
2239 16-09-2004 16:19:00 21.6 C 4.74 g/m*3 21.6 C 0 km/h
2240 16-09-2004 16:31:00 21.9 C 4.82 g/m*3 21.9 C 0 km/h
2241 16-09-2004 16:43:00 22 C 5.82 g/m*3 22 C 0 km/h
2242 16-09-2004 16:55:02 22 C 5.05 g/m*3 22 C 0 km/h
2243 16-09-2004 17:07:02 22 C 6.02 g/m*3 22 C 0 km/h
2244 16-09-2004 17:19:02 21.2 C 6.12 g/m*3 21.2 C 0 km/h
2245 16-09-2004 17:31:01 22.3 C 6.52 g/m*3 22.3 C 0 km/h
2246 16-09-2004 17:43:01 22.9 C 6.54 g/m*3 22.9 C 0 km/h
2247 16-09-2004 17:55:01 22.7 C 6.26 g/m*3 22.7 C 0 km/h
2248 16-09-2004 18:07:01 21.6 C 6.26 g/m*3 21.6 C 0 km/h
2249 16-09-2004 18:19:01 21.1 C 5.9 g/m*3 21.1 C 0 km/h
2250 16-09-2004 18:31:01 20 C 6.22 g/m*3 20 C 0 km/h
Sensor: Nr:Datum:Temp:Abs-Feuchte:Windchill:Wind:
Aussen-T/F 2251 16-09-2004 18:43:01 18.4 C 6.29 g/m*3 18.4 C 0 km/h
2252 16-09-2004 18:55:01 17.4 C 6.08 g/m*3 17.4 C 0 km/h
2253 16-09-2004 19:07:01 16.9 C 6.18 g/m*3 16.9 C 0 km/h
2254 16-09-2004 19:19:01 16.2 C 5.93 g/m*3 16.2 C 0 km/h
2255 16-09-2004 19:31:01 16.1 C 5.76 g/m*3 16.1 C 0 km/h
2256 16-09-2004 19:43:01 15.3 C 6.01 g/m*3 15.3 C 0 km/h
2257 16-09-2004 19:55:01 14.8 C 6.08 g/m*3 14.8 C 0 km/h
2258 16-09-2004 20:07:02 14.3 C 6.02 g/m*3 14.3 C 0 km/h
2259 16-09-2004 20:19:02 13.7 C 6.04 g/m*3 13.7 C 0 km/h
2260 16-09-2004 20:31:02 13.1 C 5.82 g/m*3 13.1 C 0 km/h
2261 16-09-2004 20:43:02 12.8 C 6.16 g/m*3 12.8 C 0 km/h
2262 16-09-2004 20:55:01 12.5 C 6.27 g/m*3 12.5 C 0 km/h
2263 16-09-2004 21:07:01 12.4 C 6.23 g/m*3 12.4 C 0 km/h
2264 16-09-2004 21:19:01 12.1 C 6.33 g/m*3 12.1 C 0 km/h
2265 16-09-2004 21:31:01 11.9 C 6.35 g/m*3 11.9 C 0 km/h
2266 16-09-2004 21:43:01 11.6 C 6.34 g/m*3 11.6 C 0 km/h
2267 16-09-2004 21:55:01 11.2 C 6.28 g/m*3 11.2 C 0 km/h
2268 16-09-2004 22:07:01 11.1 C 6.25 g/m*3 11.1 C 0 km/h
2269 16-09-2004 22:19:01 11 C 6.31 g/m*3 11 C 0 km/h
2270 16-09-2004 22:31:01 10.8 C 6.33 g/m*3 10.8 C 0 km/h
2271 16-09-2004 22:43:01 10.7 C 6.38 g/m*3 10.7 C 0 km/h
2272 16-09-2004 22:55:01 10.4 C 6.26 g/m*3 10.4 C 0 km/h
2273 16-09-2004 23:07:01 10.1 C 6.24 g/m*3 10.1 C 0 km/h
2274 16-09-2004 23:19:01 9.8 C 6.4 g/m*3 9.8 C 0 km/h
2275 16-09-2004 23:31:00 9.7 C 6.36 g/m*3 9.7 C 0 km/h
Sensor: Nr:Datum:Temp:Abs-Feuchte:Windchill:Wind:
Aussen-T/F 2276 16-09-2004 23:43:00 9.5 C 6.37 g/m*3 9.5 C 0 km/h
2277 16-09-2004 23:55:01 9.4 C 6.51 g/m*3 9.4 C 0 km/h
2278 17-09-2004 00:07:02 9.2 C 6.34 g/m*3 9.2 C 0 km/h
2279 17-09-2004 00:19:01 9 C 6.35 g/m*3 9 C 0 km/h
2280 17-09-2004 00:31:01 8.9 C 6.48 g/m*3 8.9 C 0 km/h
2281 17-09-2004 00:43:01 8.6 C 6.27 g/m*3 8.6 C 0 km/h
2282 17-09-2004 00:55:01 8.7 C 6.4 g/m*3 8.7 C 0 km/h
2283 17-09-2004 01:07:01 8.3 C 6.32 g/m*3 8.3 C 0 km/h
2284 17-09-2004 01:19:01 8.1 C 6.41 g/m*3 8.1 C 0 km/h
2285 17-09-2004 01:31:01 8 C 6.45 g/m*3 8 C 0 km/h
2286 17-09-2004 01:43:01 8 C 6.37 g/m*3 8 C 0 km/h
2287 17-09-2004 01:55:01 7.9 C 6.49 g/m*3 7.9 C 0 km/h
2288 17-09-2004 02:07:01 7.7 C 6.57 g/m*3 7.7 C 0 km/h
2289 17-09-2004 02:19:01 7.6 C 6.44 g/m*3 7.6 C 0 km/h
2290 17-09-2004 02:31:01 7.5 C 6.4 g/m*3 7.5 C 0 km/h
2291 17-09-2004 02:43:01 7.4 C 6.44 g/m*3 7.4 C 0 km/h
2292 17-09-2004 02:55:01 7.1 C 6.32 g/m*3 7.1 C 0 km/h
2293 17-09-2004 03:07:01 7 C 6.35 g/m*3 7 C 0 km/h
2294 17-09-2004 03:19:01 7 C 6.35 g/m*3 7 C 0 km/h
2295 17-09-2004 03:31:00 6.9 C 6.39 g/m*3 6.9 C 0 km/h
2296 17-09-2004 03:43:00 6.9 C 6.39 g/m*3 6.9 C 0 km/h
2297 17-09-2004 03:55:00 6.9 C 6.39 g/m*3 6.9 C 0 km/h
2298 17-09-2004 04:07:00 6.7 C 6.38 g/m*3 6.7 C 0 km/h
2299 17-09-2004 04:19:00 6.6 C 6.42 g/m*3 6.6 C 0 km/h
2300 17-09-2004 04:31:00 6.4 C 6.33 g/m*3 6.4 C 0 km/h
Sensor: Nr:Datum:Temp:Abs-Feuchte:Windchill:Wind:
Aussen-T/F 2301 17-09-2004 04:43:00 6.2 C 6.25 g/m*3 6.2 C 0 km/h
2302 17-09-2004 04:55:00 6 C 6.17 g/m*3 6 C 0 km/h
2303 17-09-2004 05:07:00 6 C 6.24 g/m*3 6 C 0 km/h
2304 17-09-2004 05:19:00 5.9 C 6.27 g/m*3 5.9 C 0 km/h
2305 17-09-2004 05:31:00 5.8 C 6.23 g/m*3 5.8 C 0 km/h
2306 17-09-2004 05:43:00 5.7 C 6.19 g/m*3 5.7 C 0 km/h
2307 17-09-2004 05:55:00 5.5 C 6.18 g/m*3 5.5 C 0 km/h
2308 17-09-2004 06:07:01 5.4 C 6.14 g/m*3 5.4 C 0 km/h
2309 17-09-2004 06:19:01 5.3 C 6.1 g/m*3 5.3 C 0 km/h
2310 17-09-2004 06:31:01 5.2 C 6.13 g/m*3 5.2 C 0 km/h
2311 17-09-2004 06:43:01 5.2 C 6.13 g/m*3 5.2 C 0 km/h
2312 17-09-2004 06:55:01 5.1 C 6.09 g/m*3 5.1 C 0 km/h
2313 17-09-2004 07:07:01 5.1 C 6.16 g/m*3 5.1 C 0 km/h
2314 17-09-2004 07:19:00 5 C 6.12 g/m*3 5 C 0 km/h
2315 17-09-2004 07:31:01 5 C 6.12 g/m*3 5 C 0 km/h
2316 17-09-2004 07:43:01 4.9 C 6.21 g/m*3 4.9 C 0 km/h
2317 17-09-2004 07:55:00 4.9 C 6.21 g/m*3 4.9 C 0 km/h
2318 17-09-2004 08:07:00 5.3 C 6.38 g/m*3 5.3 C 0 km/h
2319 17-09-2004 08:19:00 5.5 C 6.39 g/m*3 5.5 C 0 km/h
2320 17-09-2004 08:31:00 5.7 C 6.48 g/m*3 5.7 C 0 km/h
2321 17-09-2004 08:43:00 5.9 C 6.49 g/m*3 5.9 C 0 km/h
2322 17-09-2004 08:55:00 6.3 C 6.51 g/m*3 6.3 C 0 km/h
2323 17-09-2004 09:07:00 6.5 C 6.6 g/m*3 6.5 C 0 km/h
2324 17-09-2004 09:19:00 6.7 C 6.61 g/m*3 6.7 C 0 km/h
2325 17-09-2004 09:31:00 6.6 C 6.64 g/m*3 6.6 C 0 km/h
Sensor: Nr:Datum:Temp:Abs-Feuchte:Windchill:Wind:
Aussen-T/F 2326 17-09-2004 09:43:01 6.8 C 6.81 g/m*3 6.8 C 0 km/h
2327 17-09-2004 09:55:01 7.2 C 6.91 g/m*3 7.2 C 0 km/h
2328 17-09-2004 10:07:01 7.7 C 7.14 g/m*3 7.7 C 0 km/h
2329 17-09-2004 10:19:01 8 C 6.94 g/m*3 8 C 0 km/h
2330 17-09-2004 10:31:01 8.6 C 7.22 g/m*3 8.6 C 0 km/h
2331 17-09-2004 10:43:01 9.2 C 7.41 g/m*3 9.2 C 0 km/h
2332 17-09-2004 10:55:00 10.2 C 7.52 g/m*3 10.2 C 0 km/h
2333 17-09-2004 11:07:00 11.1 C 7.55 g/m*3 11.1 C 0 km/h
2334 17-09-2004 11:19:00 12 C 7.67 g/m*3 12 C 0 km/h
2335 17-09-2004 11:31:00 12.4 C 7.65 g/m*3 12.4 C 0 km/h
2336 17-09-2004 11:43:00 13.1 C 7.65 g/m*3 13.1 C 0 km/h
2337 17-09-2004 11:55:00 13.8 C 7.86 g/m*3 13.8 C 0 km/h
2338 17-09-2004 12:07:00 14.5 C 7.96 g/m*3 14.5 C 0 km/h
2339 17-09-2004 12:19:00 15.2 C 8.18 g/m*3 15.2 C 0 km/h
2340 17-09-2004 12:31:00 15.6 C 8.38 g/m*3 15.6 C 0 km/h
2341 17-09-2004 12:43:00 16 C 8.45 g/m*3 16 C 0 km/h
2342 17-09-2004 12:55:00 16.4 C 8.37 g/m*3 16.4 C 0 km/h
2343 17-09-2004 13:07:00 17 C 8.54 g/m*3 17 C 0 km/h
2344 17-09-2004 13:19:01 17.7 C 8.6 g/m*3 17.7 C 0 km/h
2345 17-09-2004 13:31:01 18.6 C 8.75 g/m*3 18.6 C 0 km/h
2346 17-09-2004 13:43:01 19.2 C 7.09 g/m*3 19.2 C 0 km/h
2347 17-09-2004 13:55:01 20.1 C 8 g/m*3 20.1 C 0 km/h
2348 17-09-2004 14:07:01 21 C 8.24 g/m*3 21 C 0 km/h
2349 17-09-2004 14:19:01 21.3 C 6.71 g/m*3 21.3 C 0 km/h
2350 17-09-2004 14:31:00 21.9 C 6.75 g/m*3 21.9 C 0 km/h
Sensor: Nr:Datum:Temp:Abs-Feuchte:Windchill:Wind:
Aussen-T/F 2351 17-09-2004 14:43:00 22.3 C 6.52 g/m*3 22.3 C 0 km/h
2352 17-09-2004 14:55:00 22 C 6.6 g/m*3 22 C 0 km/h
2353 17-09-2004 15:07:00 22.7 C 6.26 g/m*3 22.7 C 0 km/h
2354 17-09-2004 15:19:00 22.7 C 6.06 g/m*3 22.7 C 0 km/h
2355 17-09-2004 15:31:00 23.2 C 5.61 g/m*3 23.2 C 0 km/h
2356 17-09-2004 15:43:00 24 C 5.87 g/m*3 24 C 0 km/h
2357 17-09-2004 15:55:00 22.8 C 5.49 g/m*3 22.8 C 0 km/h
2358 17-09-2004 16:07:00 23.4 C 5.89 g/m*3 23.4 C 0 km/h
2359 17-09-2004 16:19:00 24.6 C 6.08 g/m*3 24.6 C 0 km/h
2360 17-09-2004 16:31:00 25.1 C 6.25 g/m*3 25.1 C 0 km/h
2361 17-09-2004 16:43:00 25.4 C 6.12 g/m*3 25.4 C 0 km/h
2362 17-09-2004 16:55:00 25.3 C 6.09 g/m*3 25.3 C 0 km/h
2363 17-09-2004 17:07:01 25.4 C 6.12 g/m*3 25.4 C 0 km/h
2364 17-09-2004 17:19:01 25.3 C 6.55 g/m*3 25.3 C 0 km/h
2365 17-09-2004 17:31:01 25.4 C 5.89 g/m*3 25.4 C 0 km/h
2366 17-09-2004 17:43:01 25.7 C 6.22 g/m*3 25.7 C 0 km/h
2367 17-09-2004 17:55:01 25.1 C 6.48 g/m*3 25.1 C 0 km/h
2368 17-09-2004 18:07:01 25 C 6.22 g/m*3 25 C 0 km/h
2369 17-09-2004 18:19:00 24.3 C 7.08 g/m*3 24.3 C 0 km/h
2370 17-09-2004 18:31:00 24.1 C 7.44 g/m*3 24.1 C 0 km/h
2371 17-09-2004 18:43:00 22.4 C 7.55 g/m*3 22.4 C 0 km/h
2372 17-09-2004 18:55:00 21.7 C 7.44 g/m*3 21.7 C 0 km/h
2373 17-09-2004 19:07:00 20.8 C 7.6 g/m*3 20.8 C 0 km/h
2374 17-09-2004 19:19:00 19.4 C 7.34 g/m*3 19.4 C 0 km/h
2375 17-09-2004 19:31:00 18.3 C 7.19 g/m*3 18.3 C 0 km/h
Sensor: Nr:Datum:Temp:Abs-Feuchte:Windchill:Wind:
Aussen-T/F 2376 17-09-2004 19:43:00 17.3 C 7.07 g/m*3 17.3 C 0 km/h
2377 17-09-2004 19:55:00 16.7 C 7.11 g/m*3 16.7 C 0 km/h
2378 17-09-2004 20:07:00 16.4 C 7.12 g/m*3 16.4 C 0 km/h
2379 17-09-2004 20:19:00 15.9 C 7.04 g/m*3 15.9 C 0 km/h
2380 17-09-2004 20:31:00 15.7 C 7.09 g/m*3 15.7 C 0 km/h
2381 17-09-2004 20:43:01 15.6 C 7.18 g/m*3 15.6 C 0 km/h
2382 17-09-2004 20:55:01 15.2 C 7.14 g/m*3 15.2 C 0 km/h
2383 17-09-2004 21:07:01 15 C 7.05 g/m*3 15 C 0 km/h
2384 17-09-2004 21:19:01 14.9 C 7.39 g/m*3 14.9 C 0 km/h
2385 17-09-2004 21:31:01 15 C 7.31 g/m*3 15 C 0 km/h
2386 17-09-2004 21:43:01 14.9 C 7.39 g/m*3 14.9 C 0 km/h
2387 17-09-2004 21:55:01 15 C 7.18 g/m*3 15 C 0 km/h
2388 17-09-2004 22:07:00 14.9 C 7.52 g/m*3 14.9 C 0 km/h
2389 17-09-2004 22:19:00 14.7 C 7.55 g/m*3 14.7 C 0 km/h
2390 17-09-2004 22:31:00 14.5 C 7.59 g/m*3 14.5 C 0 km/h
2391 17-09-2004 22:43:00 14.3 C 7.49 g/m*3 14.3 C 0 km/h
2392 17-09-2004 22:55:00 14.2 C 7.33 g/m*3 14.2 C 0 km/h
2393 17-09-2004 23:07:00 14.3 C 7.37 g/m*3 14.3 C 0 km/h
2394 17-09-2004 23:19:00 14 C 7.36 g/m*3 14 C 0 km/h
2395 17-09-2004 23:31:00 13.6 C 7.65 g/m*3 13.6 C 0 km/h
2396 17-09-2004 23:43:00 13.1 C 7.65 g/m*3 13.1 C 0 km/h
2397 17-09-2004 23:55:00 12.8 C 7.73 g/m*3 12.8 C 0 km/h
2398 18-09-2004 00:07:00 12.5 C 7.7 g/m*3 12.5 C 0 km/h
2399 18-09-2004 00:19:01 12.2 C 7.66 g/m*3 12.2 C 0 km/h
2400 18-09-2004 00:31:01 11.8 C 7.47 g/m*3 11.8 C 0 km/h
Sensor: Nr:Datum:Temp:Abs-Feuchte:Windchill:Wind:
Aussen-T/F 2401 18-09-2004 00:43:01 11.7 C 7.53 g/m*3 11.7 C 0 km/h
2402 18-09-2004 00:55:01 11.4 C 7.6 g/m*3 11.4 C 0 km/h
2403 18-09-2004 01:07:01 11.3 C 7.75 g/m*3 11.3 C 0 km/h
2404 18-09-2004 01:19:01 11.2 C 7.6 g/m*3 11.2 C 0 km/h
2405 18-09-2004 01:31:00 10.9 C 7.56 g/m*3 10.9 C 0 km/h
2406 18-09-2004 01:43:00 10.8 C 7.61 g/m*3 10.8 C 0 km/h
2407 18-09-2004 01:55:00 10.8 C 7.61 g/m*3 10.8 C 0 km/h
2408 18-09-2004 02:07:00 10.4 C 7.42 g/m*3 10.4 C 0 km/h
2409 18-09-2004 02:19:00 10.2 C 7.42 g/m*3 10.2 C 0 km/h
2410 18-09-2004 02:31:00 10 C 7.33 g/m*3 10 C 0 km/h
2411 18-09-2004 02:43:00 9.8 C 7.42 g/m*3 9.8 C 0 km/h
2412 18-09-2004 02:56:03 9.8 C 7.42 g/m*3 9.8 C 0 km/h
2413 18-09-2004 03:08:03 9.6 C 7.42 g/m*3 9.6 C 0 km/h
2414 18-09-2004 03:20:03 9.4 C 7.42 g/m*3 9.4 C 0 km/h
2415 18-09-2004 03:32:01 9.3 C 7.37 g/m*3 9.3 C 0 km/h
2416 18-09-2004 03:44:01 9 C 7.32 g/m*3 9 C 0 km/h
2417 18-09-2004 03:56:01 9 C 7.32 g/m*3 9 C 0 km/h
2418 18-09-2004 04:08:01 9 C 7.32 g/m*3 9 C 0 km/h
2419 18-09-2004 04:20:01 8.9 C 7.36 g/m*3 8.9 C 0 km/h
2420 18-09-2004 04:32:01 8.8 C 7.31 g/m*3 8.8 C 0 km/h
2421 18-09-2004 04:44:01 8.7 C 7.35 g/m*3 8.7 C 0 km/h
2422 18-09-2004 04:56:02 8.6 C 7.3 g/m*3 8.6 C 0 km/h
2423 18-09-2004 05:08:02 8.6 C 7.3 g/m*3 8.6 C 0 km/h
2424 18-09-2004 05:20:02 8.4 C 7.3 g/m*3 8.4 C 0 km/h
2425 18-09-2004 05:32:02 8.3 C 7.25 g/m*3 8.3 C 0 km/h
Sensor: Nr:Datum:Temp:Abs-Feuchte:Windchill:Wind:
Aussen-T/F 2426 18-09-2004 05:44:02 8.2 C 7.2 g/m*3 8.2 C 0 km/h
2427 18-09-2004 05:56:01 8.1 C 7.16 g/m*3 8.1 C 0 km/h
2428 18-09-2004 06:08:01 7.8 C 7.1 g/m*3 7.8 C 0 km/h
2429 18-09-2004 06:20:01 7.6 C 7.01 g/m*3 7.6 C 0 km/h
2430 18-09-2004 06:32:01 7.7 C 7.14 g/m*3 7.7 C 0 km/h
2431 18-09-2004 06:44:01 7.7 C 7.14 g/m*3 7.7 C 0 km/h
2432 18-09-2004 06:56:01 7.6 C 7.09 g/m*3 7.6 C 0 km/h
2433 18-09-2004 07:08:01 7.6 C 7.09 g/m*3 7.6 C 0 km/h
2434 18-09-2004 07:20:01 7.5 C 7.04 g/m*3 7.5 C 0 km/h
2435 18-09-2004 07:32:00 7.5 C 7.04 g/m*3 7.5 C 0 km/h
2436 18-09-2004 07:44:00 7.8 C 7.18 g/m*3 7.8 C 0 km/h
2437 18-09-2004 07:56:01 7.9 C 7.23 g/m*3 7.9 C 0 km/h
2438 18-09-2004 08:08:02 8 C 7.28 g/m*3 8 C 0 km/h
2439 18-09-2004 08:20:02 8 C 7.19 g/m*3 8 C 0 km/h
2440 18-09-2004 08:32:01 8 C 7.19 g/m*3 8 C 0 km/h
2441 18-09-2004 08:44:01 8.1 C 7.24 g/m*3 8.1 C 0 km/h
2442 18-09-2004 08:56:01 8.1 C 7.24 g/m*3 8.1 C 0 km/h
2443 18-09-2004 09:08:01 8.2 C 7.37 g/m*3 8.2 C 0 km/h
2444 18-09-2004 09:20:01 8.5 C 7.51 g/m*3 8.5 C 0 km/h
2445 18-09-2004 09:32:00 8.7 C 7.61 g/m*3 8.7 C 0 km/h
2446 18-09-2004 09:44:00 9.1 C 7.72 g/m*3 9.1 C 0 km/h
2447 18-09-2004 09:56:01 9.6 C 8.06 g/m*3 9.6 C 0 km/h
2448 18-09-2004 10:08:01 10.1 C 8.13 g/m*3 10.1 C 0 km/h
2449 18-09-2004 10:20:01 10.6 C 8.3 g/m*3 10.6 C 0 km/h
2450 18-09-2004 10:32:00 11.5 C 8.68 g/m*3 11.5 C 0 km/h
Sensor: Nr:Datum:Temp:Abs-Feuchte:Windchill:Wind:
Aussen-T/F 2451 18-09-2004 10:44:00 11.9 C 8.58 g/m*3 11.9 C 0 km/h
2452 18-09-2004 10:56:01 12.7 C 8.91 g/m*3 12.7 C 0 km/h
2453 18-09-2004 11:08:02 13.6 C 9.18 g/m*3 13.6 C 0 km/h
2454 18-09-2004 11:20:01 14.5 C 8.95 g/m*3 14.5 C 0 km/h
2455 18-09-2004 11:32:01 15.3 C 9.01 g/m*3 15.3 C 0 km/h
2456 18-09-2004 11:44:01 15.7 C 9.37 g/m*3 15.7 C 0 km/h
2457 18-09-2004 11:56:02 16.2 C 9.52 g/m*3 16.2 C 0 km/h
2458 18-09-2004 12:08:02 16.7 C 9.81 g/m*3 16.7 C 0 km/h
2459 18-09-2004 12:20:02 17.7 C 9.66 g/m*3 17.7 C 0 km/h
2460 18-09-2004 12:32:02 18.2 C 9.48 g/m*3 18.2 C 0 km/h
2461 18-09-2004 12:44:02 18.7 C 9.29 g/m*3 18.7 C 0 km/h
2462 18-09-2004 12:56:01 20 C 8.3 g/m*3 20 C 0 km/h
2463 18-09-2004 13:08:01 20.4 C 8.67 g/m*3 20.4 C 0 km/h
2464 18-09-2004 13:20:01 21 C 8.43 g/m*3 21 C 0 km/h
2465 18-09-2004 13:32:00 21.6 C 8.16 g/m*3 21.6 C 0 km/h
2466 18-09-2004 13:44:00 22.2 C 8.05 g/m*3 22.2 C 0 km/h
2467 18-09-2004 13:56:01 22.8 C 8.33 g/m*3 22.8 C 0 km/h
2468 18-09-2004 14:08:01 23.3 C 7.95 g/m*3 23.3 C 0 km/h
2469 18-09-2004 14:20:01 23.8 C 7.96 g/m*3 23.8 C 0 km/h
2470 18-09-2004 14:32:00 24.4 C 8.01 g/m*3 24.4 C 0 km/h
2471 18-09-2004 14:44:00 24.5 C 7.83 g/m*3 24.5 C 0 km/h
2472 18-09-2004 14:56:01 24.9 C 8.47 g/m*3 24.9 C 0 km/h
2473 18-09-2004 15:08:01 25.5 C 8.05 g/m*3 25.5 C 0 km/h
2474 18-09-2004 15:20:01 25.6 C 7.86 g/m*3 25.6 C 0 km/h
2475 18-09-2004 15:32:01 25.8 C 7.46 g/m*3 25.8 C 0 km/h
Sensor: Nr:Datum:Temp:Abs-Feuchte:Windchill:Wind:
Aussen-T/F 2476 18-09-2004 15:44:01 26 C 7.55 g/m*3 26 C 0 km/h
2477 18-09-2004 15:56:02 26.1 C 7.34 g/m*3 26.1 C 0 km/h
2478 18-09-2004 16:08:02 26.3 C 7.67 g/m*3 26.3 C 0 km/h
2479 18-09-2004 16:20:02 26.4 C 7.97 g/m*3 26.4 C 0 km/h
2480 18-09-2004 16:32:01 26.8 C 7.64 g/m*3 26.8 C 0 km/h
2481 18-09-2004 16:44:01 26.7 C 7.59 g/m*3 26.7 C 0 km/h
2482 18-09-2004 16:56:01 26.5 C 7.26 g/m*3 26.5 C 0 km/h
2483 18-09-2004 17:08:01 26.5 C 7.01 g/m*3 26.5 C 0 km/h
2484 18-09-2004 17:20:01 27.1 C 7.76 g/m*3 27.1 C 0 km/h
2485 18-09-2004 17:32:00 26.8 C 7.13 g/m*3 26.8 C 0 km/h
2486 18-09-2004 17:44:00 26.9 C 7.17 g/m*3 26.9 C 0 km/h
2487 18-09-2004 17:56:01 27.4 C 8.16 g/m*3 27.4 C 0 km/h
2488 18-09-2004 18:08:01 26.7 C 7.59 g/m*3 26.7 C 0 km/h
2489 18-09-2004 18:20:01 26.1 C 7.59 g/m*3 26.1 C 0 km/h
2490 18-09-2004 18:32:00 25.7 C 8.62 g/m*3 25.7 C 0 km/h
2491 18-09-2004 18:44:00 25.2 C 8.61 g/m*3 25.2 C 0 km/h
2492 18-09-2004 18:56:01 24.6 C 8.55 g/m*3 24.6 C 0 km/h
2493 18-09-2004 19:08:02 23.9 C 8.65 g/m*3 23.9 C 0 km/h
2494 18-09-2004 19:20:02 22.9 C 8.38 g/m*3 22.9 C 0 km/h
2495 18-09-2004 19:32:01 21.7 C 8.58 g/m*3 21.7 C 0 km/h
2496 18-09-2004 19:44:01 20.7 C 8.82 g/m*3 20.7 C 0 km/h
2497 18-09-2004 19:56:01 20 C 8.81 g/m*3 20 C 0 km/h
2498 18-09-2004 20:08:01 19.7 C 8.83 g/m*3 19.7 C 0 km/h
2499 18-09-2004 20:20:01 19.4 C 9.01 g/m*3 19.4 C 0 km/h
2500 18-09-2004 20:32:01 19.2 C 9.23 g/m*3 19.2 C 0 km/h
Sensor: Nr:Datum:Temp:Abs-Feuchte:Windchill:Wind:
Aussen-T/F 2501 18-09-2004 20:44:01 18.9 C 9.07 g/m*3 18.9 C 0 km/h
2502 18-09-2004 20:56:01 18.4 C 9.12 g/m*3 18.4 C 0 km/h
2503 18-09-2004 21:08:01 18.2 C 9.17 g/m*3 18.2 C 0 km/h
2504 18-09-2004 21:20:01 17.8 C 9.41 g/m*3 17.8 C 0 km/h
2505 18-09-2004 21:32:01 17.5 C 9.39 g/m*3 17.5 C 0 km/h
2506 18-09-2004 21:44:01 17.2 C 9.37 g/m*3 17.2 C 0 km/h
2507 18-09-2004 21:56:01 16.7 C 9.38 g/m*3 16.7 C 0 km/h
2508 18-09-2004 22:08:01 16.6 C 9.46 g/m*3 16.6 C 0 km/h
2509 18-09-2004 22:20:02 16.4 C 9.49 g/m*3 16.4 C 0 km/h
2510 18-09-2004 22:32:02 16 C 9.4 g/m*3 16 C 0 km/h
2511 18-09-2004 22:44:02 15.8 C 9.42 g/m*3 15.8 C 0 km/h
2512 18-09-2004 22:56:01 16.1 C 9.32 g/m*3 16.1 C 0 km/h
2513 18-09-2004 23:08:01 15.7 C 9.23 g/m*3 15.7 C 0 km/h
2514 18-09-2004 23:20:01 15.8 C 9.29 g/m*3 15.8 C 0 km/h
2515 18-09-2004 23:32:00 15.6 C 9.31 g/m*3 15.6 C 0 km/h
2516 18-09-2004 23:44:00 15.4 C 9.2 g/m*3 15.4 C 0 km/h
2517 18-09-2004 23:56:01 15.7 C 9.23 g/m*3 15.7 C 0 km/h
2518 19-09-2004 00:08:01 15.8 C 9.15 g/m*3 15.8 C 0 km/h
2519 19-09-2004 00:20:01 15.7 C 9.23 g/m*3 15.7 C 0 km/h
2520 19-09-2004 00:32:01 15.6 C 9.31 g/m*3 15.6 C 0 km/h
2521 19-09-2004 00:44:02 15.4 C 9.33 g/m*3 15.4 C 0 km/h
2522 19-09-2004 00:56:01 15.1 C 9.29 g/m*3 15.1 C 0 km/h
2523 19-09-2004 01:08:01 15.1 C 9.29 g/m*3 15.1 C 0 km/h
2524 19-09-2004 01:20:01 15 C 9.23 g/m*3 15 C 0 km/h
2525 19-09-2004 01:32:00 15.2 C 9.35 g/m*3 15.2 C 0 km/h
Sensor: Nr:Datum:Temp:Abs-Feuchte:Windchill:Wind:
Aussen-T/F 2526 19-09-2004 01:44:00 15.4 C 9.46 g/m*3 15.4 C 0 km/h
2527 19-09-2004 01:56:01 15.6 C 9.58 g/m*3 15.6 C 0 km/h
2528 19-09-2004 02:08:01 15.6 C 9.58 g/m*3 15.6 C 0 km/h
2529 19-09-2004 02:20:01 15.6 C 9.71 g/m*3 15.6 C 0 km/h
2530 19-09-2004 02:32:00 15.4 C 9.59 g/m*3 15.4 C 0 km/h
2531 19-09-2004 02:44:00 15.1 C 9.55 g/m*3 15.1 C 0 km/h
2532 19-09-2004 02:57:03 14.7 C 10.2 g/m*3 14.7 C 0 km/h
2533 19-09-2004 03:09:03 14.4 C 10.51 g/m*3 14.4 C 0 km/h
2534 19-09-2004 03:21:03 14.7 C 10.95 g/m*3 14.7 C 0 km/h
2535 19-09-2004 03:33:01 14.5 C 10.94 g/m*3 14.5 C 0 km/h
2536 19-09-2004 03:45:01 14.4 C 11 g/m*3 14.4 C 0 km/h
2537 19-09-2004 03:57:01 14.5 C 11.19 g/m*3 14.5 C 0 km/h
2538 19-09-2004 04:09:01 14.5 C 11.19 g/m*3 14.5 C 0 km/h
2539 19-09-2004 04:21:01 14.7 C 11.46 g/m*3 14.7 C 0 km/h
2540 19-09-2004 04:33:01 14.5 C 11.32 g/m*3 14.5 C 0 km/h
2541 19-09-2004 04:45:02 14.4 C 11.25 g/m*3 14.4 C 0 km/h
2542 19-09-2004 04:57:02 14.5 C 11.32 g/m*3 14.5 C 0 km/h
2543 19-09-2004 05:09:02 14.6 C 11.51 g/m*3 14.6 C 0 km/h
2544 19-09-2004 05:21:02 14.4 C 11.37 g/m*3 14.4 C 0 km/h
2545 19-09-2004 05:33:01 14.3 C 11.3 g/m*3 14.3 C 0 km/h
2546 19-09-2004 05:45:01 14.3 C 11.3 g/m*3 14.3 C 0 km/h
2547 19-09-2004 05:57:01 14.2 C 11.23 g/m*3 14.2 C 0 km/h
2548 19-09-2004 06:09:01 14.1 C 11.17 g/m*3 14.1 C 0 km/h
2549 19-09-2004 06:21:01 14.1 C 11.29 g/m*3 14.1 C 0 km/h
2550 19-09-2004 06:33:00 14.1 C 11.29 g/m*3 14.1 C 0 km/h
Sensor: Nr:Datum:Temp:Abs-Feuchte:Windchill:Wind:
Aussen-T/F 2551 19-09-2004 06:45:01 14.2 C 11.36 g/m*3 14.2 C 0 km/h
2552 19-09-2004 06:57:01 14.2 C 11.36 g/m*3 14.2 C 0 km/h
2553 19-09-2004 07:09:01 14.2 C 11.36 g/m*3 14.2 C 0 km/h
2554 19-09-2004 07:21:00 14.1 C 11.29 g/m*3 14.1 C 0 km/h
2555 19-09-2004 07:33:00 14.2 C 11.36 g/m*3 14.2 C 0 km/h
2556 19-09-2004 07:45:01 14.3 C 11.43 g/m*3 14.3 C 0 km/h
2557 19-09-2004 07:57:01 14.4 C 11.37 g/m*3 14.4 C 0 km/h
2558 19-09-2004 08:09:02 14.5 C 11.44 g/m*3 14.5 C 0 km/h
2559 19-09-2004 08:21:02 14.4 C 11.25 g/m*3 14.4 C 0 km/h
2560 19-09-2004 08:33:01 14.3 C 11.18 g/m*3 14.3 C 0 km/h
2561 19-09-2004 08:45:01 14.4 C 11.25 g/m*3 14.4 C 0 km/h
2562 19-09-2004 08:57:01 14.4 C 11.37 g/m*3 14.4 C 0 km/h
2563 19-09-2004 09:09:01 14.3 C 11.3 g/m*3 14.3 C 0 km/h
2564 19-09-2004 09:21:01 14.5 C 11.44 g/m*3 14.5 C 0 km/h
2565 19-09-2004 09:33:01 14.4 C 11.37 g/m*3 14.4 C 0 km/h
2566 19-09-2004 09:45:01 14.6 C 11.39 g/m*3 14.6 C 0 km/h
2567 19-09-2004 09:57:01 14.7 C 11.46 g/m*3 14.7 C 0 km/h
2568 19-09-2004 10:09:01 14.7 C 11.46 g/m*3 14.7 C 0 km/h
2569 19-09-2004 10:21:01 15 C 11.41 g/m*3 15 C 0 km/h
2570 19-09-2004 10:33:00 15.5 C 11.63 g/m*3 15.5 C 0 km/h
2571 19-09-2004 10:45:01 15.5 C 11.37 g/m*3 15.5 C 0 km/h
2572 19-09-2004 10:57:01 16.2 C 11.45 g/m*3 16.2 C 0 km/h
2573 19-09-2004 11:09:01 16.4 C 11.45 g/m*3 16.4 C 0 km/h
2574 19-09-2004 11:21:00 16.6 C 11.58 g/m*3 16.6 C 0 km/h
2575 19-09-2004 11:33:01 16.8 C 11.72 g/m*3 16.8 C 0 km/h
Sensor: Nr:Datum:Temp:Abs-Feuchte:Windchill:Wind:
Aussen-T/F 2576 19-09-2004 11:45:01 16.8 C 11.72 g/m*3 16.8 C 0 km/h
2577 19-09-2004 11:57:01 16.6 C 11.44 g/m*3 16.6 C 0 km/h
2578 19-09-2004 12:09:00 17.1 C 11.94 g/m*3 17.1 C 0 km/h
2579 19-09-2004 12:21:00 17.4 C 11.56 g/m*3 17.4 C 0 km/h
2580 19-09-2004 12:33:00 17.8 C 11.54 g/m*3 17.8 C 0 km/h
2581 19-09-2004 12:45:01 17.6 C 11.4 g/m*3 17.6 C 0 km/h
2582 19-09-2004 12:57:01 17.6 C 11.4 g/m*3 17.6 C 0 km/h
2583 19-09-2004 13:09:01 18.5 C 12.02 g/m*3 18.5 C 0 km/h
2584 19-09-2004 13:21:01 18.8 C 11.6 g/m*3 18.8 C 0 km/h
2585 19-09-2004 13:33:01 18.9 C 11.83 g/m*3 18.9 C 0 km/h
2586 19-09-2004 13:45:01 20.1 C 11.65 g/m*3 20.1 C 0 km/h
2587 19-09-2004 13:57:01 21 C 11.17 g/m*3 21 C 0 km/h
2588 19-09-2004 14:09:01 20.3 C 10.55 g/m*3 20.3 C 0 km/h
2589 19-09-2004 14:21:01 19.9 C 10.31 g/m*3 19.9 C 0 km/h
2590 19-09-2004 14:33:00 20.7 C 10.62 g/m*3 20.7 C 0 km/h
2591 19-09-2004 14:45:01 20.9 C 9.29 g/m*3 20.9 C 0 km/h
2592 19-09-2004 14:57:01 20.2 C 8.92 g/m*3 20.2 C 0 km/h
2593 19-09-2004 15:09:01 21 C 9.34 g/m*3 21 C 0 km/h
2594 19-09-2004 15:21:01 20.5 C 8.54 g/m*3 20.5 C 0 km/h
2595 19-09-2004 15:33:01 21.7 C 9.16 g/m*3 21.7 C 0 km/h
2596 19-09-2004 15:45:01 22.9 C 8.38 g/m*3 22.9 C 0 km/h
2597 19-09-2004 15:57:01 22.6 C 8.44 g/m*3 22.6 C 0 km/h
2598 19-09-2004 16:09:01 22.6 C 9.44 g/m*3 22.6 C 0 km/h
2599 19-09-2004 16:21:01 21.8 C 10.17 g/m*3 21.8 C 0 km/h
2600 19-09-2004 16:33:00 21.8 C 9.98 g/m*3 21.8 C 0 km/h
Sensor: Nr:Datum:Temp:Abs-Feuchte:Windchill:Wind:
Aussen-T/F 2601 19-09-2004 16:45:01 21.9 C 10.61 g/m*3 21.9 C 0 km/h
2602 19-09-2004 16:57:01 21.4 C 10.12 g/m*3 21.4 C 0 km/h
2603 19-09-2004 17:09:01 20.8 C 10.14 g/m*3 20.8 C 0 km/h
2604 19-09-2004 17:21:01 20.9 C 8.92 g/m*3 20.9 C 0 km/h
2605 19-09-2004 17:33:00 20.3 C 9.85 g/m*3 20.3 C 0 km/h
2606 19-09-2004 17:45:01 19.6 C 9.79 g/m*3 19.6 C 0 km/h
2607 19-09-2004 17:57:01 19.1 C 9.84 g/m*3 19.1 C 0 km/h
2608 19-09-2004 18:09:01 18.9 C 9.72 g/m*3 18.9 C 0 km/h
2609 19-09-2004 18:21:01 18.5 C 9.81 g/m*3 18.5 C 0 km/h
2610 19-09-2004 18:33:00 19.3 C 8.96 g/m*3 19.3 C 0 km/h
2611 19-09-2004 18:45:02 19.7 C 7.81 g/m*3 19.7 C 0 km/h
2612 19-09-2004 18:57:02 20.4 C 7.96 g/m*3 20.4 C 0 km/h
2613 19-09-2004 19:09:02 20.3 C 7.91 g/m*3 20.3 C 0 km/h
2614 19-09-2004 19:21:02 19.3 C 7.13 g/m*3 19.3 C 0 km/h
2615 19-09-2004 19:33:01 18.1 C 8.19 g/m*3 18.1 C 0 km/h
2616 19-09-2004 19:45:01 17.1 C 8.3 g/m*3 17.1 C 0 km/h
2617 19-09-2004 19:57:01 16.4 C 8.23 g/m*3 16.4 C 0 km/h
2618 19-09-2004 20:09:01 15.7 C 8.03 g/m*3 15.7 C 0 km/h
2619 19-09-2004 20:21:01 15.4 C 7.88 g/m*3 15.4 C 0 km/h
2620 19-09-2004 20:33:00 15.1 C 7.87 g/m*3 15.1 C 0 km/h
2621 19-09-2004 20:45:01 14.7 C 8.18 g/m*3 14.7 C 0 km/h
2622 19-09-2004 20:57:01 14.7 C 8.31 g/m*3 14.7 C 0 km/h
2623 19-09-2004 21:09:01 14.4 C 7.91 g/m*3 14.4 C 0 km/h
2624 19-09-2004 21:21:01 14.4 C 8.03 g/m*3 14.4 C 0 km/h
2625 19-09-2004 21:33:00 14.3 C 8.23 g/m*3 14.3 C 0 km/h
Sensor: Nr:Datum:Temp:Abs-Feuchte:Windchill:Wind:
Aussen-T/F 2626 19-09-2004 21:45:01 14.4 C 8.28 g/m*3 14.4 C 0 km/h
2627 19-09-2004 21:57:01 14.4 C 8.16 g/m*3 14.4 C 0 km/h
2628 19-09-2004 22:09:01 14.3 C 8.11 g/m*3 14.3 C 0 km/h
2629 19-09-2004 22:21:02 14.1 C 8.13 g/m*3 14.1 C 0 km/h
2630 19-09-2004 22:33:01 13.8 C 7.98 g/m*3 13.8 C 0 km/h
2631 19-09-2004 22:45:01 13.7 C 8.05 g/m*3 13.7 C 0 km/h
2632 19-09-2004 22:57:01 13.3 C 7.97 g/m*3 13.3 C 0 km/h
2633 19-09-2004 23:09:01 12.9 C 7.89 g/m*3 12.9 C 0 km/h
2634 19-09-2004 23:21:01 12.5 C 7.59 g/m*3 12.5 C 0 km/h
2635 19-09-2004 23:33:00 12.4 C 7.43 g/m*3 12.4 C 0 km/h
2636 19-09-2004 23:45:01 12 C 7.35 g/m*3 12 C 0 km/h
2637 19-09-2004 23:57:01 11.7 C 7.64 g/m*3 11.7 C 0 km/h
2638 20-09-2004 00:09:01 11.5 C 7.85 g/m*3 11.5 C 0 km/h
2639 20-09-2004 00:21:01 11.3 C 7.65 g/m*3 11.3 C 0 km/h
2640 20-09-2004 00:33:01 11.1 C 7.66 g/m*3 11.1 C 0 km/h
2641 20-09-2004 00:45:01 10.9 C 7.66 g/m*3 10.9 C 0 km/h
2642 20-09-2004 00:57:01 10.7 C 7.56 g/m*3 10.7 C 0 km/h
2643 20-09-2004 01:09:01 10.6 C 7.61 g/m*3 10.6 C 0 km/h
2644 20-09-2004 01:21:01 10.8 C 7.81 g/m*3 10.8 C 0 km/h
2645 20-09-2004 01:33:00 10.9 C 7.86 g/m*3 10.9 C 0 km/h
2646 20-09-2004 01:45:01 10.7 C 7.76 g/m*3 10.7 C 0 km/h
2647 20-09-2004 01:57:01 10.7 C 7.66 g/m*3 10.7 C 0 km/h
2648 20-09-2004 02:09:01 10.6 C 7.61 g/m*3 10.6 C 0 km/h
2649 20-09-2004 02:21:01 10.3 C 7.57 g/m*3 10.3 C 0 km/h
2650 20-09-2004 02:33:00 10.4 C 7.71 g/m*3 10.4 C 0 km/h
Sensor: Nr:Datum:Temp:Abs-Feuchte:Windchill:Wind:
Aussen-T/F 2651 20-09-2004 02:46:03 10.4 C 7.61 g/m*3 10.4 C 0 km/h
2652 20-09-2004 02:58:03 10.4 C 7.61 g/m*3 10.4 C 0 km/h
2653 20-09-2004 03:10:03 10.4 C 7.61 g/m*3 10.4 C 0 km/h
2654 20-09-2004 03:22:03 10.2 C 7.52 g/m*3 10.2 C 0 km/h
2655 20-09-2004 03:34:01 10.2 C 7.61 g/m*3 10.2 C 0 km/h
2656 20-09-2004 03:46:01 10.3 C 7.57 g/m*3 10.3 C 0 km/h
2657 20-09-2004 03:58:01 10.2 C 7.52 g/m*3 10.2 C 0 km/h
2658 20-09-2004 04:10:01 10.1 C 7.47 g/m*3 10.1 C 0 km/h
2659 20-09-2004 04:22:01 10.1 C 7.47 g/m*3 10.1 C 0 km/h
2660 20-09-2004 04:34:00 10.1 C 7.47 g/m*3 10.1 C 0 km/h
2661 20-09-2004 04:46:01 10 C 7.42 g/m*3 10 C 0 km/h
2662 20-09-2004 04:58:01 9.8 C 7.42 g/m*3 9.8 C 0 km/h
2663 20-09-2004 05:10:01 9.8 C 7.52 g/m*3 9.8 C 0 km/h
2664 20-09-2004 05:22:01 9.7 C 7.47 g/m*3 9.7 C 0 km/h
2665 20-09-2004 05:34:01 9.6 C 7.42 g/m*3 9.6 C 0 km/h
2666 20-09-2004 05:46:01 9.7 C 7.47 g/m*3 9.7 C 0 km/h
2667 20-09-2004 05:58:01 9.6 C 7.42 g/m*3 9.6 C 0 km/h
2668 20-09-2004 06:10:01 9.5 C 7.37 g/m*3 9.5 C 0 km/h
2669 20-09-2004 06:22:00 9.5 C 7.37 g/m*3 9.5 C 0 km/h
2670 20-09-2004 06:34:00 9.5 C 7.37 g/m*3 9.5 C 0 km/h
2671 20-09-2004 06:46:01 9.6 C 7.42 g/m*3 9.6 C 0 km/h
2672 20-09-2004 06:58:01 9.6 C 7.42 g/m*3 9.6 C 0 km/h
2673 20-09-2004 07:10:01 9.6 C 7.42 g/m*3 9.6 C 0 km/h
2674 20-09-2004 07:22:00 9.3 C 7.37 g/m*3 9.3 C 0 km/h
2675 20-09-2004 07:34:00 9.1 C 7.36 g/m*3 9.1 C 0 km/h
Sensor: Nr:Datum:Temp:Abs-Feuchte:Windchill:Wind:
Aussen-T/F 2676 20-09-2004 07:46:01 9.2 C 7.5 g/m*3 9.2 C 0 km/h
2677 20-09-2004 07:58:01 9.2 C 7.5 g/m*3 9.2 C 0 km/h
2678 20-09-2004 08:10:01 9.2 C 7.5 g/m*3 9.2 C 0 km/h
2679 20-09-2004 08:22:00 9.3 C 7.55 g/m*3 9.3 C 0 km/h
2680 20-09-2004 08:34:01 9.6 C 7.6 g/m*3 9.6 C 0 km/h
2681 20-09-2004 08:46:01 9.9 C 7.66 g/m*3 9.9 C 0 km/h
2682 20-09-2004 08:58:01 10 C 7.42 g/m*3 10 C 0 km/h
2683 20-09-2004 09:10:01 10.3 C 7.57 g/m*3 10.3 C 0 km/h
2684 20-09-2004 09:22:00 10.6 C 7.61 g/m*3 10.6 C 0 km/h
2685 20-09-2004 09:34:00 10.9 C 7.66 g/m*3 10.9 C 0 km/h
2686 20-09-2004 09:46:01 11 C 7.61 g/m*3 11 C 0 km/h
2687 20-09-2004 09:58:01 11.3 C 7.75 g/m*3 11.3 C 0 km/h
2688 20-09-2004 10:10:01 11.8 C 7.89 g/m*3 11.8 C 0 km/h
2689 20-09-2004 10:22:00 12.1 C 7.94 g/m*3 12.1 C 0 km/h
2690 20-09-2004 10:34:00 12.8 C 7.84 g/m*3 12.8 C 0 km/h
2691 20-09-2004 10:46:01 13.3 C 7.97 g/m*3 13.3 C 0 km/h
2692 20-09-2004 10:58:01 13.7 C 7.93 g/m*3 13.7 C 0 km/h
2693 20-09-2004 11:10:01 14 C 7.6 g/m*3 14 C 0 km/h
2694 20-09-2004 11:22:00 14.3 C 7.49 g/m*3 14.3 C 0 km/h
2695 20-09-2004 11:34:00 14.7 C 7.68 g/m*3 14.7 C 0 km/h
2696 20-09-2004 11:46:02 15.1 C 7.74 g/m*3 15.1 C 0 km/h
2697 20-09-2004 11:58:02 15.3 C 7.57 g/m*3 15.3 C 0 km/h
2698 20-09-2004 12:10:02 15.4 C 7.49 g/m*3 15.4 C 0 km/h
2699 20-09-2004 12:22:01 15.6 C 7.71 g/m*3 15.6 C 0 km/h
2700 20-09-2004 12:34:01 15.8 C 7.54 g/m*3 15.8 C 0 km/h
Sensor: Nr:Datum:Temp:Abs-Feuchte:Windchill:Wind:
Aussen-T/F 2701 20-09-2004 12:46:01 15.8 C 7.54 g/m*3 15.8 C 0 km/h
2702 20-09-2004 12:58:01 16.4 C 7.54 g/m*3 16.4 C 0 km/h
2703 20-09-2004 13:10:01 16.7 C 7.39 g/m*3 16.7 C 0 km/h
2704 20-09-2004 13:22:00 16.6 C 7.2 g/m*3 16.6 C 0 km/h
2705 20-09-2004 13:34:00 16.8 C 7.15 g/m*3 16.8 C 0 km/h
2706 20-09-2004 13:46:01 17.1 C 7.13 g/m*3 17.1 C 0 km/h
2707 20-09-2004 13:58:01 17.2 C 7.03 g/m*3 17.2 C 0 km/h
2708 20-09-2004 14:10:01 17 C 6.95 g/m*3 17 C 0 km/h
2709 20-09-2004 14:22:01 17.1 C 7.13 g/m*3 17.1 C 0 km/h
2710 20-09-2004 14:34:01 17.3 C 7.22 g/m*3 17.3 C 0 km/h
2711 20-09-2004 14:46:02 17.3 C 7.37 g/m*3 17.3 C 0 km/h
2712 20-09-2004 14:58:02 17.5 C 7.31 g/m*3 17.5 C 0 km/h
2713 20-09-2004 15:10:02 17.2 C 7.18 g/m*3 17.2 C 0 km/h
2714 20-09-2004 15:22:02 17.3 C 7.37 g/m*3 17.3 C 0 km/h
2715 20-09-2004 15:34:02 17 C 7.23 g/m*3 17 C 0 km/h
2716 20-09-2004 15:46:01 17 C 7.23 g/m*3 17 C 0 km/h
2717 20-09-2004 15:58:01 17 C 7.23 g/m*3 17 C 0 km/h
2718 20-09-2004 16:10:01 17 C 7.38 g/m*3 17 C 0 km/h
2719 20-09-2004 16:22:01 17.1 C 7.13 g/m*3 17.1 C 0 km/h
2720 20-09-2004 16:34:00 17.2 C 7.32 g/m*3 17.2 C 0 km/h
2721 20-09-2004 16:46:01 17.3 C 7.22 g/m*3 17.3 C 0 km/h
2722 20-09-2004 16:58:01 17.4 C 7.26 g/m*3 17.4 C 0 km/h
2723 20-09-2004 17:10:01 17.5 C 7.31 g/m*3 17.5 C 0 km/h
2724 20-09-2004 17:22:01 17.6 C 7.35 g/m*3 17.6 C 0 km/h
2725 20-09-2004 17:34:00 17.4 C 7.11 g/m*3 17.4 C 0 km/h
Sensor: Nr:Datum:Temp:Abs-Feuchte:Windchill:Wind:
Aussen-T/F 2726 20-09-2004 17:46:01 17.4 C 7.11 g/m*3 17.4 C 0 km/h
2727 20-09-2004 17:58:01 17.4 C 6.97 g/m*3 17.4 C 0 km/h
2728 20-09-2004 18:10:01 17.4 C 6.82 g/m*3 17.4 C 0 km/h
2729 20-09-2004 18:22:02 17.3 C 6.78 g/m*3 17.3 C 0 km/h
2730 20-09-2004 18:34:01 17.2 C 6.88 g/m*3 17.2 C 0 km/h
2731 20-09-2004 18:46:01 17.1 C 6.84 g/m*3 17.1 C 0 km/h
2732 20-09-2004 18:58:01 17 C 6.8 g/m*3 17 C 0 km/h
2733 20-09-2004 19:10:01 16.8 C 7.01 g/m*3 16.8 C 0 km/h
2734 20-09-2004 19:22:01 16.7 C 6.96 g/m*3 16.7 C 0 km/h
2735 20-09-2004 19:34:00 16.6 C 7.06 g/m*3 16.6 C 0 km/h
2736 20-09-2004 19:46:01 16.6 C 7.06 g/m*3 16.6 C 0 km/h
2737 20-09-2004 19:58:01 16.6 C 7.06 g/m*3 16.6 C 0 km/h
2738 20-09-2004 20:10:01 16.5 C 7.02 g/m*3 16.5 C 0 km/h
2739 20-09-2004 20:22:01 16.4 C 6.98 g/m*3 16.4 C 0 km/h
2740 20-09-2004 20:34:01 16.5 C 7.02 g/m*3 16.5 C 0 km/h
2741 20-09-2004 20:46:01 16.3 C 7.08 g/m*3 16.3 C 0 km/h
2742 20-09-2004 20:58:01 16 C 7.08 g/m*3 16 C 0 km/h
2743 20-09-2004 21:10:01 16.2 C 7.17 g/m*3 16.2 C 0 km/h
2744 20-09-2004 21:22:01 15.8 C 7.13 g/m*3 15.8 C 0 km/h
2745 20-09-2004 21:34:01 16 C 7.08 g/m*3 16 C 0 km/h
2746 20-09-2004 21:46:01 16.1 C 7.13 g/m*3 16.1 C 0 km/h
2747 20-09-2004 21:58:01 16.1 C 7.26 g/m*3 16.1 C 0 km/h
2748 20-09-2004 22:10:02 16.1 C 7.26 g/m*3 16.1 C 0 km/h
2749 20-09-2004 22:22:02 16.2 C 7.31 g/m*3 16.2 C 0 km/h
2750 20-09-2004 22:34:02 16.1 C 7.4 g/m*3 16.1 C 0 km/h
Sensor: Nr:Datum:Temp:Abs-Feuchte:Windchill:Wind:
Aussen-T/F 2751 20-09-2004 22:46:01 16.1 C 7.54 g/m*3 16.1 C 0 km/h
2752 20-09-2004 22:58:01 15.9 C 7.72 g/m*3 15.9 C 0 km/h
2753 20-09-2004 23:10:01 15.9 C 7.85 g/m*3 15.9 C 0 km/h
2754 20-09-2004 23:22:00 15.9 C 7.85 g/m*3 15.9 C 0 km/h
2755 20-09-2004 23:34:00 15.9 C 7.99 g/m*3 15.9 C 0 km/h
2756 20-09-2004 23:46:01 15.9 C 7.99 g/m*3 15.9 C 0 km/h
2757 20-09-2004 23:58:01 15.8 C 8.08 g/m*3 15.8 C 0 km/h
2758 21-09-2004 00:10:01 15.8 C 8.08 g/m*3 15.8 C 0 km/h
2759 21-09-2004 00:22:01 15.7 C 8.03 g/m*3 15.7 C 0 km/h
2760 21-09-2004 00:34:01 15.7 C 8.16 g/m*3 15.7 C 0 km/h
2761 21-09-2004 00:46:01 15.8 C 8.21 g/m*3 15.8 C 0 km/h
2762 21-09-2004 00:58:01 15.8 C 8.21 g/m*3 15.8 C 0 km/h
2763 21-09-2004 01:10:01 15.9 C 8.26 g/m*3 15.9 C 0 km/h
2764 21-09-2004 01:22:01 15.8 C 8.35 g/m*3 15.8 C 0 km/h
2765 21-09-2004 01:34:00 15.2 C 8.7 g/m*3 15.2 C 0 km/h
2766 21-09-2004 01:46:01 15.1 C 8.77 g/m*3 15.1 C 0 km/h
2767 21-09-2004 01:58:01 14.4 C 9.27 g/m*3 14.4 C 0 km/h
2768 21-09-2004 02:10:01 14.4 C 9.27 g/m*3 14.4 C 0 km/h
2769 21-09-2004 02:22:01 14.1 C 9.47 g/m*3 14.1 C 0 km/h
2770 21-09-2004 02:34:01 14 C 9.53 g/m*3 14 C 0 km/h
2771 21-09-2004 02:47:03 14.3 C 9.46 g/m*3 14.3 C 0 km/h
2772 21-09-2004 02:59:03 14.3 C 9.46 g/m*3 14.3 C 0 km/h
2773 21-09-2004 03:11:03 14.1 C 9.34 g/m*3 14.1 C 0 km/h
2774 21-09-2004 03:23:03 14.1 C 9.47 g/m*3 14.1 C 0 km/h
2775 21-09-2004 03:35:01 14 C 9.53 g/m*3 14 C 0 km/h
Sensor: Nr:Datum:Temp:Abs-Feuchte:Windchill:Wind:
Aussen-T/F 2776 21-09-2004 03:47:01 14 C 9.65 g/m*3 14 C 0 km/h
2777 21-09-2004 03:59:01 13.5 C 9.94 g/m*3 13.5 C 0 km/h
2778 21-09-2004 04:11:01 13.2 C 10.1 g/m*3 13.2 C 0 km/h
2779 21-09-2004 04:23:01 13 C 10.09 g/m*3 13 C 0 km/h
2780 21-09-2004 04:35:01 12.9 C 10.14 g/m*3 12.9 C 0 km/h
2781 21-09-2004 04:47:02 13 C 10.09 g/m*3 13 C 0 km/h
2782 21-09-2004 04:59:02 13.1 C 10.04 g/m*3 13.1 C 0 km/h
2783 21-09-2004 05:11:02 13 C 9.75 g/m*3 13 C 0 km/h
2784 21-09-2004 05:23:02 13.1 C 9.36 g/m*3 13.1 C 0 km/h
2785 21-09-2004 05:35:01 13.4 C 8.6 g/m*3 13.4 C 0 km/h
2786 21-09-2004 05:47:01 13.3 C 8.2 g/m*3 13.3 C 0 km/h
2787 21-09-2004 05:59:01 13.5 C 7.6 g/m*3 13.5 C 0 km/h
2788 21-09-2004 06:11:01 13.6 C 7.18 g/m*3 13.6 C 0 km/h
2789 21-09-2004 06:23:00 13.8 C 7.15 g/m*3 13.8 C 0 km/h
2790 21-09-2004 06:35:00 13.5 C 7.02 g/m*3 13.5 C 0 km/h
2791 21-09-2004 06:47:01 13.4 C 7.09 g/m*3 13.4 C 0 km/h
2792 21-09-2004 06:59:01 13.3 C 7.05 g/m*3 13.3 C 0 km/h
2793 21-09-2004 07:11:01 13.3 C 7.16 g/m*3 13.3 C 0 km/h
2794 21-09-2004 07:23:00 13.3 C 7.28 g/m*3 13.3 C 0 km/h
2795 21-09-2004 07:35:00 13.3 C 7.39 g/m*3 13.3 C 0 km/h
2796 21-09-2004 07:47:01 13.1 C 7.3 g/m*3 13.1 C 0 km/h
2797 21-09-2004 07:59:01 13.1 C 7.3 g/m*3 13.1 C 0 km/h
2798 21-09-2004 08:11:02 13.2 C 7.46 g/m*3 13.2 C 0 km/h
2799 21-09-2004 08:23:01 13 C 7.48 g/m*3 13 C 0 km/h
2800 21-09-2004 08:35:01 13.1 C 7.65 g/m*3 13.1 C 0 km/h
Sensor: Nr:Datum:Temp:Abs-Feuchte:Windchill:Wind:
Aussen-T/F 2801 21-09-2004 08:47:01 13.1 C 7.65 g/m*3 13.1 C 0 km/h
2802 21-09-2004 08:59:01 13 C 7.6 g/m*3 13 C 0 km/h
2803 21-09-2004 09:11:01 13 C 7.71 g/m*3 13 C 0 km/h
2804 21-09-2004 09:23:00 13.2 C 7.46 g/m*3 13.2 C 0 km/h
2805 21-09-2004 09:35:00 13.5 C 7.13 g/m*3 13.5 C 0 km/h
2806 21-09-2004 09:47:01 13.8 C 6.67 g/m*3 13.8 C 0 km/h
2807 21-09-2004 09:59:01 13.9 C 6.95 g/m*3 13.9 C 0 km/h
2808 21-09-2004 10:11:01 14.1 C 6.19 g/m*3 14.1 C 0 km/h
2809 21-09-2004 10:23:01 14.3 C 6.14 g/m*3 14.3 C 0 km/h
2810 21-09-2004 10:35:00 14.5 C 6.22 g/m*3 14.5 C 0 km/h
2811 21-09-2004 10:47:01 14.3 C 6.02 g/m*3 14.3 C 0 km/h
2812 21-09-2004 10:59:01 14.6 C 5.88 g/m*3 14.6 C 0 km/h
2813 21-09-2004 11:11:01 14.8 C 5.95 g/m*3 14.8 C 0 km/h
2814 21-09-2004 11:23:01 15 C 5.77 g/m*3 15 C 0 km/h
2815 21-09-2004 11:35:01 15.3 C 5.88 g/m*3 15.3 C 0 km/h
2816 21-09-2004 11:47:01 15.5 C 5.82 g/m*3 15.5 C 0 km/h
2817 21-09-2004 11:59:01 15.8 C 5.79 g/m*3 15.8 C 0 km/h
2818 21-09-2004 12:11:01 15.8 C 5.65 g/m*3 15.8 C 0 km/h
2819 21-09-2004 12:23:00 16 C 5.59 g/m*3 16 C 0 km/h
2820 21-09-2004 12:35:00 15.9 C 5.42 g/m*3 15.9 C 0 km/h
2821 21-09-2004 12:47:01 16.4 C 5.58 g/m*3 16.4 C 0 km/h
2822 21-09-2004 12:59:01 16.5 C 5.48 g/m*3 16.5 C 0 km/h
2823 21-09-2004 13:11:01 16.7 C 5.4 g/m*3 16.7 C 0 km/h
2824 21-09-2004 13:23:00 17.2 C 5.56 g/m*3 17.2 C 0 km/h
2825 21-09-2004 13:35:00 17.4 C 5.48 g/m*3 17.4 C 0 km/h
Sensor: Nr:Datum:Temp:Abs-Feuchte:Windchill:Wind:
Aussen-T/F 2826 21-09-2004 13:47:01 17.2 C 5.13 g/m*3 17.2 C 0 km/h
2827 21-09-2004 13:59:01 17.8 C 5.31 g/m*3 17.8 C 0 km/h
2828 21-09-2004 14:11:01 18.1 C 5.1 g/m*3 18.1 C 0 km/h
2829 21-09-2004 14:23:00 17.4 C 4.89 g/m*3 17.4 C 0 km/h
2830 21-09-2004 14:35:00 17.5 C 5.22 g/m*3 17.5 C 0 km/h
2831 21-09-2004 14:47:01 17.1 C 5.09 g/m*3 17.1 C 0 km/h
2832 21-09-2004 14:59:01 17.4 C 5.19 g/m*3 17.4 C 0 km/h
2833 21-09-2004 15:11:02 18.2 C 4.97 g/m*3 18.2 C 0 km/h
2834 21-09-2004 15:23:02 18 C 5.07 g/m*3 18 C 0 km/h
2835 21-09-2004 15:35:01 18 C 4.92 g/m*3 18 C 0 km/h
2836 21-09-2004 15:47:01 18.2 C 5.28 g/m*3 18.2 C 0 km/h
2837 21-09-2004 15:59:01 18.2 C 4.97 g/m*3 18.2 C 0 km/h
2838 21-09-2004 16:11:01 18.7 C 4.96 g/m*3 18.7 C 0 km/h
2839 21-09-2004 16:23:01 18.1 C 4.94 g/m*3 18.1 C 0 km/h
2840 21-09-2004 16:35:00 18.4 C 5.19 g/m*3 18.4 C 0 km/h
2841 21-09-2004 16:47:01 18.6 C 5.09 g/m*3 18.6 C 0 km/h
2842 21-09-2004 16:59:01 18.2 C 5.13 g/m*3 18.2 C 0 km/h
2843 21-09-2004 17:11:02 18 C 5.07 g/m*3 18 C 0 km/h
2844 21-09-2004 17:23:01 18.2 C 5.28 g/m*3 18.2 C 0 km/h
2845 21-09-2004 17:35:01 18.2 C 5.13 g/m*3 18.2 C 0 km/h
2846 21-09-2004 17:47:02 17.8 C 5.16 g/m*3 17.8 C 0 km/h
2847 21-09-2004 17:59:02 18 C 5.07 g/m*3 18 C 0 km/h
2848 21-09-2004 18:11:02 17.8 C 5.31 g/m*3 17.8 C 0 km/h
2849 21-09-2004 18:23:02 17.9 C 5.34 g/m*3 17.9 C 0 km/h
2850 21-09-2004 18:35:02 17.2 C 5.42 g/m*3 17.2 C 0 km/h
Sensor: Nr:Datum:Temp:Abs-Feuchte:Windchill:Wind:
Aussen-T/F 2851 21-09-2004 18:47:01 17.1 C 5.39 g/m*3 17.1 C 0 km/h
2852 21-09-2004 18:59:01 16.3 C 5.41 g/m*3 16.3 C 0 km/h
2853 21-09-2004 19:11:01 15.8 C 5.52 g/m*3 15.8 C 0 km/h
2854 21-09-2004 19:23:01 15.5 C 5.55 g/m*3 15.5 C 0 km/h
2855 21-09-2004 19:35:01 15.1 C 5.55 g/m*3 15.1 C 0 km/h
2856 21-09-2004 19:47:02 14.8 C 5.7 g/m*3 14.8 C 0 km/h
2857 21-09-2004 19:59:02 14.4 C 5.81 g/m*3 14.4 C 0 km/h
2858 21-09-2004 20:11:02 14.4 C 5.93 g/m*3 14.4 C 0 km/h
2859 21-09-2004 20:23:02 14.3 C 5.9 g/m*3 14.3 C 0 km/h
2860 21-09-2004 20:35:02 14 C 5.91 g/m*3 14 C 0 km/h
2861 21-09-2004 20:47:02 13.9 C 5.99 g/m*3 13.9 C 0 km/h
2862 21-09-2004 20:59:02 13.8 C 5.84 g/m*3 13.8 C 0 km/h
2863 21-09-2004 21:11:02 13.7 C 5.92 g/m*3 13.7 C 0 km/h
2864 21-09-2004 21:23:02 13.8 C 5.96 g/m*3 13.8 C 0 km/h
2865 21-09-2004 21:35:02 13.7 C 5.92 g/m*3 13.7 C 0 km/h
2866 21-09-2004 21:47:01 13.5 C 5.97 g/m*3 13.5 C 0 km/h
2867 21-09-2004 21:59:01 13.5 C 6.08 g/m*3 13.5 C 0 km/h
2868 21-09-2004 22:11:01 13.6 C 6 g/m*3 13.6 C 0 km/h
2869 21-09-2004 22:23:01 13.5 C 6.08 g/m*3 13.5 C 0 km/h
2870 21-09-2004 22:35:01 13.2 C 6.09 g/m*3 13.2 C 0 km/h
2871 21-09-2004 22:47:01 13.3 C 6.12 g/m*3 13.3 C 0 km/h
2872 21-09-2004 22:59:01 13.1 C 6.05 g/m*3 13.1 C 0 km/h
2873 21-09-2004 23:11:01 13.1 C 6.16 g/m*3 13.1 C 0 km/h
2874 21-09-2004 23:23:01 13 C 6.12 g/m*3 13 C 0 km/h
2875 21-09-2004 23:35:00 13 C 6.12 g/m*3 13 C 0 km/h
Sensor: Nr:Datum:Temp:Abs-Feuchte:Windchill:Wind:
Aussen-T/F 2876 21-09-2004 23:47:01 12.9 C 6.31 g/m*3 12.9 C 0 km/h
2877 21-09-2004 23:59:01 12.8 C 6.38 g/m*3 12.8 C 0 km/h
2878 22-09-2004 00:11:01 12.7 C 6.46 g/m*3 12.7 C 0 km/h
2879 22-09-2004 00:23:01 12.4 C 6.45 g/m*3 12.4 C 0 km/h
2880 22-09-2004 00:35:01 12.2 C 6.37 g/m*3 12.2 C 0 km/h
2881 22-09-2004 00:47:01 12.2 C 6.47 g/m*3 12.2 C 0 km/h
2882 22-09-2004 00:59:01 12.1 C 6.43 g/m*3 12.1 C 0 km/h
2883 22-09-2004 01:11:01 12.1 C 6.54 g/m*3 12.1 C 0 km/h
2884 22-09-2004 01:23:01 12.2 C 6.58 g/m*3 12.2 C 0 km/h
2885 22-09-2004 01:35:01 12.3 C 6.62 g/m*3 12.3 C 0 km/h
2886 22-09-2004 01:47:01 12.2 C 6.58 g/m*3 12.2 C 0 km/h
2887 22-09-2004 01:59:01 12.2 C 6.58 g/m*3 12.2 C 0 km/h
2888 22-09-2004 02:11:01 12.5 C 6.6 g/m*3 12.5 C 0 km/h
2889 22-09-2004 02:23:01 12.5 C 6.49 g/m*3 12.5 C 0 km/h
2890 22-09-2004 02:35:00 12.4 C 6.56 g/m*3 12.4 C 0 km/h
2891 22-09-2004 02:48:03 12.4 C 6.56 g/m*3 12.4 C 0 km/h
2892 22-09-2004 03:00:03 12.3 C 6.52 g/m*3 12.3 C 0 km/h
2893 22-09-2004 03:12:03 12.1 C 6.54 g/m*3 12.1 C 0 km/h
2894 22-09-2004 03:24:03 12 C 6.5 g/m*3 12 C 0 km/h
2895 22-09-2004 03:36:01 11.8 C 6.63 g/m*3 11.8 C 0 km/h
2896 22-09-2004 03:48:01 11.7 C 6.59 g/m*3 11.7 C 0 km/h
2897 22-09-2004 04:00:01 11.7 C 6.59 g/m*3 11.7 C 0 km/h
2898 22-09-2004 04:12:01 11.7 C 6.48 g/m*3 11.7 C 0 km/h
2899 22-09-2004 04:24:02 11.5 C 6.51 g/m*3 11.5 C 0 km/h
2900 22-09-2004 04:36:01 11.4 C 6.47 g/m*3 11.4 C 0 km/h
Sensor: Nr:Datum:Temp:Abs-Feuchte:Windchill:Wind:
Aussen-T/F 2901 22-09-2004 04:48:01 11.3 C 6.43 g/m*3 11.3 C 0 km/h
2902 22-09-2004 05:00:01 11.3 C 6.43 g/m*3 11.3 C 0 km/h
2903 22-09-2004 05:12:01 11.2 C 6.49 g/m*3 11.2 C 0 km/h
2904 22-09-2004 05:24:01 11.1 C 6.45 g/m*3 11.1 C 0 km/h
2905 22-09-2004 05:36:00 11 C 6.41 g/m*3 11 C 0 km/h
2906 22-09-2004 05:48:01 11.1 C 6.35 g/m*3 11.1 C 0 km/h
2907 22-09-2004 06:00:01 10.9 C 6.37 g/m*3 10.9 C 0 km/h
2908 22-09-2004 06:12:01 10.8 C 6.42 g/m*3 10.8 C 0 km/h
2909 22-09-2004 06:24:01 11 C 6.31 g/m*3 11 C 0 km/h
2910 22-09-2004 06:36:00 11 C 6.41 g/m*3 11 C 0 km/h
2911 22-09-2004 06:48:01 10.8 C 6.52 g/m*3 10.8 C 0 km/h
2912 22-09-2004 07:00:01 10.7 C 6.48 g/m*3 10.7 C 0 km/h
2913 22-09-2004 07:12:01 10.6 C 6.54 g/m*3 10.6 C 0 km/h
2914 22-09-2004 07:24:00 10.7 C 6.48 g/m*3 10.7 C 0 km/h
2915 22-09-2004 07:36:00 10.7 C 6.48 g/m*3 10.7 C 0 km/h
2916 22-09-2004 07:48:02 10.7 C 6.48 g/m*3 10.7 C 0 km/h
2917 22-09-2004 08:00:02 10.7 C 6.48 g/m*3 10.7 C 0 km/h
2918 22-09-2004 08:12:02 10.8 C 6.42 g/m*3 10.8 C 0 km/h
2919 22-09-2004 08:24:01 11 C 6.31 g/m*3 11 C 0 km/h
2920 22-09-2004 08:36:01 11.2 C 6.28 g/m*3 11.2 C 0 km/h
2921 22-09-2004 08:48:01 11.5 C 6.3 g/m*3 11.5 C 0 km/h
2922 22-09-2004 09:00:01 11.7 C 6.38 g/m*3 11.7 C 0 km/h
2923 22-09-2004 09:12:01 11.9 C 6.46 g/m*3 11.9 C 0 km/h
2924 22-09-2004 09:24:00 11.9 C 6.46 g/m*3 11.9 C 0 km/h
2925 22-09-2004 09:36:00 11.8 C 6.53 g/m*3 11.8 C 0 km/h
Sensor: Nr:Datum:Temp:Abs-Feuchte:Windchill:Wind:
Aussen-T/F 2926 22-09-2004 09:48:01 11.7 C 6.69 g/m*3 11.7 C 0 km/h
2927 22-09-2004 10:00:01 11.9 C 6.78 g/m*3 11.9 C 0 km/h
2928 22-09-2004 10:12:01 12.4 C 6.77 g/m*3 12.4 C 0 km/h
2929 22-09-2004 10:24:00 12.9 C 6.88 g/m*3 12.9 C 0 km/h
2930 22-09-2004 10:36:00 13 C 6.8 g/m*3 13 C 0 km/h
2931 22-09-2004 10:48:01 13.3 C 6.93 g/m*3 13.3 C 0 km/h
2932 22-09-2004 11:00:01 13.5 C 6.78 g/m*3 13.5 C 0 km/h
2933 22-09-2004 11:12:02 13.3 C 6.7 g/m*3 13.3 C 0 km/h
2934 22-09-2004 11:24:01 13.2 C 6.66 g/m*3 13.2 C 0 km/h
2935 22-09-2004 11:36:01 13.6 C 6.59 g/m*3 13.6 C 0 km/h
2936 22-09-2004 11:48:01 13.7 C 6.51 g/m*3 13.7 C 0 km/h
2937 22-09-2004 12:00:01 14.2 C 6.59 g/m*3 14.2 C 0 km/h
2938 22-09-2004 12:12:01 14.4 C 6.43 g/m*3 14.4 C 0 km/h
2939 22-09-2004 12:24:00 14.9 C 6.63 g/m*3 14.9 C 0 km/h
2940 22-09-2004 12:36:00 15.1 C 6.06 g/m*3 15.1 C 0 km/h
2941 22-09-2004 12:48:01 15.4 C 6.18 g/m*3 15.4 C 0 km/h
2942 22-09-2004 13:00:01 15.2 C 5.97 g/m*3 15.2 C 0 km/h
2943 22-09-2004 13:12:01 15.6 C 5.98 g/m*3 15.6 C 0 km/h
2944 22-09-2004 13:24:00 15.6 C 6.12 g/m*3 15.6 C 0 km/h
2945 22-09-2004 13:36:00 15.8 C 6.19 g/m*3 15.8 C 0 km/h
2946 22-09-2004 13:48:01 15.7 C 6.02 g/m*3 15.7 C 0 km/h
2947 22-09-2004 14:00:01 15.6 C 6.12 g/m*3 15.6 C 0 km/h
2948 22-09-2004 14:12:01 15.1 C 5.93 g/m*3 15.1 C 0 km/h
2949 22-09-2004 14:24:00 15 C 5.77 g/m*3 15 C 0 km/h
2950 22-09-2004 14:36:01 15 C 6.03 g/m*3 15 C 0 km/h
Sensor: Nr:Datum:Temp:Abs-Feuchte:Windchill:Wind:
Aussen-T/F 2951 22-09-2004 14:48:01 14.8 C 6.21 g/m*3 14.8 C 0 km/h
2952 22-09-2004 15:00:01 14.8 C 6.33 g/m*3 14.8 C 0 km/h
2953 22-09-2004 15:12:01 14.5 C 6.59 g/m*3 14.5 C 0 km/h
2954 22-09-2004 15:24:00 13.8 C 7.15 g/m*3 13.8 C 0 km/h
2955 22-09-2004 15:36:00 13.4 C 7.44 g/m*3 13.4 C 0 km/h
2956 22-09-2004 15:48:01 12.8 C 7.95 g/m*3 12.8 C 0 km/h
2957 22-09-2004 16:00:01 12.5 C 8.14 g/m*3 12.5 C 0 km/h
2958 22-09-2004 16:12:01 12.1 C 8.47 g/m*3 12.1 C 0 km/h
2959 22-09-2004 16:24:01 11.8 C 8.74 g/m*3 11.8 C 0 km/h
2960 22-09-2004 16:36:00 11.7 C 8.89 g/m*3 11.7 C 0 km/h
2961 22-09-2004 16:48:01 11.6 C 8.94 g/m*3 11.6 C 0 km/h
2962 22-09-2004 17:00:01 11.5 C 8.99 g/m*3 11.5 C 0 km/h
2963 22-09-2004 17:12:01 11.4 C 9.03 g/m*3 11.4 C 0 km/h
2964 22-09-2004 17:24:01 11.5 C 9.09 g/m*3 11.5 C 0 km/h
2965 22-09-2004 17:36:01 11.5 C 9.19 g/m*3 11.5 C 0 km/h
2966 22-09-2004 17:48:02 11.6 C 9.25 g/m*3 11.6 C 0 km/h
2967 22-09-2004 18:00:02 11.7 C 9.41 g/m*3 11.7 C 0 km/h
2968 22-09-2004 18:12:02 11.7 C 9.41 g/m*3 11.7 C 0 km/h
2969 22-09-2004 18:24:02 11.7 C 9.52 g/m*3 11.7 C 0 km/h
2970 22-09-2004 18:36:02 11.7 C 9.52 g/m*3 11.7 C 0 km/h
2971 22-09-2004 18:48:01 11.8 C 9.58 g/m*3 11.8 C 0 km/h
2972 22-09-2004 19:00:01 11.8 C 9.58 g/m*3 11.8 C 0 km/h
2973 22-09-2004 19:12:00 11.9 C 9.74 g/m*3 11.9 C 0 km/h
2974 22-09-2004 19:24:00 12 C 9.7 g/m*3 12 C 0 km/h
2975 22-09-2004 19:36:00 12.1 C 9.76 g/m*3 12.1 C 0 km/h
Sensor: Nr:Datum:Temp:Abs-Feuchte:Windchill:Wind:
Aussen-T/F 2976 22-09-2004 19:48:01 12.2 C 9.93 g/m*3 12.2 C 0 km/h
2977 22-09-2004 20:00:01 12.2 C 9.93 g/m*3 12.2 C 0 km/h
2978 22-09-2004 20:12:00 12.3 C 9.99 g/m*3 12.3 C 0 km/h
2979 22-09-2004 20:24:00 12.4 C 10.05 g/m*3 12.4 C 0 km/h
2980 22-09-2004 20:36:00 12.5 C 10.11 g/m*3 12.5 C 0 km/h
2981 22-09-2004 20:48:01 12.5 C 10.11 g/m*3 12.5 C 0 km/h
2982 22-09-2004 21:00:01 12.6 C 10.29 g/m*3 12.6 C 0 km/h
2983 22-09-2004 21:12:01 12.6 C 10.29 g/m*3 12.6 C 0 km/h
2984 22-09-2004 21:24:01 12.7 C 10.35 g/m*3 12.7 C 0 km/h
2985 22-09-2004 21:36:01 12.8 C 10.3 g/m*3 12.8 C 0 km/h
2986 22-09-2004 21:48:01 12.8 C 10.3 g/m*3 12.8 C 0 km/h
2987 22-09-2004 22:00:01 12.9 C 10.37 g/m*3 12.9 C 0 km/h
2988 22-09-2004 22:12:01 13 C 10.43 g/m*3 13 C 0 km/h
2989 22-09-2004 22:24:02 13 C 10.43 g/m*3 13 C 0 km/h
2990 22-09-2004 22:36:02 13 C 10.43 g/m*3 13 C 0 km/h
2991 22-09-2004 22:48:01 13.1 C 10.5 g/m*3 13.1 C 0 km/h
2992 22-09-2004 23:00:01 13.1 C 10.5 g/m*3 13.1 C 0 km/h
2993 22-09-2004 23:12:01 13.4 C 10.69 g/m*3 13.4 C 0 km/h
2994 22-09-2004 23:24:00 13.3 C 10.63 g/m*3 13.3 C 0 km/h
2995 22-09-2004 23:36:00 13.3 C 10.63 g/m*3 13.3 C 0 km/h
2996 22-09-2004 23:48:01 13.2 C 10.56 g/m*3 13.2 C 0 km/h
2997 23-09-2004 00:00:01 13.2 C 10.56 g/m*3 13.2 C 0 km/h
2998 23-09-2004 00:12:01 13.2 C 10.56 g/m*3 13.2 C 0 km/h
2999 23-09-2004 00:24:01 13.3 C 10.63 g/m*3 13.3 C 0 km/h
3000 23-09-2004 00:36:00 13.4 C 10.58 g/m*3 13.4 C 0 km/h
Sensor: Nr:Datum:Temp:Abs-Feuchte:Windchill:Wind:
Aussen-T/F 3001 23-09-2004 00:48:01 13.5 C 10.64 g/m*3 13.5 C 0 km/h
3002 23-09-2004 01:00:01 13.5 C 10.64 g/m*3 13.5 C 0 km/h
3003 23-09-2004 01:12:01 13.5 C 10.53 g/m*3 13.5 C 0 km/h
3004 23-09-2004 01:24:02 13.6 C 10.59 g/m*3 13.6 C 0 km/h
3005 23-09-2004 01:36:02 13.5 C 10.64 g/m*3 13.5 C 0 km/h
3006 23-09-2004 01:48:01 13.1 C 10.38 g/m*3 13.1 C 0 km/h
3007 23-09-2004 02:00:01 13 C 10.43 g/m*3 13 C 0 km/h
3008 23-09-2004 02:12:01 12.8 C 10.42 g/m*3 12.8 C 0 km/h
3009 23-09-2004 02:24:01 12.5 C 10.11 g/m*3 12.5 C 0 km/h
3010 23-09-2004 02:36:00 12.3 C 10.1 g/m*3 12.3 C 0 km/h
3011 23-09-2004 02:49:02 12.2 C 10.04 g/m*3 12.2 C 0 km/h
3012 23-09-2004 03:01:02 12.2 C 9.93 g/m*3 12.2 C 0 km/h
3013 23-09-2004 03:13:03 12.2 C 10.04 g/m*3 12.2 C 0 km/h
3014 23-09-2004 03:25:03 12.1 C 9.97 g/m*3 12.1 C 0 km/h
3015 23-09-2004 03:37:01 12.1 C 9.97 g/m*3 12.1 C 0 km/h
3016 23-09-2004 03:49:01 12.1 C 9.97 g/m*3 12.1 C 0 km/h
3017 23-09-2004 04:01:01 12.1 C 9.97 g/m*3 12.1 C 0 km/h
3018 23-09-2004 04:13:01 12 C 10.02 g/m*3 12 C 0 km/h
3019 23-09-2004 04:25:01 11.9 C 9.96 g/m*3 11.9 C 0 km/h
3020 23-09-2004 04:37:01 11.8 C 9.89 g/m*3 11.8 C 0 km/h
3021 23-09-2004 04:49:01 11.8 C 9.89 g/m*3 11.8 C 0 km/h
3022 23-09-2004 05:01:01 11.7 C 9.83 g/m*3 11.7 C 0 km/h
3023 23-09-2004 05:13:01 11.8 C 9.89 g/m*3 11.8 C 0 km/h
3024 23-09-2004 05:25:01 11.8 C 9.89 g/m*3 11.8 C 0 km/h
3025 23-09-2004 05:37:00 11.8 C 10 g/m*3 11.8 C 0 km/h
Sensor: Nr:Datum:Temp:Abs-Feuchte:Windchill:Wind:
Aussen-T/F 3026 23-09-2004 05:49:01 11.7 C 9.94 g/m*3 11.7 C 0 km/h
3027 23-09-2004 06:01:01 11.7 C 9.94 g/m*3 11.7 C 0 km/h
3028 23-09-2004 06:13:01 11.7 C 9.94 g/m*3 11.7 C 0 km/h
3029 23-09-2004 06:25:00 11.7 C 9.94 g/m*3 11.7 C 0 km/h
3030 23-09-2004 06:37:00 11.7 C 9.94 g/m*3 11.7 C 0 km/h
3031 23-09-2004 06:49:01 11.8 C 10 g/m*3 11.8 C 0 km/h
3032 23-09-2004 07:01:01 12 C 10.12 g/m*3 12 C 0 km/h
3033 23-09-2004 07:13:01 12.7 C 10.58 g/m*3 12.7 C 0 km/h
3034 23-09-2004 07:25:02 13 C 10.77 g/m*3 13 C 0 km/h
3035 23-09-2004 07:37:01 12.9 C 10.71 g/m*3 12.9 C 0 km/h
3036 23-09-2004 07:49:01 13.2 C 10.91 g/m*3 13.2 C 0 km/h
3037 23-09-2004 08:01:01 13.3 C 10.98 g/m*3 13.3 C 0 km/h
3038 23-09-2004 08:13:01 13.4 C 11.04 g/m*3 13.4 C 0 km/h
3039 23-09-2004 08:25:00 13.6 C 11.18 g/m*3 13.6 C 0 km/h
3040 23-09-2004 08:37:00 13.8 C 11.32 g/m*3 13.8 C 0 km/h
3041 23-09-2004 08:49:01 13.9 C 11.39 g/m*3 13.9 C 0 km/h
3042 23-09-2004 09:01:01 14.1 C 11.53 g/m*3 14.1 C 0 km/h
3043 23-09-2004 09:13:01 14.4 C 11.74 g/m*3 14.4 C 0 km/h
3044 23-09-2004 09:25:00 14.4 C 11.74 g/m*3 14.4 C 0 km/h
3045 23-09-2004 09:37:00 14.5 C 11.82 g/m*3 14.5 C 0 km/h
3046 23-09-2004 09:49:01 14.7 C 11.96 g/m*3 14.7 C 0 km/h
3047 23-09-2004 10:01:01 14.9 C 12.11 g/m*3 14.9 C 0 km/h
3048 23-09-2004 10:13:01 15 C 12.05 g/m*3 15 C 0 km/h
3049 23-09-2004 10:25:00 15.2 C 12.2 g/m*3 15.2 C 0 km/h
3050 23-09-2004 10:37:00 15.4 C 12.22 g/m*3 15.4 C 0 km/h
Sensor: Nr:Datum:Temp:Abs-Feuchte:Windchill:Wind:
Aussen-T/F 3051 23-09-2004 10:49:01 15.7 C 12.44 g/m*3 15.7 C 0 km/h
3052 23-09-2004 11:01:02 15.8 C 12.38 g/m*3 15.8 C 0 km/h
3053 23-09-2004 11:13:02 16.4 C 12.56 g/m*3 16.4 C 0 km/h
3054 23-09-2004 11:25:02 16.3 C 12.35 g/m*3 16.3 C 0 km/h
3055 23-09-2004 11:37:01 16.5 C 12.36 g/m*3 16.5 C 0 km/h
3056 23-09-2004 11:49:01 16.4 C 12.28 g/m*3 16.4 C 0 km/h
3057 23-09-2004 12:01:01 16.3 C 12.35 g/m*3 16.3 C 0 km/h
3058 23-09-2004 12:13:01 16.4 C 12.42 g/m*3 16.4 C 0 km/h
3059 23-09-2004 12:25:00 16.6 C 12.57 g/m*3 16.6 C 0 km/h
3060 23-09-2004 12:37:00 17 C 12.59 g/m*3 17 C 0 km/h
3061 23-09-2004 12:49:01 17.3 C 12.52 g/m*3 17.3 C 0 km/h
3062 23-09-2004 13:01:01 17.3 C 12.52 g/m*3 17.3 C 0 km/h
3063 23-09-2004 13:13:01 17 C 12.59 g/m*3 17 C 0 km/h
3064 23-09-2004 13:25:00 17.1 C 12.81 g/m*3 17.1 C 0 km/h
3065 23-09-2004 13:37:00 17.5 C 13.12 g/m*3 17.5 C 0 km/h
3066 23-09-2004 13:49:01 17.9 C 13.28 g/m*3 17.9 C 0 km/h
3067 23-09-2004 14:01:01 18.5 C 13.29 g/m*3 18.5 C 0 km/h
3068 23-09-2004 14:13:01 18.1 C 12.82 g/m*3 18.1 C 0 km/h
3069 23-09-2004 14:25:01 17.2 C 12.45 g/m*3 17.2 C 0 km/h
3070 23-09-2004 14:37:00 16.4 C 12.28 g/m*3 16.4 C 0 km/h
3071 23-09-2004 14:49:01 15.9 C 12.46 g/m*3 15.9 C 0 km/h
3072 23-09-2004 15:01:02 16.3 C 12.76 g/m*3 16.3 C 0 km/h
3073 23-09-2004 15:13:02 16.8 C 13.15 g/m*3 16.8 C 0 km/h
3074 23-09-2004 15:25:02 17.5 C 12.82 g/m*3 17.5 C 0 km/h
3075 23-09-2004 15:37:01 17.2 C 12.3 g/m*3 17.2 C 0 km/h
Sensor: Nr:Datum:Temp:Abs-Feuchte:Windchill:Wind:
Aussen-T/F 3076 23-09-2004 15:49:01 15.4 C 11.17 g/m*3 15.4 C 0 km/h
3077 23-09-2004 16:01:01 14.5 C 11.07 g/m*3 14.5 C 0 km/h
3078 23-09-2004 16:13:01 14.4 C 11.13 g/m*3 14.4 C 0 km/h
3079 23-09-2004 16:25:01 14.3 C 11.06 g/m*3 14.3 C 0 km/h
3080 23-09-2004 16:37:00 13.6 C 10.47 g/m*3 13.6 C 0 km/h
3081 23-09-2004 16:49:01 13.3 C 10.28 g/m*3 13.3 C 0 km/h
3082 23-09-2004 17:01:01 13.1 C 10.04 g/m*3 13.1 C 0 km/h
3083 23-09-2004 17:13:01 12.9 C 9.92 g/m*3 12.9 C 0 km/h
3084 23-09-2004 17:25:02 12.7 C 9.68 g/m*3 12.7 C 0 km/h
3085 23-09-2004 17:37:01 12.7 C 9.8 g/m*3 12.7 C 0 km/h
3086 23-09-2004 17:49:02 12.6 C 9.85 g/m*3 12.6 C 0 km/h
3087 23-09-2004 18:01:03 12.5 C 9.78 g/m*3 12.5 C 0 km/h
3088 23-09-2004 18:13:03 12.4 C 9.72 g/m*3 12.4 C 0 km/h
3089 23-09-2004 18:25:02 12.5 C 9.68 g/m*3 12.5 C 0 km/h
3090 23-09-2004 18:37:02 12.4 C 9.4 g/m*3 12.4 C 0 km/h
3091 23-09-2004 18:49:01 12.4 C 9.29 g/m*3 12.4 C 0 km/h
3092 23-09-2004 19:01:02 12.3 C 9.23 g/m*3 12.3 C 0 km/h
3093 23-09-2004 19:13:02 12.5 C 9.24 g/m*3 12.5 C 0 km/h
3094 23-09-2004 19:25:01 12.5 C 8.91 g/m*3 12.5 C 0 km/h
3095 23-09-2004 19:37:01 12.5 C 8.69 g/m*3 12.5 C 0 km/h
3096 23-09-2004 19:49:01 12.5 C 8.47 g/m*3 12.5 C 0 km/h
3097 23-09-2004 20:01:01 12.4 C 8.41 g/m*3 12.4 C 0 km/h
3098 23-09-2004 20:13:01 12.4 C 8.3 g/m*3 12.4 C 0 km/h
3099 23-09-2004 20:25:01 11.9 C 8.58 g/m*3 11.9 C 0 km/h
3100 23-09-2004 20:37:01 11.4 C 8.52 g/m*3 11.4 C 0 km/h
Sensor: Nr:Datum:Temp:Abs-Feuchte:Windchill:Wind:
Aussen-T/F 3101 23-09-2004 20:49:02 11 C 8.31 g/m*3 11 C 0 km/h
3102 23-09-2004 21:01:01 10.9 C 8.26 g/m*3 10.9 C 0 km/h
3103 23-09-2004 21:13:01 10.7 C 8.25 g/m*3 10.7 C 0 km/h
3104 23-09-2004 21:25:02 10.7 C 8.15 g/m*3 10.7 C 0 km/h
3105 23-09-2004 21:37:02 10.6 C 8.2 g/m*3 10.6 C 0 km/h
3106 23-09-2004 21:49:01 10.5 C 8.15 g/m*3 10.5 C 0 km/h
3107 23-09-2004 22:01:01 10.5 C 8.24 g/m*3 10.5 C 0 km/h
3108 23-09-2004 22:13:01 10.3 C 8.14 g/m*3 10.3 C 0 km/h
3109 23-09-2004 22:25:01 10.3 C 8.24 g/m*3 10.3 C 0 km/h
3110 23-09-2004 22:37:01 10.4 C 8.19 g/m*3 10.4 C 0 km/h
3111 23-09-2004 22:49:01 11 C 8.21 g/m*3 11 C 0 km/h
3112 23-09-2004 23:01:01 11.1 C 7.96 g/m*3 11.1 C 0 km/h
3113 23-09-2004 23:13:01 11.1 C 7.96 g/m*3 11.1 C 0 km/h
3114 23-09-2004 23:25:01 11 C 7.91 g/m*3 11 C 0 km/h
3115 23-09-2004 23:37:01 10.8 C 8.01 g/m*3 10.8 C 0 km/h
3116 23-09-2004 23:49:01 10.8 C 8.01 g/m*3 10.8 C 0 km/h
3117 24-09-2004 00:01:01 10.4 C 7.9 g/m*3 10.4 C 0 km/h
3118 24-09-2004 00:13:01 10.6 C 8 g/m*3 10.6 C 0 km/h
3119 24-09-2004 00:25:01 10.6 C 8 g/m*3 10.6 C 0 km/h
3120 24-09-2004 00:37:01 10.9 C 7.96 g/m*3 10.9 C 0 km/h
3121 24-09-2004 00:49:01 11.2 C 7.8 g/m*3 11.2 C 0 km/h
3122 24-09-2004 01:01:01 11.2 C 7.7 g/m*3 11.2 C 0 km/h
3123 24-09-2004 01:13:01 11.4 C 7.7 g/m*3 11.4 C 0 km/h
3124 24-09-2004 01:25:01 11.3 C 7.65 g/m*3 11.3 C 0 km/h
3125 24-09-2004 01:37:01 11.1 C 7.76 g/m*3 11.1 C 0 km/h
Sensor: Nr:Datum:Temp:Abs-Feuchte:Windchill:Wind:
Aussen-T/F 3126 24-09-2004 01:49:01 11 C 7.81 g/m*3 11 C 0 km/h
3127 24-09-2004 02:01:01 11.2 C 7.7 g/m*3 11.2 C 0 km/h
3128 24-09-2004 02:13:01 11.2 C 7.7 g/m*3 11.2 C 0 km/h
3129 24-09-2004 02:25:01 11.3 C 7.65 g/m*3 11.3 C 0 km/h
3130 24-09-2004 02:37:01 11.3 C 7.65 g/m*3 11.3 C 0 km/h
3131 24-09-2004 02:50:03 11.3 C 7.65 g/m*3 11.3 C 0 km/h
3132 24-09-2004 03:02:03 11.2 C 7.7 g/m*3 11.2 C 0 km/h
3133 24-09-2004 03:14:03 11.1 C 7.76 g/m*3 11.1 C 0 km/h
3134 24-09-2004 03:26:03 10.8 C 7.91 g/m*3 10.8 C 0 km/h
3135 24-09-2004 03:38:01 10.3 C 8.14 g/m*3 10.3 C 0 km/h
3136 24-09-2004 03:50:01 10.1 C 8.23 g/m*3 10.1 C 0 km/h
3137 24-09-2004 04:02:01 10.2 C 8.28 g/m*3 10.2 C 0 km/h
3138 24-09-2004 04:14:01 10.3 C 8.33 g/m*3 10.3 C 0 km/h
3139 24-09-2004 04:26:01 10.2 C 8.28 g/m*3 10.2 C 0 km/h
3140 24-09-2004 04:38:01 10 C 8.36 g/m*3 10 C 0 km/h
3141 24-09-2004 04:50:01 10 C 8.36 g/m*3 10 C 0 km/h
3142 24-09-2004 05:02:01 10 C 8.46 g/m*3 10 C 0 km/h
3143 24-09-2004 05:14:01 10 C 8.46 g/m*3 10 C 0 km/h
3144 24-09-2004 05:26:01 10.1 C 8.51 g/m*3 10.1 C 0 km/h
3145 24-09-2004 05:38:01 10 C 8.46 g/m*3 10 C 0 km/h
3146 24-09-2004 05:50:02 10 C 8.46 g/m*3 10 C 0 km/h
3147 24-09-2004 06:02:02 9.9 C 8.4 g/m*3 9.9 C 0 km/h
3148 24-09-2004 06:14:02 10 C 8.36 g/m*3 10 C 0 km/h
3149 24-09-2004 06:26:02 10 C 8.36 g/m*3 10 C 0 km/h
3150 24-09-2004 06:38:01 10 C 8.36 g/m*3 10 C 0 km/h
Sensor: Nr:Datum:Temp:Abs-Feuchte:Windchill:Wind:
Aussen-T/F 3151 24-09-2004 06:50:01 10 C 8.46 g/m*3 10 C 0 km/h
3152 24-09-2004 07:02:01 10 C 8.46 g/m*3 10 C 0 km/h
3153 24-09-2004 07:14:01 10 C 8.36 g/m*3 10 C 0 km/h
3154 24-09-2004 07:26:01 9.8 C 8.35 g/m*3 9.8 C 0 km/h
3155 24-09-2004 07:38:01 9.5 C 8.19 g/m*3 9.5 C 0 km/h
3156 24-09-2004 07:50:02 9.2 C 8.04 g/m*3 9.2 C 0 km/h
3157 24-09-2004 08:02:02 9.4 C 8.23 g/m*3 9.4 C 0 km/h
3158 24-09-2004 08:14:02 9.7 C 8.48 g/m*3 9.7 C 0 km/h
3159 24-09-2004 08:26:02 9.8 C 8.54 g/m*3 9.8 C 0 km/h
3160 24-09-2004 08:38:01 9.8 C 8.35 g/m*3 9.8 C 0 km/h
3161 24-09-2004 08:50:01 10.2 C 8.28 g/m*3 10.2 C 0 km/h
3162 24-09-2004 09:02:01 10.5 C 8.24 g/m*3 10.5 C 0 km/h
3163 24-09-2004 09:14:01 10 C 7.99 g/m*3 10 C 0 km/h
3164 24-09-2004 09:26:01 10.2 C 8.18 g/m*3 10.2 C 0 km/h
3165 24-09-2004 09:38:01 10.7 C 8.15 g/m*3 10.7 C 0 km/h
3166 24-09-2004 09:50:01 10.7 C 8.05 g/m*3 10.7 C 0 km/h
3167 24-09-2004 10:02:01 11 C 7.91 g/m*3 11 C 0 km/h
3168 24-09-2004 10:14:01 11.2 C 8.01 g/m*3 11.2 C 0 km/h
3169 24-09-2004 10:26:01 11 C 7.81 g/m*3 11 C 0 km/h
3170 24-09-2004 10:38:00 11.4 C 7.8 g/m*3 11.4 C 0 km/h
3171 24-09-2004 10:50:01 11.8 C 7.68 g/m*3 11.8 C 0 km/h
3172 24-09-2004 11:02:01 11.8 C 7.58 g/m*3 11.8 C 0 km/h
3173 24-09-2004 11:14:01 12.1 C 7.51 g/m*3 12.1 C 0 km/h
3174 24-09-2004 11:26:02 12.4 C 7.43 g/m*3 12.4 C 0 km/h
3175 24-09-2004 11:38:01 12.3 C 7.17 g/m*3 12.3 C 0 km/h
Sensor: Nr:Datum:Temp:Abs-Feuchte:Windchill:Wind:
Aussen-T/F 3176 24-09-2004 11:50:01 12.4 C 6.88 g/m*3 12.4 C 0 km/h
3177 24-09-2004 12:02:01 12.8 C 6.94 g/m*3 12.8 C 0 km/h
3178 24-09-2004 12:14:01 13.3 C 6.93 g/m*3 13.3 C 0 km/h
3179 24-09-2004 12:26:00 13 C 6.69 g/m*3 13 C 0 km/h
3180 24-09-2004 12:38:00 13.3 C 6.82 g/m*3 13.3 C 0 km/h
3181 24-09-2004 12:50:01 11.5 C 7.33 g/m*3 11.5 C 0 km/h
3182 24-09-2004 13:02:01 11.7 C 8.16 g/m*3 11.7 C 0 km/h
3183 24-09-2004 13:14:01 12.7 C 8.01 g/m*3 12.7 C 0 km/h
3184 24-09-2004 13:26:01 13.7 C 7.46 g/m*3 13.7 C 0 km/h
3185 24-09-2004 13:38:00 13.4 C 6.97 g/m*3 13.4 C 0 km/h
3186 24-09-2004 13:50:01 13.3 C 6.82 g/m*3 13.3 C 0 km/h
3187 24-09-2004 14:02:01 14.4 C 7.05 g/m*3 14.4 C 0 km/h
3188 24-09-2004 14:14:01 14.4 C 6.68 g/m*3 14.4 C 0 km/h
3189 24-09-2004 14:26:01 14.2 C 6.84 g/m*3 14.2 C 0 km/h
3190 24-09-2004 14:38:00 14 C 6.75 g/m*3 14 C 0 km/h
3191 24-09-2004 14:50:01 13.6 C 6.71 g/m*3 13.6 C 0 km/h
3192 24-09-2004 15:02:01 14.2 C 6.84 g/m*3 14.2 C 0 km/h
3193 24-09-2004 15:14:01 14.7 C 6.92 g/m*3 14.7 C 0 km/h
3194 24-09-2004 15:26:01 14.8 C 6.84 g/m*3 14.8 C 0 km/h
3195 24-09-2004 15:38:00 14.5 C 6.72 g/m*3 14.5 C 0 km/h
3196 24-09-2004 15:50:02 14.4 C 6.55 g/m*3 14.4 C 0 km/h
3197 24-09-2004 16:02:02 15.1 C 6.19 g/m*3 15.1 C 0 km/h
3198 24-09-2004 16:14:02 16 C 6.4 g/m*3 16 C 0 km/h
3199 24-09-2004 16:26:02 15.6 C 6.38 g/m*3 15.6 C 0 km/h
3200 24-09-2004 16:38:01 15.4 C 6.44 g/m*3 15.4 C 0 km/h
Sensor: Nr:Datum:Temp:Abs-Feuchte:Windchill:Wind:
Aussen-T/F 3201 24-09-2004 16:50:01 15.6 C 6.52 g/m*3 15.6 C 0 km/h
3202 24-09-2004 17:02:01 16.5 C 6.32 g/m*3 16.5 C 0 km/h
3203 24-09-2004 17:14:01 15.8 C 6.19 g/m*3 15.8 C 0 km/h
3204 24-09-2004 17:26:01 15.7 C 6.29 g/m*3 15.7 C 0 km/h
3205 24-09-2004 17:38:00 15.8 C 6.33 g/m*3 15.8 C 0 km/h
3206 24-09-2004 17:50:01 14.8 C 5.95 g/m*3 14.8 C 0 km/h
3207 24-09-2004 18:02:02 14.6 C 6.13 g/m*3 14.6 C 0 km/h
3208 24-09-2004 18:14:02 14.4 C 6.18 g/m*3 14.4 C 0 km/h
3209 24-09-2004 18:26:01 14.3 C 6.51 g/m*3 14.3 C 0 km/h
3210 24-09-2004 18:38:00 14 C 6.51 g/m*3 14 C 0 km/h
3211 24-09-2004 18:50:01 13.7 C 6.63 g/m*3 13.7 C 0 km/h
3212 24-09-2004 19:02:01 13.5 C 6.78 g/m*3 13.5 C 0 km/h
3213 24-09-2004 19:14:01 13.5 C 6.78 g/m*3 13.5 C 0 km/h
3214 24-09-2004 19:26:02 13.3 C 6.93 g/m*3 13.3 C 0 km/h
3215 24-09-2004 19:38:02 13.2 C 7 g/m*3 13.2 C 0 km/h
3216 24-09-2004 19:50:01 13.2 C 6.89 g/m*3 13.2 C 0 km/h
3217 24-09-2004 20:02:01 13 C 6.92 g/m*3 13 C 0 km/h
3218 24-09-2004 20:14:01 12.9 C 6.99 g/m*3 12.9 C 0 km/h
3219 24-09-2004 20:26:01 12.8 C 7.06 g/m*3 12.8 C 0 km/h
3220 24-09-2004 20:38:00 12.8 C 7.17 g/m*3 12.8 C 0 km/h
3221 24-09-2004 20:50:01 12.5 C 7.37 g/m*3 12.5 C 0 km/h
3222 24-09-2004 21:02:01 12.4 C 7.54 g/m*3 12.4 C 0 km/h
3223 24-09-2004 21:14:01 12.5 C 7.48 g/m*3 12.5 C 0 km/h
3224 24-09-2004 21:26:01 12.5 C 7.48 g/m*3 12.5 C 0 km/h
3225 24-09-2004 21:38:00 12.5 C 7.48 g/m*3 12.5 C 0 km/h
Sensor: Nr:Datum:Temp:Abs-Feuchte:Windchill:Wind:
Aussen-T/F 3226 24-09-2004 21:50:01 12.5 C 7.59 g/m*3 12.5 C 0 km/h
3227 24-09-2004 22:02:01 12.5 C 7.59 g/m*3 12.5 C 0 km/h
3228 24-09-2004 22:14:01 12.4 C 7.76 g/m*3 12.4 C 0 km/h
3229 24-09-2004 22:26:01 12.2 C 7.99 g/m*3 12.2